<?xml version="1.0" encoding="UTF-8" standalone="no" ?>
<gpx xmlns="http://www.topografix.com/GPX/1/1" xmlns:xsi="http://www.w3.org/2001/XMLSchema-instance" xsi:schemaLocation="http://www.topografix.com/GPX/1/1 http://www.topografix.com/GPX/1/1/gpx.xsd" version="1.1" creator="VisuGPX - https://www.visugpx.com">
  <metadata>
    <name>Plouarzel - Belgrade</name>
    <desc><![CDATA[Arrivée à Belgrade le 11 juillet. 66 jours pédalés. 7 jours de repos.
]]></desc>
  </metadata>
  <trk>
    <name><![CDATA[Sortie à vélo]]></name>
    <extensions>
      <line xmlns="http://www.topografix.com/GPX/gpx_style/0/2">
        <color>0000FF</color>
        <width>4</width>
      </line>
    </extensions>
    <trkseg>
      <trkpt lat="48.43306" lon="-4.71989">
        <ele>119.300726</ele>
        <time>2023-04-30T12:45:41.724Z</time>
      </trkpt>
      <trkpt lat="48.43296" lon="-4.72002">
        <ele>119.300726</ele>
        <time>2023-04-30T12:46:03.174Z</time>
      </trkpt>
      <trkpt lat="48.43287" lon="-4.72011">
        <ele>119.300726</ele>
        <time>2023-04-30T12:46:08.169Z</time>
      </trkpt>
      <trkpt lat="48.43284" lon="-4.72027">
        <ele>119.300726</ele>
        <time>2023-04-30T12:46:13.176Z</time>
      </trkpt>
      <trkpt lat="48.43287" lon="-4.72043">
        <ele>119.300726</ele>
        <time>2023-04-30T12:46:18.189Z</time>
      </trkpt>
      <trkpt lat="48.4329" lon="-4.72058">
        <ele>119.300726</ele>
        <time>2023-04-30T12:46:22.179Z</time>
      </trkpt>
      <trkpt lat="48.43293" lon="-4.72074">
        <ele>119.300726</ele>
        <time>2023-04-30T12:46:26.176Z</time>
      </trkpt>
      <trkpt lat="48.43296" lon="-4.72091">
        <ele>119.300726</ele>
        <time>2023-04-30T12:46:30.189Z</time>
      </trkpt>
      <trkpt lat="48.43305" lon="-4.721">
        <ele>119.300726</ele>
        <time>2023-04-30T12:46:35.175Z</time>
      </trkpt>
      <trkpt lat="48.43315" lon="-4.72095">
        <ele>119.515971</ele>
        <time>2023-04-30T12:46:40.182Z</time>
      </trkpt>
      <trkpt lat="48.43324" lon="-4.72091">
        <ele>119.713434</ele>
        <time>2023-04-30T12:46:44.181Z</time>
      </trkpt>
      <trkpt lat="48.43333" lon="-4.72085">
        <ele>119.915626</ele>
        <time>2023-04-30T12:46:48.188Z</time>
      </trkpt>
      <trkpt lat="48.43342" lon="-4.72081">
        <ele>120.115471</ele>
        <time>2023-04-30T12:46:52.184Z</time>
      </trkpt>
      <trkpt lat="48.4335" lon="-4.72075">
        <ele>120.310463</ele>
        <time>2023-04-30T12:46:56.188Z</time>
      </trkpt>
      <trkpt lat="48.43355" lon="-4.72062">
        <ele>120.525819</ele>
        <time>2023-04-30T12:47:01.174Z</time>
      </trkpt>
      <trkpt lat="48.43363" lon="-4.72052">
        <ele>120.743289</ele>
        <time>2023-04-30T12:47:06.191Z</time>
      </trkpt>
      <trkpt lat="48.43369" lon="-4.72042">
        <ele>120.93473</ele>
        <time>2023-04-30T12:47:11.174Z</time>
      </trkpt>
      <trkpt lat="48.43366" lon="-4.72027">
        <ele>121.144021</ele>
        <time>2023-04-30T12:47:16.178Z</time>
      </trkpt>
      <trkpt lat="48.43361" lon="-4.72013">
        <ele>121.362494</ele>
        <time>2023-04-30T12:47:21.179Z</time>
      </trkpt>
      <trkpt lat="48.43358" lon="-4.71998">
        <ele>121.587242</ele>
        <time>2023-04-30T12:47:26.186Z</time>
      </trkpt>
      <trkpt lat="48.43355" lon="-4.71983">
        <ele>121.810944</ele>
        <time>2023-04-30T12:47:31.190Z</time>
      </trkpt>
      <trkpt lat="48.43352" lon="-4.7197">
        <ele>122.010952</ele>
        <time>2023-04-30T12:47:35.171Z</time>
      </trkpt>
      <trkpt lat="48.43349" lon="-4.71956">
        <ele>122.215386</ele>
        <time>2023-04-30T12:47:39.186Z</time>
      </trkpt>
      <trkpt lat="48.43348" lon="-4.71942">
        <ele>122.414898</ele>
        <time>2023-04-30T12:47:43.173Z</time>
      </trkpt>
      <trkpt lat="48.43346" lon="-4.71927">
        <ele>122.62178</ele>
        <time>2023-04-30T12:47:47.176Z</time>
      </trkpt>
      <trkpt lat="48.43347" lon="-4.71913">
        <ele>122.815692</ele>
        <time>2023-04-30T12:47:51.175Z</time>
      </trkpt>
      <trkpt lat="48.43346" lon="-4.71899">
        <ele>123.012491</ele>
        <time>2023-04-30T12:47:55.171Z</time>
      </trkpt>
      <trkpt lat="48.43346" lon="-4.71885">
        <ele>123.230807</ele>
        <time>2023-04-30T12:47:59.185Z</time>
      </trkpt>
      <trkpt lat="48.43347" lon="-4.7187">
        <ele>123.472379</ele>
        <time>2023-04-30T12:48:03.172Z</time>
      </trkpt>
      <trkpt lat="48.43346" lon="-4.71856">
        <ele>123.70887</ele>
        <time>2023-04-30T12:48:07.177Z</time>
      </trkpt>
      <trkpt lat="48.43345" lon="-4.71842">
        <ele>123.949509</ele>
        <time>2023-04-30T12:48:11.177Z</time>
      </trkpt>
      <trkpt lat="48.43344" lon="-4.71826">
        <ele>124.221835</ele>
        <time>2023-04-30T12:48:16.183Z</time>
      </trkpt>
      <trkpt lat="48.43344" lon="-4.71812">
        <ele>124.452404</ele>
        <time>2023-04-30T12:48:21.163Z</time>
      </trkpt>
      <trkpt lat="48.43348" lon="-4.71798">
        <ele>124.695657</ele>
        <time>2023-04-30T12:48:25.178Z</time>
      </trkpt>
      <trkpt lat="48.43351" lon="-4.71784">
        <ele>124.938144</ele>
        <time>2023-04-30T12:48:29.179Z</time>
      </trkpt>
      <trkpt lat="48.43353" lon="-4.71771">
        <ele>125.170307</ele>
        <time>2023-04-30T12:48:33.177Z</time>
      </trkpt>
      <trkpt lat="48.43356" lon="-4.71758">
        <ele>125.398618</ele>
        <time>2023-04-30T12:48:37.170Z</time>
      </trkpt>
      <trkpt lat="48.43358" lon="-4.71743">
        <ele>125.643918</ele>
        <time>2023-04-30T12:48:41.176Z</time>
      </trkpt>
      <trkpt lat="48.43361" lon="-4.7173">
        <ele>125.87391</ele>
        <time>2023-04-30T12:48:45.178Z</time>
      </trkpt>
      <trkpt lat="48.43363" lon="-4.71715">
        <ele>126.130953</ele>
        <time>2023-04-30T12:48:50.191Z</time>
      </trkpt>
      <trkpt lat="48.43359" lon="-4.71699">
        <ele>126.405052</ele>
        <time>2023-04-30T12:48:56.184Z</time>
      </trkpt>
      <trkpt lat="48.43354" lon="-4.71685">
        <ele>126.679417</ele>
        <time>2023-04-30T12:49:01.180Z</time>
      </trkpt>
      <trkpt lat="48.43346" lon="-4.71676">
        <ele>126.940726</ele>
        <time>2023-04-30T12:49:05.181Z</time>
      </trkpt>
      <trkpt lat="48.43338" lon="-4.71663">
        <ele>127.222343</ele>
        <time>2023-04-30T12:49:10.171Z</time>
      </trkpt>
      <trkpt lat="48.43331" lon="-4.71652">
        <ele>127.485773</ele>
        <time>2023-04-30T12:49:14.176Z</time>
      </trkpt>
      <trkpt lat="48.43328" lon="-4.71639">
        <ele>127.734118</ele>
        <time>2023-04-30T12:49:18.175Z</time>
      </trkpt>
      <trkpt lat="48.43326" lon="-4.71624">
        <ele>128.042448</ele>
        <time>2023-04-30T12:49:22.168Z</time>
      </trkpt>
      <trkpt lat="48.43324" lon="-4.71608">
        <ele>128.365658</ele>
        <time>2023-04-30T12:49:26.170Z</time>
      </trkpt>
      <trkpt lat="48.43324" lon="-4.71593">
        <ele>128.653786</ele>
        <time>2023-04-30T12:49:30.172Z</time>
      </trkpt>
      <trkpt lat="48.43325" lon="-4.71579">
        <ele>128.928665</ele>
        <time>2023-04-30T12:49:34.171Z</time>
      </trkpt>
      <trkpt lat="48.43327" lon="-4.71574">
        <ele>129.052433</ele>
        <time>2023-04-30T12:49:46.558Z</time>
      </trkpt>
      <trkpt lat="48.43343" lon="-4.71546">
        <ele>129.787797</ele>
        <time>2023-04-30T12:56:56.188Z</time>
      </trkpt>
      <trkpt lat="48.43334" lon="-4.71545">
        <ele>130.065979</ele>
        <time>2023-04-30T12:57:01.190Z</time>
      </trkpt>
      <trkpt lat="48.43325" lon="-4.71547">
        <ele>130.336849</ele>
        <time>2023-04-30T12:57:05.182Z</time>
      </trkpt>
      <trkpt lat="48.43315" lon="-4.7155">
        <ele>130.653993</ele>
        <time>2023-04-30T12:57:10.189Z</time>
      </trkpt>
      <trkpt lat="48.43302" lon="-4.71555">
        <ele>131.051611</ele>
        <time>2023-04-30T12:57:33.180Z</time>
      </trkpt>
      <trkpt lat="48.43291" lon="-4.71559">
        <ele>131.380972</ele>
        <time>2023-04-30T12:57:38.190Z</time>
      </trkpt>
      <trkpt lat="48.4328" lon="-4.71558">
        <ele>131.711259</ele>
        <time>2023-04-30T12:57:43.184Z</time>
      </trkpt>
      <trkpt lat="48.43271" lon="-4.71557">
        <ele>131.982496</ele>
        <time>2023-04-30T12:57:47.177Z</time>
      </trkpt>
      <trkpt lat="48.43261" lon="-4.71554">
        <ele>132.269084</ele>
        <time>2023-04-30T12:57:51.176Z</time>
      </trkpt>
      <trkpt lat="48.43251" lon="-4.71548">
        <ele>132.58777</ele>
        <time>2023-04-30T12:57:56.186Z</time>
      </trkpt>
      <trkpt lat="48.43241" lon="-4.71542">
        <ele>132.917587</ele>
        <time>2023-04-30T12:58:01.178Z</time>
      </trkpt>
      <trkpt lat="48.43231" lon="-4.71539">
        <ele>133.188272</ele>
        <time>2023-04-30T12:58:06.182Z</time>
      </trkpt>
      <trkpt lat="48.43222" lon="-4.71535">
        <ele>133.424638</ele>
        <time>2023-04-30T12:58:10.201Z</time>
      </trkpt>
      <trkpt lat="48.43212" lon="-4.7153">
        <ele>133.721063</ele>
        <time>2023-04-30T12:58:15.186Z</time>
      </trkpt>
      <trkpt lat="48.43203" lon="-4.71525">
        <ele>133.969403</ele>
        <time>2023-04-30T12:58:19.181Z</time>
      </trkpt>
      <trkpt lat="48.43194" lon="-4.7152">
        <ele>134.214752</ele>
        <time>2023-04-30T12:58:23.176Z</time>
      </trkpt>
      <trkpt lat="48.43185" lon="-4.71514">
        <ele>134.457999</ele>
        <time>2023-04-30T12:58:27.179Z</time>
      </trkpt>
      <trkpt lat="48.43176" lon="-4.71509">
        <ele>134.70879</ele>
        <time>2023-04-30T12:58:31.184Z</time>
      </trkpt>
      <trkpt lat="48.43167" lon="-4.71504">
        <ele>134.966956</ele>
        <time>2023-04-30T12:58:35.188Z</time>
      </trkpt>
      <trkpt lat="48.43158" lon="-4.71499">
        <ele>135.222032</ele>
        <time>2023-04-30T12:58:39.190Z</time>
      </trkpt>
      <trkpt lat="48.43149" lon="-4.71494">
        <ele>135.469957</ele>
        <time>2023-04-30T12:58:43.177Z</time>
      </trkpt>
      <trkpt lat="48.4314" lon="-4.71491">
        <ele>135.7093</ele>
        <time>2023-04-30T12:58:47.183Z</time>
      </trkpt>
      <trkpt lat="48.43131" lon="-4.71485">
        <ele>135.977293</ele>
        <time>2023-04-30T12:58:51.254Z</time>
      </trkpt>
      <trkpt lat="48.43122" lon="-4.7148">
        <ele>136.229951</ele>
        <time>2023-04-30T12:58:55.182Z</time>
      </trkpt>
      <trkpt lat="48.43112" lon="-4.71476">
        <ele>136.496819</ele>
        <time>2023-04-30T12:58:59.184Z</time>
      </trkpt>
      <trkpt lat="48.43102" lon="-4.71471">
        <ele>136.768203</ele>
        <time>2023-04-30T12:59:03.177Z</time>
      </trkpt>
      <trkpt lat="48.43092" lon="-4.71466">
        <ele>137.033061</ele>
        <time>2023-04-30T12:59:07.183Z</time>
      </trkpt>
      <trkpt lat="48.43083" lon="-4.71462">
        <ele>137.298074</ele>
        <time>2023-04-30T12:59:11.179Z</time>
      </trkpt>
      <trkpt lat="48.43073" lon="-4.71456">
        <ele>137.561897</ele>
        <time>2023-04-30T12:59:15.171Z</time>
      </trkpt>
      <trkpt lat="48.43064" lon="-4.71452">
        <ele>137.585929</ele>
        <time>2023-04-30T12:59:19.179Z</time>
      </trkpt>
      <trkpt lat="48.43054" lon="-4.71446">
        <ele>137.470036</ele>
        <time>2023-04-30T12:59:23.180Z</time>
      </trkpt>
      <trkpt lat="48.43044" lon="-4.71442">
        <ele>137.35428</ele>
        <time>2023-04-30T12:59:27.188Z</time>
      </trkpt>
      <trkpt lat="48.43034" lon="-4.71437">
        <ele>137.240164</ele>
        <time>2023-04-30T12:59:31.188Z</time>
      </trkpt>
      <trkpt lat="48.43025" lon="-4.71431">
        <ele>137.129746</ele>
        <time>2023-04-30T12:59:35.183Z</time>
      </trkpt>
      <trkpt lat="48.43016" lon="-4.71426">
        <ele>137.021673</ele>
        <time>2023-04-30T12:59:39.183Z</time>
      </trkpt>
      <trkpt lat="48.43006" lon="-4.71419">
        <ele>136.902309</ele>
        <time>2023-04-30T12:59:44.176Z</time>
      </trkpt>
      <trkpt lat="48.42997" lon="-4.71411">
        <ele>136.788441</ele>
        <time>2023-04-30T12:59:49.175Z</time>
      </trkpt>
      <trkpt lat="48.4299" lon="-4.71404">
        <ele>136.687722</ele>
        <time>2023-04-30T12:59:53.186Z</time>
      </trkpt>
      <trkpt lat="48.42982" lon="-4.71394">
        <ele>136.572139</ele>
        <time>2023-04-30T12:59:58.199Z</time>
      </trkpt>
      <trkpt lat="48.42975" lon="-4.71384">
        <ele>136.468214</ele>
        <time>2023-04-30T13:00:02.179Z</time>
      </trkpt>
      <trkpt lat="48.42969" lon="-4.71371">
        <ele>136.348058</ele>
        <time>2023-04-30T13:00:06.185Z</time>
      </trkpt>
      <trkpt lat="48.42962" lon="-4.71357">
        <ele>136.22189</ele>
        <time>2023-04-30T13:00:10.191Z</time>
      </trkpt>
      <trkpt lat="48.42957" lon="-4.71341">
        <ele>136.088406</ele>
        <time>2023-04-30T13:00:14.184Z</time>
      </trkpt>
      <trkpt lat="48.42952" lon="-4.71329">
        <ele>135.98843</ele>
        <time>2023-04-30T13:00:17.200Z</time>
      </trkpt>
      <trkpt lat="48.42948" lon="-4.71317">
        <ele>135.885742</ele>
        <time>2023-04-30T13:00:20.185Z</time>
      </trkpt>
      <trkpt lat="48.42944" lon="-4.71304">
        <ele>135.779608</ele>
        <time>2023-04-30T13:00:23.176Z</time>
      </trkpt>
      <trkpt lat="48.42938" lon="-4.71289">
        <ele>135.650519</ele>
        <time>2023-04-30T13:00:27.189Z</time>
      </trkpt>
      <trkpt lat="48.42931" lon="-4.71274">
        <ele>135.537808</ele>
        <time>2023-04-30T13:00:31.187Z</time>
      </trkpt>
      <trkpt lat="48.42927" lon="-4.71261">
        <ele>135.445866</ele>
        <time>2023-04-30T13:00:34.190Z</time>
      </trkpt>
      <trkpt lat="48.42922" lon="-4.71248">
        <ele>135.355008</ele>
        <time>2023-04-30T13:00:37.200Z</time>
      </trkpt>
      <trkpt lat="48.42917" lon="-4.71232">
        <ele>135.242888</ele>
        <time>2023-04-30T13:00:41.184Z</time>
      </trkpt>
      <trkpt lat="48.42912" lon="-4.71216">
        <ele>135.136521</ele>
        <time>2023-04-30T13:00:45.174Z</time>
      </trkpt>
      <trkpt lat="48.42907" lon="-4.71204">
        <ele>135.04811</ele>
        <time>2023-04-30T13:00:48.190Z</time>
      </trkpt>
      <trkpt lat="48.42902" lon="-4.71192">
        <ele>134.959774</ele>
        <time>2023-04-30T13:00:51.173Z</time>
      </trkpt>
      <trkpt lat="48.42899" lon="-4.71179">
        <ele>134.873797</ele>
        <time>2023-04-30T13:00:54.181Z</time>
      </trkpt>
      <trkpt lat="48.42896" lon="-4.71163">
        <ele>134.769866</ele>
        <time>2023-04-30T13:00:58.185Z</time>
      </trkpt>
      <trkpt lat="48.42895" lon="-4.71147">
        <ele>134.669859</ele>
        <time>2023-04-30T13:01:02.183Z</time>
      </trkpt>
      <trkpt lat="48.42893" lon="-4.7113">
        <ele>134.56469</ele>
        <time>2023-04-30T13:01:06.188Z</time>
      </trkpt>
      <trkpt lat="48.42892" lon="-4.71116">
        <ele>134.480802</ele>
        <time>2023-04-30T13:01:09.174Z</time>
      </trkpt>
      <trkpt lat="48.42892" lon="-4.71103">
        <ele>134.396379</ele>
        <time>2023-04-30T13:01:12.181Z</time>
      </trkpt>
      <trkpt lat="48.4289" lon="-4.71089">
        <ele>134.309622</ele>
        <time>2023-04-30T13:01:15.177Z</time>
      </trkpt>
      <trkpt lat="48.42889" lon="-4.71075">
        <ele>134.220107</ele>
        <time>2023-04-30T13:01:18.181Z</time>
      </trkpt>
      <trkpt lat="48.42889" lon="-4.7106">
        <ele>134.126047</ele>
        <time>2023-04-30T13:01:21.180Z</time>
      </trkpt>
      <trkpt lat="48.42888" lon="-4.71045">
        <ele>134.032606</ele>
        <time>2023-04-30T13:01:24.176Z</time>
      </trkpt>
      <trkpt lat="48.42887" lon="-4.71031">
        <ele>134.070843</ele>
        <time>2023-04-30T13:01:27.189Z</time>
      </trkpt>
      <trkpt lat="48.42886" lon="-4.71014">
        <ele>134.476865</ele>
        <time>2023-04-30T13:01:31.191Z</time>
      </trkpt>
      <trkpt lat="48.42886" lon="-4.70997">
        <ele>134.903399</ele>
        <time>2023-04-30T13:01:35.200Z</time>
      </trkpt>
      <trkpt lat="48.42885" lon="-4.70979">
        <ele>135.344451</ele>
        <time>2023-04-30T13:01:39.183Z</time>
      </trkpt>
      <trkpt lat="48.42883" lon="-4.70961">
        <ele>135.781076</ele>
        <time>2023-04-30T13:01:43.176Z</time>
      </trkpt>
      <trkpt lat="48.42882" lon="-4.70943">
        <ele>136.216542</ele>
        <time>2023-04-30T13:01:47.187Z</time>
      </trkpt>
      <trkpt lat="48.42881" lon="-4.70927">
        <ele>136.625337</ele>
        <time>2023-04-30T13:01:51.181Z</time>
      </trkpt>
      <trkpt lat="48.42881" lon="-4.70913">
        <ele>136.959055</ele>
        <time>2023-04-30T13:01:55.175Z</time>
      </trkpt>
      <trkpt lat="48.42881" lon="-4.70899">
        <ele>137.300397</ele>
        <time>2023-04-30T13:01:59.171Z</time>
      </trkpt>
      <trkpt lat="48.4288" lon="-4.70885">
        <ele>137.638171</ele>
        <time>2023-04-30T13:02:03.172Z</time>
      </trkpt>
      <trkpt lat="48.42879" lon="-4.70868">
        <ele>138.044923</ele>
        <time>2023-04-30T13:02:08.186Z</time>
      </trkpt>
      <trkpt lat="48.42877" lon="-4.70853">
        <ele>138.43666</ele>
        <time>2023-04-30T13:02:13.178Z</time>
      </trkpt>
      <trkpt lat="48.42875" lon="-4.70837">
        <ele>138.822015</ele>
        <time>2023-04-30T13:02:18.189Z</time>
      </trkpt>
      <trkpt lat="48.42873" lon="-4.70821">
        <ele>139.2208</ele>
        <time>2023-04-30T13:02:23.179Z</time>
      </trkpt>
      <trkpt lat="48.4287" lon="-4.70806">
        <ele>139.591381</ele>
        <time>2023-04-30T13:02:28.199Z</time>
      </trkpt>
      <trkpt lat="48.42867" lon="-4.70794">
        <ele>139.925884</ele>
        <time>2023-04-30T13:02:33.176Z</time>
      </trkpt>
      <trkpt lat="48.42863" lon="-4.70779">
        <ele>140.300725</ele>
        <time>2023-04-30T13:02:39.188Z</time>
      </trkpt>
      <trkpt lat="48.4286" lon="-4.70764">
        <ele>140.685048</ele>
        <time>2023-04-30T13:02:45.170Z</time>
      </trkpt>
      <trkpt lat="48.42857" lon="-4.70749">
        <ele>141.090307</ele>
        <time>2023-04-30T13:02:51.173Z</time>
      </trkpt>
      <trkpt lat="48.42854" lon="-4.70734">
        <ele>141.475233</ele>
        <time>2023-04-30T13:02:57.175Z</time>
      </trkpt>
      <trkpt lat="48.42852" lon="-4.7072">
        <ele>141.814398</ele>
        <time>2023-04-30T13:03:02.172Z</time>
      </trkpt>
      <trkpt lat="48.42849" lon="-4.70705">
        <ele>142.210933</ele>
        <time>2023-04-30T13:03:08.177Z</time>
      </trkpt>
      <trkpt lat="48.42846" lon="-4.70692">
        <ele>142.548853</ele>
        <time>2023-04-30T13:03:13.184Z</time>
      </trkpt>
      <trkpt lat="48.42844" lon="-4.70676">
        <ele>142.943907</ele>
        <time>2023-04-30T13:03:19.173Z</time>
      </trkpt>
      <trkpt lat="48.42842" lon="-4.70662">
        <ele>143.305185</ele>
        <time>2023-04-30T13:03:24.183Z</time>
      </trkpt>
      <trkpt lat="48.42838" lon="-4.70648">
        <ele>143.680705</ele>
        <time>2023-04-30T13:03:30.175Z</time>
      </trkpt>
      <trkpt lat="48.42836" lon="-4.70632">
        <ele>144.067934</ele>
        <time>2023-04-30T13:03:36.175Z</time>
      </trkpt>
      <trkpt lat="48.42833" lon="-4.70619">
        <ele>144.411758</ele>
        <time>2023-04-30T13:03:41.179Z</time>
      </trkpt>
      <trkpt lat="48.4283" lon="-4.70607">
        <ele>144.753907</ele>
        <time>2023-04-30T13:03:46.187Z</time>
      </trkpt>
      <trkpt lat="48.42828" lon="-4.70593">
        <ele>145.105099</ele>
        <time>2023-04-30T13:03:51.223Z</time>
      </trkpt>
      <trkpt lat="48.42826" lon="-4.70579">
        <ele>145.452054</ele>
        <time>2023-04-30T13:03:56.189Z</time>
      </trkpt>
      <trkpt lat="48.42824" lon="-4.70565">
        <ele>145.817433</ele>
        <time>2023-04-30T13:04:01.185Z</time>
      </trkpt>
      <trkpt lat="48.42822" lon="-4.7055">
        <ele>146.195662</ele>
        <time>2023-04-30T13:04:06.183Z</time>
      </trkpt>
      <trkpt lat="48.42818" lon="-4.70536">
        <ele>146.561158</ele>
        <time>2023-04-30T13:04:11.177Z</time>
      </trkpt>
      <trkpt lat="48.42814" lon="-4.70523">
        <ele>146.902565</ele>
        <time>2023-04-30T13:04:16.173Z</time>
      </trkpt>
      <trkpt lat="48.42811" lon="-4.70509">
        <ele>147.276846</ele>
        <time>2023-04-30T13:04:21.182Z</time>
      </trkpt>
      <trkpt lat="48.42806" lon="-4.70496">
        <ele>147.552536</ele>
        <time>2023-04-30T13:04:26.187Z</time>
      </trkpt>
      <trkpt lat="48.42801" lon="-4.70484">
        <ele>147.82506</ele>
        <time>2023-04-30T13:04:31.177Z</time>
      </trkpt>
      <trkpt lat="48.42793" lon="-4.70472">
        <ele>148.114562</ele>
        <time>2023-04-30T13:04:36.187Z</time>
      </trkpt>
      <trkpt lat="48.42785" lon="-4.70463">
        <ele>148.395496</ele>
        <time>2023-04-30T13:04:41.189Z</time>
      </trkpt>
      <trkpt lat="48.42777" lon="-4.70452">
        <ele>148.691069</ele>
        <time>2023-04-30T13:04:46.187Z</time>
      </trkpt>
      <trkpt lat="48.42771" lon="-4.70441">
        <ele>148.969741</ele>
        <time>2023-04-30T13:04:51.181Z</time>
      </trkpt>
      <trkpt lat="48.42763" lon="-4.70429">
        <ele>149.266385</ele>
        <time>2023-04-30T13:04:56.195Z</time>
      </trkpt>
      <trkpt lat="48.42756" lon="-4.70419">
        <ele>149.538356</ele>
        <time>2023-04-30T13:05:01.179Z</time>
      </trkpt>
      <trkpt lat="48.42749" lon="-4.7041">
        <ele>149.800441</ele>
        <time>2023-04-30T13:05:06.182Z</time>
      </trkpt>
      <trkpt lat="48.42742" lon="-4.70399">
        <ele>150.076416</ele>
        <time>2023-04-30T13:05:11.165Z</time>
      </trkpt>
      <trkpt lat="48.42734" lon="-4.70389">
        <ele>150.36586</ele>
        <time>2023-04-30T13:05:16.188Z</time>
      </trkpt>
      <trkpt lat="48.42727" lon="-4.70378">
        <ele>150.634879</ele>
        <time>2023-04-30T13:05:21.168Z</time>
      </trkpt>
      <trkpt lat="48.42722" lon="-4.70367">
        <ele>150.890507</ele>
        <time>2023-04-30T13:05:26.182Z</time>
      </trkpt>
      <trkpt lat="48.42713" lon="-4.7036">
        <ele>151.158329</ele>
        <time>2023-04-30T13:05:33.189Z</time>
      </trkpt>
      <trkpt lat="48.42703" lon="-4.70357">
        <ele>151.441526</ele>
        <time>2023-04-30T13:05:40.171Z</time>
      </trkpt>
      <trkpt lat="48.42698" lon="-4.70346">
        <ele>151.694184</ele>
        <time>2023-04-30T13:05:47.181Z</time>
      </trkpt>
      <trkpt lat="48.42701" lon="-4.70331">
        <ele>151.987802</ele>
        <time>2023-04-30T13:05:53.169Z</time>
      </trkpt>
      <trkpt lat="48.42707" lon="-4.7032">
        <ele>152.252212</ele>
        <time>2023-04-30T13:05:58.185Z</time>
      </trkpt>
      <trkpt lat="48.42716" lon="-4.70309">
        <ele>152.201812</ele>
        <time>2023-04-30T13:06:04.170Z</time>
      </trkpt>
      <trkpt lat="48.42726" lon="-4.70304">
        <ele>152.150654</ele>
        <time>2023-04-30T13:06:09.176Z</time>
      </trkpt>
      <trkpt lat="48.42735" lon="-4.70302">
        <ele>152.107917</ele>
        <time>2023-04-30T13:06:13.176Z</time>
      </trkpt>
      <trkpt lat="48.42745" lon="-4.70302">
        <ele>152.059786</ele>
        <time>2023-04-30T13:06:18.178Z</time>
      </trkpt>
      <trkpt lat="48.42755" lon="-4.70301">
        <ele>152.016518</ele>
        <time>2023-04-30T13:06:22.166Z</time>
      </trkpt>
      <trkpt lat="48.42765" lon="-4.70301">
        <ele>151.970227</ele>
        <time>2023-04-30T13:06:26.183Z</time>
      </trkpt>
      <trkpt lat="48.42775" lon="-4.70303">
        <ele>151.91989</ele>
        <time>2023-04-30T13:06:30.185Z</time>
      </trkpt>
      <trkpt lat="48.42787" lon="-4.70305">
        <ele>151.866304</ele>
        <time>2023-04-30T13:06:34.181Z</time>
      </trkpt>
      <trkpt lat="48.42799" lon="-4.70307">
        <ele>151.810395</ele>
        <time>2023-04-30T13:06:38.188Z</time>
      </trkpt>
      <trkpt lat="48.42808" lon="-4.70307">
        <ele>151.767408</ele>
        <time>2023-04-30T13:06:41.188Z</time>
      </trkpt>
      <trkpt lat="48.42817" lon="-4.70307">
        <ele>151.725318</ele>
        <time>2023-04-30T13:06:44.177Z</time>
      </trkpt>
      <trkpt lat="48.42826" lon="-4.70306">
        <ele>151.681798</ele>
        <time>2023-04-30T13:06:47.171Z</time>
      </trkpt>
      <trkpt lat="48.42835" lon="-4.70305">
        <ele>151.637527</ele>
        <time>2023-04-30T13:06:50.187Z</time>
      </trkpt>
      <trkpt lat="48.42845" lon="-4.70302">
        <ele>151.591189</ele>
        <time>2023-04-30T13:06:53.184Z</time>
      </trkpt>
      <trkpt lat="48.42855" lon="-4.70299">
        <ele>151.542905</ele>
        <time>2023-04-30T13:06:56.192Z</time>
      </trkpt>
      <trkpt lat="48.42866" lon="-4.70295">
        <ele>151.491167</ele>
        <time>2023-04-30T13:06:59.176Z</time>
      </trkpt>
      <trkpt lat="48.42876" lon="-4.7029">
        <ele>151.4407</ele>
        <time>2023-04-30T13:07:02.177Z</time>
      </trkpt>
      <trkpt lat="48.42887" lon="-4.70286">
        <ele>151.314338</ele>
        <time>2023-04-30T13:07:05.183Z</time>
      </trkpt>
      <trkpt lat="48.42897" lon="-4.70282">
        <ele>151.085152</ele>
        <time>2023-04-30T13:07:08.177Z</time>
      </trkpt>
      <trkpt lat="48.42907" lon="-4.70278">
        <ele>150.86154</ele>
        <time>2023-04-30T13:07:11.189Z</time>
      </trkpt>
      <trkpt lat="48.42917" lon="-4.70275">
        <ele>150.649642</ele>
        <time>2023-04-30T13:07:14.192Z</time>
      </trkpt>
      <trkpt lat="48.42926" lon="-4.70271">
        <ele>150.431908</ele>
        <time>2023-04-30T13:07:17.184Z</time>
      </trkpt>
      <trkpt lat="48.42936" lon="-4.70267">
        <ele>150.212972</ele>
        <time>2023-04-30T13:07:20.187Z</time>
      </trkpt>
      <trkpt lat="48.42946" lon="-4.70263">
        <ele>149.98518</ele>
        <time>2023-04-30T13:07:23.179Z</time>
      </trkpt>
      <trkpt lat="48.42956" lon="-4.70258">
        <ele>149.751303</ele>
        <time>2023-04-30T13:07:26.181Z</time>
      </trkpt>
      <trkpt lat="48.42966" lon="-4.7025">
        <ele>149.507943</ele>
        <time>2023-04-30T13:07:29.187Z</time>
      </trkpt>
      <trkpt lat="48.42973" lon="-4.7024">
        <ele>149.31075</ele>
        <time>2023-04-30T13:07:31.176Z</time>
      </trkpt>
      <trkpt lat="48.42978" lon="-4.70228">
        <ele>149.107346</ele>
        <time>2023-04-30T13:07:33.176Z</time>
      </trkpt>
      <trkpt lat="48.42981" lon="-4.70208">
        <ele>148.818456</ele>
        <time>2023-04-30T13:07:36.178Z</time>
      </trkpt>
      <trkpt lat="48.42982" lon="-4.7019">
        <ele>148.555697</ele>
        <time>2023-04-30T13:07:39.173Z</time>
      </trkpt>
      <trkpt lat="48.42982" lon="-4.70173">
        <ele>148.311814</ele>
        <time>2023-04-30T13:07:42.174Z</time>
      </trkpt>
      <trkpt lat="48.42982" lon="-4.70158">
        <ele>148.100825</ele>
        <time>2023-04-30T13:07:45.183Z</time>
      </trkpt>
      <trkpt lat="48.42982" lon="-4.70141">
        <ele>147.853924</ele>
        <time>2023-04-30T13:07:49.188Z</time>
      </trkpt>
      <trkpt lat="48.42983" lon="-4.70125">
        <ele>147.616314</ele>
        <time>2023-04-30T13:07:53.173Z</time>
      </trkpt>
      <trkpt lat="48.42983" lon="-4.70108">
        <ele>147.394115</ele>
        <time>2023-04-30T13:07:57.177Z</time>
      </trkpt>
      <trkpt lat="48.42984" lon="-4.70091">
        <ele>147.174159</ele>
        <time>2023-04-30T13:08:01.174Z</time>
      </trkpt>
      <trkpt lat="48.42985" lon="-4.70074">
        <ele>146.960948</ele>
        <time>2023-04-30T13:08:05.179Z</time>
      </trkpt>
      <trkpt lat="48.42985" lon="-4.70057">
        <ele>146.748147</ele>
        <time>2023-04-30T13:08:09.178Z</time>
      </trkpt>
      <trkpt lat="48.42986" lon="-4.70042">
        <ele>146.553219</ele>
        <time>2023-04-30T13:08:13.192Z</time>
      </trkpt>
      <trkpt lat="48.42987" lon="-4.70026">
        <ele>146.354074</ele>
        <time>2023-04-30T13:08:17.190Z</time>
      </trkpt>
      <trkpt lat="48.4299" lon="-4.70011">
        <ele>146.149114</ele>
        <time>2023-04-30T13:08:21.189Z</time>
      </trkpt>
      <trkpt lat="48.42997" lon="-4.7">
        <ele>145.951592</ele>
        <time>2023-04-30T13:08:24.171Z</time>
      </trkpt>
      <trkpt lat="48.43006" lon="-4.69992">
        <ele>145.753125</ele>
        <time>2023-04-30T13:08:26.178Z</time>
      </trkpt>
      <trkpt lat="48.43018" lon="-4.69984">
        <ele>145.50961</ele>
        <time>2023-04-30T13:08:28.172Z</time>
      </trkpt>
      <trkpt lat="48.43031" lon="-4.69974">
        <ele>145.240669</ele>
        <time>2023-04-30T13:08:30.178Z</time>
      </trkpt>
      <trkpt lat="48.43044" lon="-4.69966">
        <ele>144.970165</ele>
        <time>2023-04-30T13:08:32.195Z</time>
      </trkpt>
      <trkpt lat="48.43057" lon="-4.69957">
        <ele>144.693128</ele>
        <time>2023-04-30T13:08:34.180Z</time>
      </trkpt>
      <trkpt lat="48.4307" lon="-4.69949">
        <ele>144.420102</ele>
        <time>2023-04-30T13:08:36.180Z</time>
      </trkpt>
      <trkpt lat="48.43083" lon="-4.69942">
        <ele>144.15528</ele>
        <time>2023-04-30T13:08:38.181Z</time>
      </trkpt>
      <trkpt lat="48.43094" lon="-4.69935">
        <ele>144.148483</ele>
        <time>2023-04-30T13:08:40.190Z</time>
      </trkpt>
      <trkpt lat="48.43104" lon="-4.6993">
        <ele>144.220863</ele>
        <time>2023-04-30T13:08:42.180Z</time>
      </trkpt>
      <trkpt lat="48.43115" lon="-4.69924">
        <ele>144.302092</ele>
        <time>2023-04-30T13:08:45.184Z</time>
      </trkpt>
      <trkpt lat="48.43125" lon="-4.69918">
        <ele>144.370805</ele>
        <time>2023-04-30T13:08:49.182Z</time>
      </trkpt>
      <trkpt lat="48.43135" lon="-4.69911">
        <ele>144.446811</ele>
        <time>2023-04-30T13:08:54.188Z</time>
      </trkpt>
      <trkpt lat="48.43141" lon="-4.69901">
        <ele>144.509979</ele>
        <time>2023-04-30T13:08:59.165Z</time>
      </trkpt>
      <trkpt lat="48.43141" lon="-4.69886">
        <ele>144.574788</ele>
        <time>2023-04-30T13:09:04.190Z</time>
      </trkpt>
      <trkpt lat="48.43137" lon="-4.69873">
        <ele>144.64037</ele>
        <time>2023-04-30T13:09:09.169Z</time>
      </trkpt>
      <trkpt lat="48.43132" lon="-4.69861">
        <ele>144.703419</ele>
        <time>2023-04-30T13:09:14.182Z</time>
      </trkpt>
      <trkpt lat="48.43128" lon="-4.69848">
        <ele>144.771326</ele>
        <time>2023-04-30T13:09:19.182Z</time>
      </trkpt>
      <trkpt lat="48.43124" lon="-4.69834">
        <ele>144.837724</ele>
        <time>2023-04-30T13:09:24.179Z</time>
      </trkpt>
      <trkpt lat="48.4312" lon="-4.69822">
        <ele>144.898775</ele>
        <time>2023-04-30T13:09:28.184Z</time>
      </trkpt>
      <trkpt lat="48.43116" lon="-4.69807">
        <ele>144.971501</ele>
        <time>2023-04-30T13:09:33.183Z</time>
      </trkpt>
      <trkpt lat="48.43112" lon="-4.69794">
        <ele>145.034796</ele>
        <time>2023-04-30T13:09:38.182Z</time>
      </trkpt>
      <trkpt lat="48.43108" lon="-4.6978">
        <ele>145.105199</ele>
        <time>2023-04-30T13:09:43.176Z</time>
      </trkpt>
      <trkpt lat="48.43104" lon="-4.69764">
        <ele>145.1807</ele>
        <time>2023-04-30T13:09:48.188Z</time>
      </trkpt>
      <trkpt lat="48.43099" lon="-4.69749">
        <ele>145.255635</ele>
        <time>2023-04-30T13:09:53.189Z</time>
      </trkpt>
      <trkpt lat="48.43095" lon="-4.69734">
        <ele>145.355434</ele>
        <time>2023-04-30T13:09:58.193Z</time>
      </trkpt>
      <trkpt lat="48.43091" lon="-4.69721">
        <ele>145.502284</ele>
        <time>2023-04-30T13:10:02.182Z</time>
      </trkpt>
      <trkpt lat="48.43086" lon="-4.69709">
        <ele>145.648274</ele>
        <time>2023-04-30T13:10:06.183Z</time>
      </trkpt>
      <trkpt lat="48.43081" lon="-4.69697">
        <ele>145.795151</ele>
        <time>2023-04-30T13:10:10.186Z</time>
      </trkpt>
      <trkpt lat="48.43077" lon="-4.69683">
        <ele>145.949288</ele>
        <time>2023-04-30T13:10:14.179Z</time>
      </trkpt>
      <trkpt lat="48.43072" lon="-4.69669">
        <ele>146.112777</ele>
        <time>2023-04-30T13:10:18.182Z</time>
      </trkpt>
      <trkpt lat="48.43067" lon="-4.69656">
        <ele>146.267879</ele>
        <time>2023-04-30T13:10:22.178Z</time>
      </trkpt>
      <trkpt lat="48.43063" lon="-4.69643">
        <ele>146.415347</ele>
        <time>2023-04-30T13:10:26.186Z</time>
      </trkpt>
      <trkpt lat="48.43058" lon="-4.6963">
        <ele>146.563729</ele>
        <time>2023-04-30T13:10:30.187Z</time>
      </trkpt>
      <trkpt lat="48.43054" lon="-4.69619">
        <ele>146.702926</ele>
        <time>2023-04-30T13:10:34.187Z</time>
      </trkpt>
      <trkpt lat="48.43048" lon="-4.69604">
        <ele>146.875875</ele>
        <time>2023-04-30T13:10:39.184Z</time>
      </trkpt>
      <trkpt lat="48.43043" lon="-4.69592">
        <ele>147.024349</ele>
        <time>2023-04-30T13:10:43.176Z</time>
      </trkpt>
      <trkpt lat="48.43039" lon="-4.69578">
        <ele>147.174653</ele>
        <time>2023-04-30T13:10:47.167Z</time>
      </trkpt>
      <trkpt lat="48.43035" lon="-4.69566">
        <ele>147.317498</ele>
        <time>2023-04-30T13:10:51.176Z</time>
      </trkpt>
      <trkpt lat="48.4303" lon="-4.69553">
        <ele>147.467663</ele>
        <time>2023-04-30T13:10:55.180Z</time>
      </trkpt>
      <trkpt lat="48.43025" lon="-4.69541">
        <ele>147.620358</ele>
        <time>2023-04-30T13:10:59.181Z</time>
      </trkpt>
      <trkpt lat="48.43018" lon="-4.6953">
        <ele>147.768917</ele>
        <time>2023-04-30T13:11:03.175Z</time>
      </trkpt>
      <trkpt lat="48.43012" lon="-4.69519">
        <ele>147.920047</ele>
        <time>2023-04-30T13:11:07.173Z</time>
      </trkpt>
      <trkpt lat="48.43005" lon="-4.69507">
        <ele>148.087222</ele>
        <time>2023-04-30T13:11:12.191Z</time>
      </trkpt>
      <trkpt lat="48.42998" lon="-4.69494">
        <ele>148.34282</ele>
        <time>2023-04-30T13:11:17.185Z</time>
      </trkpt>
      <trkpt lat="48.42993" lon="-4.69482">
        <ele>148.582943</ele>
        <time>2023-04-30T13:11:22.181Z</time>
      </trkpt>
      <trkpt lat="48.42988" lon="-4.6947">
        <ele>148.810797</ele>
        <time>2023-04-30T13:11:27.167Z</time>
      </trkpt>
      <trkpt lat="48.42983" lon="-4.69457">
        <ele>149.050338</ele>
        <time>2023-04-30T13:11:32.187Z</time>
      </trkpt>
      <trkpt lat="48.42978" lon="-4.69446">
        <ele>149.271696</ele>
        <time>2023-04-30T13:11:37.181Z</time>
      </trkpt>
      <trkpt lat="48.42975" lon="-4.69433">
        <ele>149.495053</ele>
        <time>2023-04-30T13:11:42.173Z</time>
      </trkpt>
      <trkpt lat="48.4297" lon="-4.69418">
        <ele>149.759523</ele>
        <time>2023-04-30T13:11:48.186Z</time>
      </trkpt>
      <trkpt lat="48.42966" lon="-4.69406">
        <ele>149.986968</ele>
        <time>2023-04-30T13:11:53.172Z</time>
      </trkpt>
      <trkpt lat="48.42962" lon="-4.69392">
        <ele>150.242021</ele>
        <time>2023-04-30T13:11:59.171Z</time>
      </trkpt>
      <trkpt lat="48.42958" lon="-4.69378">
        <ele>150.47676</ele>
        <time>2023-04-30T13:12:05.170Z</time>
      </trkpt>
      <trkpt lat="48.42954" lon="-4.69364">
        <ele>150.73279</ele>
        <time>2023-04-30T13:12:11.168Z</time>
      </trkpt>
      <trkpt lat="48.42949" lon="-4.69351">
        <ele>150.975473</ele>
        <time>2023-04-30T13:12:17.177Z</time>
      </trkpt>
      <trkpt lat="48.42944" lon="-4.69338">
        <ele>151.213189</ele>
        <time>2023-04-30T13:12:22.171Z</time>
      </trkpt>
      <trkpt lat="48.4294" lon="-4.69325">
        <ele>151.446713</ele>
        <time>2023-04-30T13:12:27.177Z</time>
      </trkpt>
      <trkpt lat="48.42937" lon="-4.69312">
        <ele>151.676576</ele>
        <time>2023-04-30T13:12:33.188Z</time>
      </trkpt>
      <trkpt lat="48.42931" lon="-4.69299">
        <ele>151.923795</ele>
        <time>2023-04-30T13:12:38.187Z</time>
      </trkpt>
      <trkpt lat="48.42927" lon="-4.69286">
        <ele>152.158773</ele>
        <time>2023-04-30T13:12:43.177Z</time>
      </trkpt>
      <trkpt lat="48.42924" lon="-4.69272">
        <ele>152.398252</ele>
        <time>2023-04-30T13:12:49.184Z</time>
      </trkpt>
      <trkpt lat="48.42919" lon="-4.69258">
        <ele>152.879115</ele>
        <time>2023-04-30T13:12:55.171Z</time>
      </trkpt>
      <trkpt lat="48.42915" lon="-4.69245">
        <ele>153.504579</ele>
        <time>2023-04-30T13:13:01.175Z</time>
      </trkpt>
      <trkpt lat="48.42911" lon="-4.69232">
        <ele>154.087451</ele>
        <time>2023-04-30T13:13:07.175Z</time>
      </trkpt>
      <trkpt lat="48.42907" lon="-4.69219">
        <ele>154.657788</ele>
        <time>2023-04-30T13:13:13.173Z</time>
      </trkpt>
      <trkpt lat="48.42903" lon="-4.69206">
        <ele>155.280176</ele>
        <time>2023-04-30T13:13:19.170Z</time>
      </trkpt>
      <trkpt lat="48.42898" lon="-4.69192">
        <ele>155.912717</ele>
        <time>2023-04-30T13:13:25.172Z</time>
      </trkpt>
      <trkpt lat="48.42894" lon="-4.69179">
        <ele>156.50927</ele>
        <time>2023-04-30T13:13:31.168Z</time>
      </trkpt>
      <trkpt lat="48.42891" lon="-4.69166">
        <ele>157.077273</ele>
        <time>2023-04-30T13:13:37.176Z</time>
      </trkpt>
      <trkpt lat="48.42887" lon="-4.69152">
        <ele>157.679006</ele>
        <time>2023-04-30T13:13:43.168Z</time>
      </trkpt>
      <trkpt lat="48.42884" lon="-4.69139">
        <ele>158.273467</ele>
        <time>2023-04-30T13:13:49.172Z</time>
      </trkpt>
      <trkpt lat="48.42881" lon="-4.69125">
        <ele>158.866165</ele>
        <time>2023-04-30T13:13:55.169Z</time>
      </trkpt>
      <trkpt lat="48.42876" lon="-4.69112">
        <ele>159.48042</ele>
        <time>2023-04-30T13:14:01.172Z</time>
      </trkpt>
      <trkpt lat="48.42873" lon="-4.69098">
        <ele>160.074882</ele>
        <time>2023-04-30T13:14:07.171Z</time>
      </trkpt>
      <trkpt lat="48.42869" lon="-4.69085">
        <ele>160.642524</ele>
        <time>2023-04-30T13:14:14.183Z</time>
      </trkpt>
      <trkpt lat="48.42866" lon="-4.69071">
        <ele>161.271849</ele>
        <time>2023-04-30T13:14:22.178Z</time>
      </trkpt>
      <trkpt lat="48.42863" lon="-4.69058">
        <ele>161.856429</ele>
        <time>2023-04-30T13:14:28.168Z</time>
      </trkpt>
      <trkpt lat="48.42859" lon="-4.69044">
        <ele>162.466449</ele>
        <time>2023-04-30T13:14:35.164Z</time>
      </trkpt>
      <trkpt lat="48.42855" lon="-4.69031">
        <ele>163.05679</ele>
        <time>2023-04-30T13:14:42.170Z</time>
      </trkpt>
      <trkpt lat="48.42852" lon="-4.69017">
        <ele>163.674606</ele>
        <time>2023-04-30T13:14:48.174Z</time>
      </trkpt>
      <trkpt lat="48.42849" lon="-4.69004">
        <ele>163.978048</ele>
        <time>2023-04-30T13:14:54.171Z</time>
      </trkpt>
      <trkpt lat="48.42846" lon="-4.68991">
        <ele>164.289063</ele>
        <time>2023-04-30T13:15:00.168Z</time>
      </trkpt>
      <trkpt lat="48.42841" lon="-4.68977">
        <ele>164.61528</ele>
        <time>2023-04-30T13:15:06.171Z</time>
      </trkpt>
      <trkpt lat="48.42838" lon="-4.68964">
        <ele>164.924426</ele>
        <time>2023-04-30T13:15:12.192Z</time>
      </trkpt>
      <trkpt lat="48.42834" lon="-4.6895">
        <ele>165.268581</ele>
        <time>2023-04-30T13:15:18.177Z</time>
      </trkpt>
      <trkpt lat="48.42829" lon="-4.68936">
        <ele>165.609675</ele>
        <time>2023-04-30T13:15:24.160Z</time>
      </trkpt>
      <trkpt lat="48.42826" lon="-4.68922">
        <ele>165.931058</ele>
        <time>2023-04-30T13:15:30.166Z</time>
      </trkpt>
      <trkpt lat="48.42821" lon="-4.6891">
        <ele>166.243374</ele>
        <time>2023-04-30T13:15:36.181Z</time>
      </trkpt>
      <trkpt lat="48.42816" lon="-4.68896">
        <ele>166.59069</ele>
        <time>2023-04-30T13:15:42.168Z</time>
      </trkpt>
      <trkpt lat="48.42812" lon="-4.68882">
        <ele>166.923844</ele>
        <time>2023-04-30T13:15:48.171Z</time>
      </trkpt>
      <trkpt lat="48.42808" lon="-4.68868">
        <ele>167.265324</ele>
        <time>2023-04-30T13:15:54.172Z</time>
      </trkpt>
      <trkpt lat="48.42804" lon="-4.68855">
        <ele>167.563431</ele>
        <time>2023-04-30T13:15:59.177Z</time>
      </trkpt>
      <trkpt lat="48.428" lon="-4.6884">
        <ele>167.921614</ele>
        <time>2023-04-30T13:16:05.169Z</time>
      </trkpt>
      <trkpt lat="48.42795" lon="-4.68826">
        <ele>168.275047</ele>
        <time>2023-04-30T13:16:11.172Z</time>
      </trkpt>
      <trkpt lat="48.42792" lon="-4.68813">
        <ele>168.58252</ele>
        <time>2023-04-30T13:16:16.178Z</time>
      </trkpt>
      <trkpt lat="48.42788" lon="-4.68798">
        <ele>168.93851</ele>
        <time>2023-04-30T13:16:22.173Z</time>
      </trkpt>
      <trkpt lat="48.42784" lon="-4.68784">
        <ele>169.261453</ele>
        <time>2023-04-30T13:16:27.177Z</time>
      </trkpt>
      <trkpt lat="48.4278" lon="-4.6877">
        <ele>169.596839</ele>
        <time>2023-04-30T13:16:32.172Z</time>
      </trkpt>
      <trkpt lat="48.42776" lon="-4.68755">
        <ele>169.916853</ele>
        <time>2023-04-30T13:16:38.178Z</time>
      </trkpt>
      <trkpt lat="48.42773" lon="-4.68742">
        <ele>170.197135</ele>
        <time>2023-04-30T13:16:43.175Z</time>
      </trkpt>
      <trkpt lat="48.42768" lon="-4.68729">
        <ele>170.491353</ele>
        <time>2023-04-30T13:16:48.173Z</time>
      </trkpt>
      <trkpt lat="48.42764" lon="-4.68715">
        <ele>170.801718</ele>
        <time>2023-04-30T13:16:53.174Z</time>
      </trkpt>
      <trkpt lat="48.42761" lon="-4.68702">
        <ele>171.092051</ele>
        <time>2023-04-30T13:16:58.168Z</time>
      </trkpt>
      <trkpt lat="48.42758" lon="-4.68688">
        <ele>171.382988</ele>
        <time>2023-04-30T13:17:03.178Z</time>
      </trkpt>
      <trkpt lat="48.42755" lon="-4.68675">
        <ele>171.668147</ele>
        <time>2023-04-30T13:17:08.180Z</time>
      </trkpt>
      <trkpt lat="48.42754" lon="-4.68659">
        <ele>171.982425</ele>
        <time>2023-04-30T13:17:13.162Z</time>
      </trkpt>
      <trkpt lat="48.42753" lon="-4.68644">
        <ele>172.282058</ele>
        <time>2023-04-30T13:17:18.178Z</time>
      </trkpt>
      <trkpt lat="48.42752" lon="-4.6863">
        <ele>172.569374</ele>
        <time>2023-04-30T13:17:23.177Z</time>
      </trkpt>
      <trkpt lat="48.42753" lon="-4.68615">
        <ele>172.866301</ele>
        <time>2023-04-30T13:17:28.166Z</time>
      </trkpt>
      <trkpt lat="48.42753" lon="-4.68601">
        <ele>173.162668</ele>
        <time>2023-04-30T13:17:33.180Z</time>
      </trkpt>
      <trkpt lat="48.42753" lon="-4.68586">
        <ele>173.467115</ele>
        <time>2023-04-30T13:17:38.168Z</time>
      </trkpt>
      <trkpt lat="48.42751" lon="-4.68572">
        <ele>173.757891</ele>
        <time>2023-04-30T13:17:43.172Z</time>
      </trkpt>
      <trkpt lat="48.42751" lon="-4.68558">
        <ele>174.036709</ele>
        <time>2023-04-30T13:17:48.172Z</time>
      </trkpt>
      <trkpt lat="48.4275" lon="-4.68542">
        <ele>174.364077</ele>
        <time>2023-04-30T13:17:53.183Z</time>
      </trkpt>
      <trkpt lat="48.42748" lon="-4.68525">
        <ele>174.707941</ele>
        <time>2023-04-30T13:17:58.176Z</time>
      </trkpt>
      <trkpt lat="48.42746" lon="-4.6851">
        <ele>175.007821</ele>
        <time>2023-04-30T13:18:02.168Z</time>
      </trkpt>
      <trkpt lat="48.42743" lon="-4.68495">
        <ele>175.090236</ele>
        <time>2023-04-30T13:18:07.179Z</time>
      </trkpt>
      <trkpt lat="48.42742" lon="-4.6848">
        <ele>175.095591</ele>
        <time>2023-04-30T13:18:11.177Z</time>
      </trkpt>
      <trkpt lat="48.4274" lon="-4.68465">
        <ele>175.101118</ele>
        <time>2023-04-30T13:18:15.180Z</time>
      </trkpt>
      <trkpt lat="48.42736" lon="-4.68451">
        <ele>175.106193</ele>
        <time>2023-04-30T13:18:19.177Z</time>
      </trkpt>
      <trkpt lat="48.42734" lon="-4.68438">
        <ele>175.111354</ele>
        <time>2023-04-30T13:18:23.180Z</time>
      </trkpt>
      <trkpt lat="48.42732" lon="-4.6842">
        <ele>175.117786</ele>
        <time>2023-04-30T13:18:27.178Z</time>
      </trkpt>
      <trkpt lat="48.4273" lon="-4.68402">
        <ele>175.124051</ele>
        <time>2023-04-30T13:18:31.180Z</time>
      </trkpt>
      <trkpt lat="48.42728" lon="-4.68387">
        <ele>175.129763</ele>
        <time>2023-04-30T13:18:35.180Z</time>
      </trkpt>
      <trkpt lat="48.42727" lon="-4.6837">
        <ele>175.135523</ele>
        <time>2023-04-30T13:18:39.176Z</time>
      </trkpt>
      <trkpt lat="48.42726" lon="-4.68353">
        <ele>175.141702</ele>
        <time>2023-04-30T13:18:43.170Z</time>
      </trkpt>
      <trkpt lat="48.42725" lon="-4.68339">
        <ele>175.146765</ele>
        <time>2023-04-30T13:18:46.184Z</time>
      </trkpt>
      <trkpt lat="48.42725" lon="-4.68325">
        <ele>175.151708</ele>
        <time>2023-04-30T13:18:49.178Z</time>
      </trkpt>
      <trkpt lat="48.42725" lon="-4.68309">
        <ele>175.157428</ele>
        <time>2023-04-30T13:18:53.180Z</time>
      </trkpt>
      <trkpt lat="48.42724" lon="-4.68292">
        <ele>175.16348</ele>
        <time>2023-04-30T13:18:57.182Z</time>
      </trkpt>
      <trkpt lat="48.42723" lon="-4.68274">
        <ele>175.169749</ele>
        <time>2023-04-30T13:19:01.178Z</time>
      </trkpt>
      <trkpt lat="48.42721" lon="-4.68261">
        <ele>175.174693</ele>
        <time>2023-04-30T13:19:04.174Z</time>
      </trkpt>
      <trkpt lat="48.4272" lon="-4.68243">
        <ele>175.181097</ele>
        <time>2023-04-30T13:19:08.182Z</time>
      </trkpt>
      <trkpt lat="48.42719" lon="-4.68229">
        <ele>175.194437</ele>
        <time>2023-04-30T13:19:11.179Z</time>
      </trkpt>
      <trkpt lat="48.42718" lon="-4.68215">
        <ele>175.210548</ele>
        <time>2023-04-30T13:19:14.176Z</time>
      </trkpt>
      <trkpt lat="48.42717" lon="-4.68198">
        <ele>175.231057</ele>
        <time>2023-04-30T13:19:18.174Z</time>
      </trkpt>
      <trkpt lat="48.42718" lon="-4.68181">
        <ele>175.250757</ele>
        <time>2023-04-30T13:19:22.171Z</time>
      </trkpt>
      <trkpt lat="48.42721" lon="-4.68164">
        <ele>175.271232</ele>
        <time>2023-04-30T13:19:26.178Z</time>
      </trkpt>
      <trkpt lat="48.42725" lon="-4.68148">
        <ele>175.291325</ele>
        <time>2023-04-30T13:19:30.177Z</time>
      </trkpt>
      <trkpt lat="48.42731" lon="-4.68134">
        <ele>175.311999</ele>
        <time>2023-04-30T13:19:34.170Z</time>
      </trkpt>
      <trkpt lat="48.42737" lon="-4.68123">
        <ele>175.328358</ele>
        <time>2023-04-30T13:19:37.176Z</time>
      </trkpt>
      <trkpt lat="48.42745" lon="-4.6811">
        <ele>175.348707</ele>
        <time>2023-04-30T13:19:41.177Z</time>
      </trkpt>
      <trkpt lat="48.42752" lon="-4.68099">
        <ele>175.366798</ele>
        <time>2023-04-30T13:19:45.169Z</time>
      </trkpt>
      <trkpt lat="48.42757" lon="-4.68084">
        <ele>175.386659</ele>
        <time>2023-04-30T13:19:50.162Z</time>
      </trkpt>
      <trkpt lat="48.42761" lon="-4.68069">
        <ele>175.405476</ele>
        <time>2023-04-30T13:19:54.179Z</time>
      </trkpt>
      <trkpt lat="48.42764" lon="-4.68053">
        <ele>175.424963</ele>
        <time>2023-04-30T13:19:58.169Z</time>
      </trkpt>
      <trkpt lat="48.42767" lon="-4.68036">
        <ele>175.445559</ele>
        <time>2023-04-30T13:20:02.171Z</time>
      </trkpt>
      <trkpt lat="48.4277" lon="-4.6802">
        <ele>175.465357</ele>
        <time>2023-04-30T13:20:06.173Z</time>
      </trkpt>
      <trkpt lat="48.42772" lon="-4.68003">
        <ele>175.48591</ele>
        <time>2023-04-30T13:20:10.197Z</time>
      </trkpt>
      <trkpt lat="48.42774" lon="-4.67986">
        <ele>175.424069</ele>
        <time>2023-04-30T13:20:14.187Z</time>
      </trkpt>
      <trkpt lat="48.42776" lon="-4.67972">
        <ele>175.178527</ele>
        <time>2023-04-30T13:20:17.179Z</time>
      </trkpt>
      <trkpt lat="48.42777" lon="-4.67957">
        <ele>174.928303</ele>
        <time>2023-04-30T13:20:20.186Z</time>
      </trkpt>
      <trkpt lat="48.42778" lon="-4.67942">
        <ele>174.680283</ele>
        <time>2023-04-30T13:20:23.171Z</time>
      </trkpt>
      <trkpt lat="48.42779" lon="-4.67927">
        <ele>174.425525</ele>
        <time>2023-04-30T13:20:26.177Z</time>
      </trkpt>
      <trkpt lat="48.4278" lon="-4.67911">
        <ele>174.145836</ele>
        <time>2023-04-30T13:20:29.178Z</time>
      </trkpt>
      <trkpt lat="48.42782" lon="-4.67894">
        <ele>173.857429</ele>
        <time>2023-04-30T13:20:32.177Z</time>
      </trkpt>
      <trkpt lat="48.42783" lon="-4.67877">
        <ele>173.575246</ele>
        <time>2023-04-30T13:20:35.178Z</time>
      </trkpt>
      <trkpt lat="48.42784" lon="-4.6786">
        <ele>173.28439</ele>
        <time>2023-04-30T13:20:38.200Z</time>
      </trkpt>
      <trkpt lat="48.42785" lon="-4.67841">
        <ele>172.962987</ele>
        <time>2023-04-30T13:20:41.176Z</time>
      </trkpt>
      <trkpt lat="48.42785" lon="-4.67824">
        <ele>172.675435</ele>
        <time>2023-04-30T13:20:44.175Z</time>
      </trkpt>
      <trkpt lat="48.42785" lon="-4.67808">
        <ele>172.404786</ele>
        <time>2023-04-30T13:20:47.180Z</time>
      </trkpt>
      <trkpt lat="48.42786" lon="-4.67793">
        <ele>172.147226</ele>
        <time>2023-04-30T13:20:50.177Z</time>
      </trkpt>
      <trkpt lat="48.42786" lon="-4.67777">
        <ele>171.869402</ele>
        <time>2023-04-30T13:20:53.178Z</time>
      </trkpt>
      <trkpt lat="48.42786" lon="-4.67758">
        <ele>171.554693</ele>
        <time>2023-04-30T13:20:56.171Z</time>
      </trkpt>
      <trkpt lat="48.42785" lon="-4.6774">
        <ele>171.246157</ele>
        <time>2023-04-30T13:20:59.176Z</time>
      </trkpt>
      <trkpt lat="48.42783" lon="-4.67723">
        <ele>170.949123</ele>
        <time>2023-04-30T13:21:02.173Z</time>
      </trkpt>
      <trkpt lat="48.42779" lon="-4.67705">
        <ele>170.320388</ele>
        <time>2023-04-30T13:21:05.183Z</time>
      </trkpt>
      <trkpt lat="48.42774" lon="-4.67688">
        <ele>169.64514</ele>
        <time>2023-04-30T13:21:08.177Z</time>
      </trkpt>
      <trkpt lat="48.42771" lon="-4.67675">
        <ele>169.15207</ele>
        <time>2023-04-30T13:21:10.176Z</time>
      </trkpt>
      <trkpt lat="48.42767" lon="-4.67662">
        <ele>168.622805</ele>
        <time>2023-04-30T13:21:12.186Z</time>
      </trkpt>
      <trkpt lat="48.42765" lon="-4.67648">
        <ele>168.121974</ele>
        <time>2023-04-30T13:21:14.193Z</time>
      </trkpt>
      <trkpt lat="48.42761" lon="-4.67633">
        <ele>167.527399</ele>
        <time>2023-04-30T13:21:16.178Z</time>
      </trkpt>
      <trkpt lat="48.42757" lon="-4.67618">
        <ele>166.934953</ele>
        <time>2023-04-30T13:21:18.179Z</time>
      </trkpt>
      <trkpt lat="48.42753" lon="-4.67601">
        <ele>166.290637</ele>
        <time>2023-04-30T13:21:20.180Z</time>
      </trkpt>
      <trkpt lat="48.42749" lon="-4.67586">
        <ele>165.704857</ele>
        <time>2023-04-30T13:21:22.171Z</time>
      </trkpt>
      <trkpt lat="48.42744" lon="-4.6757">
        <ele>165.078153</ele>
        <time>2023-04-30T13:21:24.171Z</time>
      </trkpt>
      <trkpt lat="48.42741" lon="-4.67553">
        <ele>164.420444</ele>
        <time>2023-04-30T13:21:26.190Z</time>
      </trkpt>
      <trkpt lat="48.42737" lon="-4.67535">
        <ele>163.733246</ele>
        <time>2023-04-30T13:21:28.186Z</time>
      </trkpt>
      <trkpt lat="48.42733" lon="-4.67516">
        <ele>163.025746</ele>
        <time>2023-04-30T13:21:30.186Z</time>
      </trkpt>
      <trkpt lat="48.42729" lon="-4.67496">
        <ele>162.263224</ele>
        <time>2023-04-30T13:21:32.178Z</time>
      </trkpt>
      <trkpt lat="48.42725" lon="-4.67478">
        <ele>161.574447</ele>
        <time>2023-04-30T13:21:34.179Z</time>
      </trkpt>
      <trkpt lat="48.42721" lon="-4.67459">
        <ele>160.94997</ele>
        <time>2023-04-30T13:21:36.178Z</time>
      </trkpt>
      <trkpt lat="48.42718" lon="-4.67441">
        <ele>160.51194</ele>
        <time>2023-04-30T13:21:38.185Z</time>
      </trkpt>
      <trkpt lat="48.42714" lon="-4.67423">
        <ele>160.074433</ele>
        <time>2023-04-30T13:21:40.178Z</time>
      </trkpt>
      <trkpt lat="48.42711" lon="-4.67405">
        <ele>159.646965</ele>
        <time>2023-04-30T13:21:42.176Z</time>
      </trkpt>
      <trkpt lat="48.42707" lon="-4.67387">
        <ele>159.198436</ele>
        <time>2023-04-30T13:21:44.173Z</time>
      </trkpt>
      <trkpt lat="48.42702" lon="-4.67371">
        <ele>158.789954</ele>
        <time>2023-04-30T13:21:46.178Z</time>
      </trkpt>
      <trkpt lat="48.42698" lon="-4.67354">
        <ele>158.376816</ele>
        <time>2023-04-30T13:21:48.177Z</time>
      </trkpt>
      <trkpt lat="48.42695" lon="-4.67338">
        <ele>157.983622</ele>
        <time>2023-04-30T13:21:50.178Z</time>
      </trkpt>
      <trkpt lat="48.42691" lon="-4.67322">
        <ele>157.582444</ele>
        <time>2023-04-30T13:21:52.187Z</time>
      </trkpt>
      <trkpt lat="48.42687" lon="-4.67308">
        <ele>157.215999</ele>
        <time>2023-04-30T13:21:54.182Z</time>
      </trkpt>
      <trkpt lat="48.42684" lon="-4.67293">
        <ele>156.844918</ele>
        <time>2023-04-30T13:21:56.178Z</time>
      </trkpt>
      <trkpt lat="48.4268" lon="-4.67278">
        <ele>156.476143</ele>
        <time>2023-04-30T13:21:58.178Z</time>
      </trkpt>
      <trkpt lat="48.42676" lon="-4.67263">
        <ele>156.104535</ele>
        <time>2023-04-30T13:22:00.176Z</time>
      </trkpt>
      <trkpt lat="48.42673" lon="-4.67247">
        <ele>155.721361</ele>
        <time>2023-04-30T13:22:02.173Z</time>
      </trkpt>
      <trkpt lat="48.4267" lon="-4.67233">
        <ele>155.373432</ele>
        <time>2023-04-30T13:22:04.177Z</time>
      </trkpt>
      <trkpt lat="48.42667" lon="-4.67216">
        <ele>154.973736</ele>
        <time>2023-04-30T13:22:06.183Z</time>
      </trkpt>
      <trkpt lat="48.42665" lon="-4.672">
        <ele>154.72072</ele>
        <time>2023-04-30T13:22:08.176Z</time>
      </trkpt>
      <trkpt lat="48.42663" lon="-4.67183">
        <ele>154.591483</ele>
        <time>2023-04-30T13:22:10.177Z</time>
      </trkpt>
      <trkpt lat="48.42662" lon="-4.67165">
        <ele>154.452132</ele>
        <time>2023-04-30T13:22:12.180Z</time>
      </trkpt>
      <trkpt lat="48.42662" lon="-4.67144">
        <ele>154.298006</ele>
        <time>2023-04-30T13:22:14.179Z</time>
      </trkpt>
      <trkpt lat="48.42664" lon="-4.67125">
        <ele>154.151921</ele>
        <time>2023-04-30T13:22:16.176Z</time>
      </trkpt>
      <trkpt lat="48.42667" lon="-4.67107">
        <ele>154.010685</ele>
        <time>2023-04-30T13:22:18.177Z</time>
      </trkpt>
      <trkpt lat="48.42671" lon="-4.67089">
        <ele>153.868437</ele>
        <time>2023-04-30T13:22:20.173Z</time>
      </trkpt>
      <trkpt lat="48.42674" lon="-4.6707">
        <ele>153.724091</ele>
        <time>2023-04-30T13:22:22.171Z</time>
      </trkpt>
      <trkpt lat="48.42675" lon="-4.67049">
        <ele>153.568804</ele>
        <time>2023-04-30T13:22:24.169Z</time>
      </trkpt>
      <trkpt lat="48.42679" lon="-4.67025">
        <ele>153.384575</ele>
        <time>2023-04-30T13:22:26.176Z</time>
      </trkpt>
      <trkpt lat="48.42679" lon="-4.67004">
        <ele>153.223527</ele>
        <time>2023-04-30T13:22:28.176Z</time>
      </trkpt>
      <trkpt lat="48.4268" lon="-4.66984">
        <ele>153.073332</ele>
        <time>2023-04-30T13:22:30.178Z</time>
      </trkpt>
      <trkpt lat="48.42682" lon="-4.66966">
        <ele>152.936488</ele>
        <time>2023-04-30T13:22:32.177Z</time>
      </trkpt>
      <trkpt lat="48.42684" lon="-4.66947">
        <ele>152.789662</ele>
        <time>2023-04-30T13:22:34.174Z</time>
      </trkpt>
      <trkpt lat="48.42687" lon="-4.66932">
        <ele>152.510122</ele>
        <time>2023-04-30T13:22:36.173Z</time>
      </trkpt>
      <trkpt lat="48.42687" lon="-4.66918">
        <ele>152.144295</ele>
        <time>2023-04-30T13:22:38.158Z</time>
      </trkpt>
      <trkpt lat="48.42686" lon="-4.66903">
        <ele>151.787681</ele>
        <time>2023-04-30T13:22:40.173Z</time>
      </trkpt>
      <trkpt lat="48.4269" lon="-4.66884">
        <ele>151.289459</ele>
        <time>2023-04-30T13:22:43.164Z</time>
      </trkpt>
      <trkpt lat="48.42692" lon="-4.66866">
        <ele>150.840922</ele>
        <time>2023-04-30T13:22:46.174Z</time>
      </trkpt>
      <trkpt lat="48.42695" lon="-4.66849">
        <ele>150.394948</ele>
        <time>2023-04-30T13:22:49.178Z</time>
      </trkpt>
      <trkpt lat="48.42696" lon="-4.66835">
        <ele>150.036038</ele>
        <time>2023-04-30T13:22:52.178Z</time>
      </trkpt>
      <trkpt lat="48.42698" lon="-4.66821">
        <ele>149.687653</ele>
        <time>2023-04-30T13:22:55.162Z</time>
      </trkpt>
      <trkpt lat="48.42698" lon="-4.66806">
        <ele>149.296666</ele>
        <time>2023-04-30T13:22:58.177Z</time>
      </trkpt>
      <trkpt lat="48.427" lon="-4.6679">
        <ele>148.909324</ele>
        <time>2023-04-30T13:23:01.175Z</time>
      </trkpt>
      <trkpt lat="48.42702" lon="-4.66774">
        <ele>148.491904</ele>
        <time>2023-04-30T13:23:04.166Z</time>
      </trkpt>
      <trkpt lat="48.42706" lon="-4.66757">
        <ele>148.028374</ele>
        <time>2023-04-30T13:23:07.184Z</time>
      </trkpt>
      <trkpt lat="48.42711" lon="-4.6674">
        <ele>147.560233</ele>
        <time>2023-04-30T13:23:10.171Z</time>
      </trkpt>
      <trkpt lat="48.42718" lon="-4.66723">
        <ele>147.091562</ele>
        <time>2023-04-30T13:23:13.171Z</time>
      </trkpt>
      <trkpt lat="48.42722" lon="-4.66707">
        <ele>146.636898</ele>
        <time>2023-04-30T13:23:16.170Z</time>
      </trkpt>
      <trkpt lat="48.42725" lon="-4.66689">
        <ele>146.190894</ele>
        <time>2023-04-30T13:23:19.173Z</time>
      </trkpt>
      <trkpt lat="48.42728" lon="-4.66672">
        <ele>145.695149</ele>
        <time>2023-04-30T13:23:22.171Z</time>
      </trkpt>
      <trkpt lat="48.42731" lon="-4.66654">
        <ele>145.135874</ele>
        <time>2023-04-30T13:23:25.185Z</time>
      </trkpt>
      <trkpt lat="48.42733" lon="-4.66637">
        <ele>144.610496</ele>
        <time>2023-04-30T13:23:28.181Z</time>
      </trkpt>
      <trkpt lat="48.42733" lon="-4.6662">
        <ele>144.114075</ele>
        <time>2023-04-30T13:23:31.162Z</time>
      </trkpt>
      <trkpt lat="48.42734" lon="-4.66602">
        <ele>143.584655</ele>
        <time>2023-04-30T13:23:34.175Z</time>
      </trkpt>
      <trkpt lat="48.42732" lon="-4.66586">
        <ele>143.0956</ele>
        <time>2023-04-30T13:23:37.177Z</time>
      </trkpt>
      <trkpt lat="48.42731" lon="-4.66571">
        <ele>142.614007</ele>
        <time>2023-04-30T13:23:40.190Z</time>
      </trkpt>
      <trkpt lat="48.42729" lon="-4.66554">
        <ele>142.119798</ele>
        <time>2023-04-30T13:23:43.168Z</time>
      </trkpt>
      <trkpt lat="48.42728" lon="-4.66537">
        <ele>141.610471</ele>
        <time>2023-04-30T13:23:46.172Z</time>
      </trkpt>
      <trkpt lat="48.42727" lon="-4.66522">
        <ele>141.150486</ele>
        <time>2023-04-30T13:23:49.167Z</time>
      </trkpt>
      <trkpt lat="48.42727" lon="-4.66502">
        <ele>140.53738</ele>
        <time>2023-04-30T13:23:52.178Z</time>
      </trkpt>
      <trkpt lat="48.42727" lon="-4.66488">
        <ele>140.122714</ele>
        <time>2023-04-30T13:23:54.174Z</time>
      </trkpt>
      <trkpt lat="48.42728" lon="-4.66469">
        <ele>139.557488</ele>
        <time>2023-04-30T13:23:57.170Z</time>
      </trkpt>
      <trkpt lat="48.42728" lon="-4.6645">
        <ele>138.983686</ele>
        <time>2023-04-30T13:24:00.170Z</time>
      </trkpt>
      <trkpt lat="48.42727" lon="-4.66431">
        <ele>138.413316</ele>
        <time>2023-04-30T13:24:03.176Z</time>
      </trkpt>
      <trkpt lat="48.42725" lon="-4.66416">
        <ele>137.960582</ele>
        <time>2023-04-30T13:24:05.171Z</time>
      </trkpt>
      <trkpt lat="48.42723" lon="-4.66399">
        <ele>137.724277</ele>
        <time>2023-04-30T13:24:07.176Z</time>
      </trkpt>
      <trkpt lat="48.42721" lon="-4.6638">
        <ele>137.594299</ele>
        <time>2023-04-30T13:24:09.175Z</time>
      </trkpt>
      <trkpt lat="48.42718" lon="-4.66361">
        <ele>137.455348</ele>
        <time>2023-04-30T13:24:11.174Z</time>
      </trkpt>
      <trkpt lat="48.42717" lon="-4.66342">
        <ele>137.323393</ele>
        <time>2023-04-30T13:24:13.177Z</time>
      </trkpt>
      <trkpt lat="48.42715" lon="-4.66323">
        <ele>137.190491</ele>
        <time>2023-04-30T13:24:15.178Z</time>
      </trkpt>
      <trkpt lat="48.42714" lon="-4.66305">
        <ele>137.062388</ele>
        <time>2023-04-30T13:24:17.173Z</time>
      </trkpt>
      <trkpt lat="48.42714" lon="-4.66287">
        <ele>136.939855</ele>
        <time>2023-04-30T13:24:19.182Z</time>
      </trkpt>
      <trkpt lat="48.42715" lon="-4.66272">
        <ele>136.831865</ele>
        <time>2023-04-30T13:24:21.176Z</time>
      </trkpt>
      <trkpt lat="48.42716" lon="-4.66257">
        <ele>136.729855</ele>
        <time>2023-04-30T13:24:23.175Z</time>
      </trkpt>
      <trkpt lat="48.42717" lon="-4.66243">
        <ele>136.633318</ele>
        <time>2023-04-30T13:24:25.170Z</time>
      </trkpt>
      <trkpt lat="48.42718" lon="-4.66229">
        <ele>136.536406</ele>
        <time>2023-04-30T13:24:27.172Z</time>
      </trkpt>
      <trkpt lat="48.42718" lon="-4.66215">
        <ele>136.433933</ele>
        <time>2023-04-30T13:24:29.178Z</time>
      </trkpt>
      <trkpt lat="48.42721" lon="-4.66197">
        <ele>136.305222</ele>
        <time>2023-04-30T13:24:32.181Z</time>
      </trkpt>
      <trkpt lat="48.42721" lon="-4.6618">
        <ele>136.185948</ele>
        <time>2023-04-30T13:24:35.174Z</time>
      </trkpt>
      <trkpt lat="48.42722" lon="-4.66164">
        <ele>136.078224</ele>
        <time>2023-04-30T13:24:38.169Z</time>
      </trkpt>
      <trkpt lat="48.42724" lon="-4.6615">
        <ele>135.977163</ele>
        <time>2023-04-30T13:24:41.172Z</time>
      </trkpt>
      <trkpt lat="48.42727" lon="-4.66136">
        <ele>135.708844</ele>
        <time>2023-04-30T13:24:44.174Z</time>
      </trkpt>
      <trkpt lat="48.4273" lon="-4.66121">
        <ele>135.256228</ele>
        <time>2023-04-30T13:24:47.179Z</time>
      </trkpt>
      <trkpt lat="48.42732" lon="-4.66108">
        <ele>134.842648</ele>
        <time>2023-04-30T13:24:50.163Z</time>
      </trkpt>
      <trkpt lat="48.42734" lon="-4.66094">
        <ele>134.41585</ele>
        <time>2023-04-30T13:24:53.176Z</time>
      </trkpt>
      <trkpt lat="48.42737" lon="-4.66079">
        <ele>133.953451</ele>
        <time>2023-04-30T13:24:56.178Z</time>
      </trkpt>
      <trkpt lat="48.42739" lon="-4.66064">
        <ele>133.507324</ele>
        <time>2023-04-30T13:24:59.171Z</time>
      </trkpt>
      <trkpt lat="48.42741" lon="-4.66045">
        <ele>132.93426</ele>
        <time>2023-04-30T13:25:02.162Z</time>
      </trkpt>
      <trkpt lat="48.42744" lon="-4.66026">
        <ele>132.358987</ele>
        <time>2023-04-30T13:25:05.175Z</time>
      </trkpt>
      <trkpt lat="48.42746" lon="-4.66013">
        <ele>131.95514</ele>
        <time>2023-04-30T13:25:07.176Z</time>
      </trkpt>
      <trkpt lat="48.42749" lon="-4.65994">
        <ele>131.383796</ele>
        <time>2023-04-30T13:25:10.181Z</time>
      </trkpt>
      <trkpt lat="48.42751" lon="-4.65977">
        <ele>130.839545</ele>
        <time>2023-04-30T13:25:13.185Z</time>
      </trkpt>
      <trkpt lat="48.42754" lon="-4.65958">
        <ele>130.284703</ele>
        <time>2023-04-30T13:25:16.178Z</time>
      </trkpt>
      <trkpt lat="48.42755" lon="-4.65944">
        <ele>129.864724</ele>
        <time>2023-04-30T13:25:18.171Z</time>
      </trkpt>
      <trkpt lat="48.42756" lon="-4.65929">
        <ele>129.403405</ele>
        <time>2023-04-30T13:25:20.180Z</time>
      </trkpt>
      <trkpt lat="48.42757" lon="-4.65915">
        <ele>128.970871</ele>
        <time>2023-04-30T13:25:22.170Z</time>
      </trkpt>
      <trkpt lat="48.42758" lon="-4.65896">
        <ele>128.409752</ele>
        <time>2023-04-30T13:25:24.166Z</time>
      </trkpt>
      <trkpt lat="48.42758" lon="-4.65875">
        <ele>127.752741</ele>
        <time>2023-04-30T13:25:26.175Z</time>
      </trkpt>
      <trkpt lat="48.42758" lon="-4.65853">
        <ele>126.893252</ele>
        <time>2023-04-30T13:25:28.175Z</time>
      </trkpt>
      <trkpt lat="48.42758" lon="-4.65833">
        <ele>126.054363</ele>
        <time>2023-04-30T13:25:30.171Z</time>
      </trkpt>
      <trkpt lat="48.42758" lon="-4.65812">
        <ele>125.21512</ele>
        <time>2023-04-30T13:25:32.176Z</time>
      </trkpt>
      <trkpt lat="48.42757" lon="-4.65795">
        <ele>124.533761</ele>
        <time>2023-04-30T13:25:34.177Z</time>
      </trkpt>
      <trkpt lat="48.42757" lon="-4.65779">
        <ele>123.889551</ele>
        <time>2023-04-30T13:25:36.182Z</time>
      </trkpt>
      <trkpt lat="48.42757" lon="-4.65764">
        <ele>123.253327</ele>
        <time>2023-04-30T13:25:38.175Z</time>
      </trkpt>
      <trkpt lat="48.42759" lon="-4.65749">
        <ele>122.663662</ele>
        <time>2023-04-30T13:25:40.171Z</time>
      </trkpt>
      <trkpt lat="48.4276" lon="-4.65735">
        <ele>122.073011</ele>
        <time>2023-04-30T13:25:42.176Z</time>
      </trkpt>
      <trkpt lat="48.42759" lon="-4.65721">
        <ele>121.517803</ele>
        <time>2023-04-30T13:25:44.167Z</time>
      </trkpt>
      <trkpt lat="48.4276" lon="-4.65703">
        <ele>120.785957</ele>
        <time>2023-04-30T13:25:47.172Z</time>
      </trkpt>
      <trkpt lat="48.42761" lon="-4.65686">
        <ele>120.101123</ele>
        <time>2023-04-30T13:25:50.177Z</time>
      </trkpt>
      <trkpt lat="48.42761" lon="-4.65669">
        <ele>119.386756</ele>
        <time>2023-04-30T13:25:53.176Z</time>
      </trkpt>
      <trkpt lat="48.42762" lon="-4.6565">
        <ele>118.646306</ele>
        <time>2023-04-30T13:25:56.177Z</time>
      </trkpt>
      <trkpt lat="48.42762" lon="-4.65635">
        <ele>118.018303</ele>
        <time>2023-04-30T13:25:58.176Z</time>
      </trkpt>
      <trkpt lat="48.42763" lon="-4.65617">
        <ele>117.279669</ele>
        <time>2023-04-30T13:26:01.178Z</time>
      </trkpt>
      <trkpt lat="48.42762" lon="-4.65598">
        <ele>116.434247</ele>
        <time>2023-04-30T13:26:04.163Z</time>
      </trkpt>
      <trkpt lat="48.42759" lon="-4.65581">
        <ele>115.559407</ele>
        <time>2023-04-30T13:26:07.178Z</time>
      </trkpt>
      <trkpt lat="48.42758" lon="-4.65565">
        <ele>114.738892</ele>
        <time>2023-04-30T13:26:10.180Z</time>
      </trkpt>
      <trkpt lat="48.42757" lon="-4.65545">
        <ele>113.743802</ele>
        <time>2023-04-30T13:26:13.180Z</time>
      </trkpt>
      <trkpt lat="48.42755" lon="-4.65526">
        <ele>112.799455</ele>
        <time>2023-04-30T13:26:16.173Z</time>
      </trkpt>
      <trkpt lat="48.42755" lon="-4.65508">
        <ele>111.870015</ele>
        <time>2023-04-30T13:26:19.176Z</time>
      </trkpt>
      <trkpt lat="48.42756" lon="-4.65493">
        <ele>111.117046</ele>
        <time>2023-04-30T13:26:21.176Z</time>
      </trkpt>
      <trkpt lat="48.42757" lon="-4.65472">
        <ele>110.065599</ele>
        <time>2023-04-30T13:26:24.169Z</time>
      </trkpt>
      <trkpt lat="48.42758" lon="-4.65452">
        <ele>109.068814</ele>
        <time>2023-04-30T13:26:27.172Z</time>
      </trkpt>
      <trkpt lat="48.4276" lon="-4.65435">
        <ele>108.17622</ele>
        <time>2023-04-30T13:26:30.173Z</time>
      </trkpt>
      <trkpt lat="48.42762" lon="-4.65418">
        <ele>107.306311</ele>
        <time>2023-04-30T13:26:33.173Z</time>
      </trkpt>
      <trkpt lat="48.42766" lon="-4.654">
        <ele>106.371178</ele>
        <time>2023-04-30T13:26:36.174Z</time>
      </trkpt>
      <trkpt lat="48.4277" lon="-4.65383">
        <ele>105.464801</ele>
        <time>2023-04-30T13:26:39.167Z</time>
      </trkpt>
      <trkpt lat="48.42775" lon="-4.65368">
        <ele>104.612728</ele>
        <time>2023-04-30T13:26:42.161Z</time>
      </trkpt>
      <trkpt lat="48.42781" lon="-4.65353">
        <ele>103.733064</ele>
        <time>2023-04-30T13:26:45.166Z</time>
      </trkpt>
      <trkpt lat="48.42787" lon="-4.65338">
        <ele>102.685893</ele>
        <time>2023-04-30T13:26:48.168Z</time>
      </trkpt>
      <trkpt lat="48.42792" lon="-4.65323">
        <ele>101.463648</ele>
        <time>2023-04-30T13:26:51.171Z</time>
      </trkpt>
      <trkpt lat="48.42798" lon="-4.65308">
        <ele>100.204823</ele>
        <time>2023-04-30T13:26:54.181Z</time>
      </trkpt>
      <trkpt lat="48.42803" lon="-4.65292">
        <ele>98.94586</ele>
        <time>2023-04-30T13:26:57.186Z</time>
      </trkpt>
      <trkpt lat="48.42805" lon="-4.65274">
        <ele>97.658387</ele>
        <time>2023-04-30T13:27:00.175Z</time>
      </trkpt>
      <trkpt lat="48.42806" lon="-4.65256">
        <ele>96.364429</ele>
        <time>2023-04-30T13:27:03.164Z</time>
      </trkpt>
      <trkpt lat="48.42806" lon="-4.6524">
        <ele>95.188049</ele>
        <time>2023-04-30T13:27:06.178Z</time>
      </trkpt>
      <trkpt lat="48.42803" lon="-4.65223">
        <ele>93.935252</ele>
        <time>2023-04-30T13:27:09.166Z</time>
      </trkpt>
      <trkpt lat="48.42799" lon="-4.65206">
        <ele>92.641651</ele>
        <time>2023-04-30T13:27:12.178Z</time>
      </trkpt>
      <trkpt lat="48.42796" lon="-4.65187">
        <ele>91.209586</ele>
        <time>2023-04-30T13:27:15.175Z</time>
      </trkpt>
      <trkpt lat="48.42795" lon="-4.65173">
        <ele>90.171131</ele>
        <time>2023-04-30T13:27:17.174Z</time>
      </trkpt>
      <trkpt lat="48.42796" lon="-4.65156">
        <ele>89.010702</ele>
        <time>2023-04-30T13:27:19.171Z</time>
      </trkpt>
      <trkpt lat="48.42799" lon="-4.6514">
        <ele>87.747747</ele>
        <time>2023-04-30T13:27:21.173Z</time>
      </trkpt>
      <trkpt lat="48.42805" lon="-4.65124">
        <ele>86.407119</ele>
        <time>2023-04-30T13:27:23.158Z</time>
      </trkpt>
      <trkpt lat="48.42811" lon="-4.65106">
        <ele>85.028052</ele>
        <time>2023-04-30T13:27:25.177Z</time>
      </trkpt>
      <trkpt lat="48.42816" lon="-4.65087">
        <ele>83.723462</ele>
        <time>2023-04-30T13:27:27.171Z</time>
      </trkpt>
      <trkpt lat="48.42821" lon="-4.65068">
        <ele>83.3255</ele>
        <time>2023-04-30T13:27:29.176Z</time>
      </trkpt>
      <trkpt lat="48.42827" lon="-4.65049">
        <ele>82.940871</ele>
        <time>2023-04-30T13:27:31.174Z</time>
      </trkpt>
      <trkpt lat="48.42834" lon="-4.65032">
        <ele>82.561157</ele>
        <time>2023-04-30T13:27:33.173Z</time>
      </trkpt>
      <trkpt lat="48.42842" lon="-4.65015">
        <ele>82.187629</ele>
        <time>2023-04-30T13:27:35.176Z</time>
      </trkpt>
      <trkpt lat="48.42851" lon="-4.64998">
        <ele>81.785453</ele>
        <time>2023-04-30T13:27:37.181Z</time>
      </trkpt>
      <trkpt lat="48.42858" lon="-4.64978">
        <ele>81.370612</ele>
        <time>2023-04-30T13:27:39.167Z</time>
      </trkpt>
      <trkpt lat="48.42864" lon="-4.64956">
        <ele>80.928816</ele>
        <time>2023-04-30T13:27:41.165Z</time>
      </trkpt>
      <trkpt lat="48.42866" lon="-4.64933">
        <ele>80.493772</ele>
        <time>2023-04-30T13:27:43.168Z</time>
      </trkpt>
      <trkpt lat="48.42867" lon="-4.64912">
        <ele>80.097939</ele>
        <time>2023-04-30T13:27:45.176Z</time>
      </trkpt>
      <trkpt lat="48.42868" lon="-4.6489">
        <ele>79.699577</ele>
        <time>2023-04-30T13:27:47.170Z</time>
      </trkpt>
      <trkpt lat="48.42868" lon="-4.6487">
        <ele>79.325021</ele>
        <time>2023-04-30T13:27:49.179Z</time>
      </trkpt>
      <trkpt lat="48.42869" lon="-4.64851">
        <ele>78.97487</ele>
        <time>2023-04-30T13:27:51.186Z</time>
      </trkpt>
      <trkpt lat="48.42868" lon="-4.64833">
        <ele>78.876148</ele>
        <time>2023-04-30T13:27:53.179Z</time>
      </trkpt>
      <trkpt lat="48.42869" lon="-4.64817">
        <ele>79.232797</ele>
        <time>2023-04-30T13:27:55.179Z</time>
      </trkpt>
      <trkpt lat="48.4287" lon="-4.64802">
        <ele>79.545502</ele>
        <time>2023-04-30T13:27:57.179Z</time>
      </trkpt>
      <trkpt lat="48.4287" lon="-4.64784">
        <ele>79.92947</ele>
        <time>2023-04-30T13:28:00.176Z</time>
      </trkpt>
      <trkpt lat="48.42872" lon="-4.64769">
        <ele>80.261896</ele>
        <time>2023-04-30T13:28:03.175Z</time>
      </trkpt>
      <trkpt lat="48.42874" lon="-4.64755">
        <ele>80.570737</ele>
        <time>2023-04-30T13:28:07.170Z</time>
      </trkpt>
      <trkpt lat="48.42877" lon="-4.6474">
        <ele>80.898991</ele>
        <time>2023-04-30T13:28:13.171Z</time>
      </trkpt>
      <trkpt lat="48.42879" lon="-4.64727">
        <ele>81.194998</ele>
        <time>2023-04-30T13:28:19.166Z</time>
      </trkpt>
      <trkpt lat="48.42883" lon="-4.64713">
        <ele>81.506367</ele>
        <time>2023-04-30T13:28:26.179Z</time>
      </trkpt>
      <trkpt lat="48.42886" lon="-4.64699">
        <ele>81.815999</ele>
        <time>2023-04-30T13:28:32.169Z</time>
      </trkpt>
      <trkpt lat="48.42889" lon="-4.64685">
        <ele>82.135111</ele>
        <time>2023-04-30T13:28:39.169Z</time>
      </trkpt>
      <trkpt lat="48.42891" lon="-4.64671">
        <ele>82.450966</ele>
        <time>2023-04-30T13:28:46.165Z</time>
      </trkpt>
      <trkpt lat="48.42894" lon="-4.64658">
        <ele>82.74502</ele>
        <time>2023-04-30T13:28:52.173Z</time>
      </trkpt>
      <trkpt lat="48.42896" lon="-4.64643">
        <ele>83.064543</ele>
        <time>2023-04-30T13:28:58.168Z</time>
      </trkpt>
      <trkpt lat="48.42899" lon="-4.64629">
        <ele>83.376248</ele>
        <time>2023-04-30T13:29:04.161Z</time>
      </trkpt>
      <trkpt lat="48.42901" lon="-4.64615">
        <ele>83.68569</ele>
        <time>2023-04-30T13:29:10.167Z</time>
      </trkpt>
      <trkpt lat="48.42903" lon="-4.64601">
        <ele>84.005698</ele>
        <time>2023-04-30T13:29:16.165Z</time>
      </trkpt>
      <trkpt lat="48.42904" lon="-4.64587">
        <ele>84.29993</ele>
        <time>2023-04-30T13:29:22.165Z</time>
      </trkpt>
      <trkpt lat="48.42904" lon="-4.64572">
        <ele>84.69141</ele>
        <time>2023-04-30T13:29:29.181Z</time>
      </trkpt>
      <trkpt lat="48.42905" lon="-4.64558">
        <ele>85.219921</ele>
        <time>2023-04-30T13:29:36.160Z</time>
      </trkpt>
      <trkpt lat="48.42904" lon="-4.64543">
        <ele>85.789043</ele>
        <time>2023-04-30T13:29:43.165Z</time>
      </trkpt>
      <trkpt lat="48.42903" lon="-4.64528">
        <ele>86.348146</ele>
        <time>2023-04-30T13:29:50.166Z</time>
      </trkpt>
      <trkpt lat="48.429" lon="-4.64514">
        <ele>86.918049</ele>
        <time>2023-04-30T13:29:58.167Z</time>
      </trkpt>
      <trkpt lat="48.42898" lon="-4.64499">
        <ele>87.488847</ele>
        <time>2023-04-30T13:30:06.166Z</time>
      </trkpt>
      <trkpt lat="48.42896" lon="-4.64485">
        <ele>88.061711</ele>
        <time>2023-04-30T13:30:13.172Z</time>
      </trkpt>
      <trkpt lat="48.42892" lon="-4.64472">
        <ele>88.584312</ele>
        <time>2023-04-30T13:30:20.170Z</time>
      </trkpt>
      <trkpt lat="48.42889" lon="-4.64459">
        <ele>89.114551</ele>
        <time>2023-04-30T13:30:27.170Z</time>
      </trkpt>
      <trkpt lat="48.42888" lon="-4.64444">
        <ele>89.667991</ele>
        <time>2023-04-30T13:30:34.172Z</time>
      </trkpt>
      <trkpt lat="48.42885" lon="-4.64431">
        <ele>90.187458</ele>
        <time>2023-04-30T13:30:41.166Z</time>
      </trkpt>
      <trkpt lat="48.42884" lon="-4.64417">
        <ele>90.717985</ele>
        <time>2023-04-30T13:30:48.167Z</time>
      </trkpt>
      <trkpt lat="48.42884" lon="-4.64403">
        <ele>91.284336</ele>
        <time>2023-04-30T13:30:55.172Z</time>
      </trkpt>
      <trkpt lat="48.42882" lon="-4.64388">
        <ele>91.833654</ele>
        <time>2023-04-30T13:31:03.171Z</time>
      </trkpt>
      <trkpt lat="48.42882" lon="-4.64373">
        <ele>92.397517</ele>
        <time>2023-04-30T13:31:11.175Z</time>
      </trkpt>
      <trkpt lat="48.42883" lon="-4.6439">
        <ele>93.026441</ele>
        <time>2023-04-30T13:31:33.161Z</time>
      </trkpt>
      <trkpt lat="48.42884" lon="-4.64404">
        <ele>93.55777</ele>
        <time>2023-04-30T13:31:36.171Z</time>
      </trkpt>
      <trkpt lat="48.42884" lon="-4.64418">
        <ele>94.101958</ele>
        <time>2023-04-30T13:31:41.173Z</time>
      </trkpt>
      <trkpt lat="48.42883" lon="-4.64404">
        <ele>94.640844</ele>
        <time>2023-04-30T13:33:06.163Z</time>
      </trkpt>
      <trkpt lat="48.42882" lon="-4.6439">
        <ele>95.119071</ele>
        <time>2023-04-30T13:33:17.170Z</time>
      </trkpt>
      <trkpt lat="48.42879" lon="-4.64376">
        <ele>95.584991</ele>
        <time>2023-04-30T13:33:28.170Z</time>
      </trkpt>
      <trkpt lat="48.42881" lon="-4.64362">
        <ele>96.037685</ele>
        <time>2023-04-30T13:33:52.163Z</time>
      </trkpt>
      <trkpt lat="48.42882" lon="-4.64343">
        <ele>96.656898</ele>
        <time>2023-04-30T13:34:14.163Z</time>
      </trkpt>
      <trkpt lat="48.42882" lon="-4.64328">
        <ele>97.125701</ele>
        <time>2023-04-30T13:34:20.161Z</time>
      </trkpt>
      <trkpt lat="48.42886" lon="-4.64314">
        <ele>97.621588</ele>
        <time>2023-04-30T13:34:26.163Z</time>
      </trkpt>
      <trkpt lat="48.42886" lon="-4.64299">
        <ele>98.090714</ele>
        <time>2023-04-30T13:34:32.162Z</time>
      </trkpt>
      <trkpt lat="48.42888" lon="-4.64285">
        <ele>98.570534</ele>
        <time>2023-04-30T13:34:38.163Z</time>
      </trkpt>
      <trkpt lat="48.42892" lon="-4.64272">
        <ele>99.021071</ele>
        <time>2023-04-30T13:34:45.166Z</time>
      </trkpt>
      <trkpt lat="48.42893" lon="-4.64258">
        <ele>99.459597</ele>
        <time>2023-04-30T13:34:52.176Z</time>
      </trkpt>
      <trkpt lat="48.42896" lon="-4.64244">
        <ele>99.933167</ele>
        <time>2023-04-30T13:34:59.162Z</time>
      </trkpt>
      <trkpt lat="48.42899" lon="-4.64231">
        <ele>100.370276</ele>
        <time>2023-04-30T13:35:05.164Z</time>
      </trkpt>
      <trkpt lat="48.42901" lon="-4.64217">
        <ele>100.835036</ele>
        <time>2023-04-30T13:35:11.164Z</time>
      </trkpt>
      <trkpt lat="48.42903" lon="-4.64203">
        <ele>101.297868</ele>
        <time>2023-04-30T13:35:17.168Z</time>
      </trkpt>
      <trkpt lat="48.42907" lon="-4.64175">
        <ele>102.225182</ele>
        <time>2023-04-30T13:39:48.161Z</time>
      </trkpt>
      <trkpt lat="48.42911" lon="-4.64162">
        <ele>102.664172</ele>
        <time>2023-04-30T13:39:53.178Z</time>
      </trkpt>
      <trkpt lat="48.42913" lon="-4.64149">
        <ele>103.10917</ele>
        <time>2023-04-30T13:39:58.166Z</time>
      </trkpt>
      <trkpt lat="48.42915" lon="-4.64136">
        <ele>103.547885</ele>
        <time>2023-04-30T13:40:03.167Z</time>
      </trkpt>
      <trkpt lat="48.42918" lon="-4.64122">
        <ele>103.866563</ele>
        <time>2023-04-30T13:40:08.162Z</time>
      </trkpt>
      <trkpt lat="48.42921" lon="-4.64108">
        <ele>104.208891</ele>
        <time>2023-04-30T13:40:14.174Z</time>
      </trkpt>
      <trkpt lat="48.42923" lon="-4.64093">
        <ele>104.544561</ele>
        <time>2023-04-30T13:40:20.168Z</time>
      </trkpt>
      <trkpt lat="48.42927" lon="-4.6408">
        <ele>104.869612</ele>
        <time>2023-04-30T13:40:26.179Z</time>
      </trkpt>
      <trkpt lat="48.42932" lon="-4.64067">
        <ele>105.218338</ele>
        <time>2023-04-30T13:40:33.164Z</time>
      </trkpt>
      <trkpt lat="48.42935" lon="-4.64053">
        <ele>105.562282</ele>
        <time>2023-04-30T13:40:39.177Z</time>
      </trkpt>
      <trkpt lat="48.4294" lon="-4.64039">
        <ele>105.912226</ele>
        <time>2023-04-30T13:40:45.183Z</time>
      </trkpt>
      <trkpt lat="48.42944" lon="-4.64024">
        <ele>106.269781</ele>
        <time>2023-04-30T13:40:51.179Z</time>
      </trkpt>
      <trkpt lat="48.4295" lon="-4.64012">
        <ele>106.618363</ele>
        <time>2023-04-30T13:40:57.172Z</time>
      </trkpt>
      <trkpt lat="48.42956" lon="-4.63999">
        <ele>106.977586</ele>
        <time>2023-04-30T13:41:03.161Z</time>
      </trkpt>
      <trkpt lat="48.42962" lon="-4.63988">
        <ele>107.297766</ele>
        <time>2023-04-30T13:41:08.170Z</time>
      </trkpt>
      <trkpt lat="48.42967" lon="-4.63974">
        <ele>107.653158</ele>
        <time>2023-04-30T13:41:14.168Z</time>
      </trkpt>
      <trkpt lat="48.42972" lon="-4.63961">
        <ele>108.003328</ele>
        <time>2023-04-30T13:41:20.170Z</time>
      </trkpt>
      <trkpt lat="48.42979" lon="-4.63949">
        <ele>108.35552</ele>
        <time>2023-04-30T13:41:26.169Z</time>
      </trkpt>
      <trkpt lat="48.42984" lon="-4.63937">
        <ele>108.663627</ele>
        <time>2023-04-30T13:41:31.178Z</time>
      </trkpt>
      <trkpt lat="48.4299" lon="-4.63926">
        <ele>109.011508</ele>
        <time>2023-04-30T13:41:37.179Z</time>
      </trkpt>
      <trkpt lat="48.42997" lon="-4.63914">
        <ele>109.362871</ele>
        <time>2023-04-30T13:41:43.164Z</time>
      </trkpt>
      <trkpt lat="48.43004" lon="-4.63902">
        <ele>109.687768</ele>
        <time>2023-04-30T13:41:49.163Z</time>
      </trkpt>
      <trkpt lat="48.43012" lon="-4.63891">
        <ele>109.630881</ele>
        <time>2023-04-30T13:41:55.166Z</time>
      </trkpt>
      <trkpt lat="48.43019" lon="-4.63879">
        <ele>109.573104</ele>
        <time>2023-04-30T13:42:01.170Z</time>
      </trkpt>
      <trkpt lat="48.43026" lon="-4.63871">
        <ele>109.524801</ele>
        <time>2023-04-30T13:42:06.160Z</time>
      </trkpt>
      <trkpt lat="48.43033" lon="-4.63861">
        <ele>109.472994</ele>
        <time>2023-04-30T13:42:11.171Z</time>
      </trkpt>
      <trkpt lat="48.4304" lon="-4.6385">
        <ele>109.41686</ele>
        <time>2023-04-30T13:42:17.153Z</time>
      </trkpt>
      <trkpt lat="48.43047" lon="-4.6384">
        <ele>109.366634</ele>
        <time>2023-04-30T13:42:22.175Z</time>
      </trkpt>
      <trkpt lat="48.43057" lon="-4.63827">
        <ele>109.293734</ele>
        <time>2023-04-30T13:42:44.171Z</time>
      </trkpt>
      <trkpt lat="48.43064" lon="-4.63815">
        <ele>109.239804</ele>
        <time>2023-04-30T13:42:49.169Z</time>
      </trkpt>
      <trkpt lat="48.4307" lon="-4.63802">
        <ele>109.18277</ele>
        <time>2023-04-30T13:42:55.166Z</time>
      </trkpt>
      <trkpt lat="48.43076" lon="-4.6379">
        <ele>109.127992</ele>
        <time>2023-04-30T13:43:01.167Z</time>
      </trkpt>
      <trkpt lat="48.43081" lon="-4.63777">
        <ele>109.07275</ele>
        <time>2023-04-30T13:43:07.161Z</time>
      </trkpt>
      <trkpt lat="48.43086" lon="-4.63764">
        <ele>109.020692</ele>
        <time>2023-04-30T13:43:12.177Z</time>
      </trkpt>
      <trkpt lat="48.43091" lon="-4.6375">
        <ele>108.964155</ele>
        <time>2023-04-30T13:43:17.178Z</time>
      </trkpt>
      <trkpt lat="48.43095" lon="-4.63738">
        <ele>108.915544</ele>
        <time>2023-04-30T13:43:21.176Z</time>
      </trkpt>
      <trkpt lat="48.431" lon="-4.63726">
        <ele>108.863589</ele>
        <time>2023-04-30T13:43:25.174Z</time>
      </trkpt>
      <trkpt lat="48.43105" lon="-4.63713">
        <ele>108.809532</ele>
        <time>2023-04-30T13:43:29.173Z</time>
      </trkpt>
      <trkpt lat="48.4311" lon="-4.63698">
        <ele>108.748701</ele>
        <time>2023-04-30T13:43:34.180Z</time>
      </trkpt>
      <trkpt lat="48.43116" lon="-4.63686">
        <ele>108.691571</ele>
        <time>2023-04-30T13:43:38.176Z</time>
      </trkpt>
      <trkpt lat="48.4312" lon="-4.63671">
        <ele>108.622518</ele>
        <time>2023-04-30T13:43:43.163Z</time>
      </trkpt>
      <trkpt lat="48.43126" lon="-4.63657">
        <ele>108.550629</ele>
        <time>2023-04-30T13:43:48.178Z</time>
      </trkpt>
      <trkpt lat="48.4313" lon="-4.63642">
        <ele>108.481955</ele>
        <time>2023-04-30T13:43:53.170Z</time>
      </trkpt>
      <trkpt lat="48.43134" lon="-4.63629">
        <ele>108.420735</ele>
        <time>2023-04-30T13:43:57.176Z</time>
      </trkpt>
      <trkpt lat="48.43136" lon="-4.63614">
        <ele>108.353963</ele>
        <time>2023-04-30T13:44:02.169Z</time>
      </trkpt>
      <trkpt lat="48.43139" lon="-4.63599">
        <ele>108.288324</ele>
        <time>2023-04-30T13:44:07.180Z</time>
      </trkpt>
      <trkpt lat="48.43141" lon="-4.63583">
        <ele>108.217249</ele>
        <time>2023-04-30T13:44:12.178Z</time>
      </trkpt>
      <trkpt lat="48.43143" lon="-4.63568">
        <ele>108.152575</ele>
        <time>2023-04-30T13:44:16.182Z</time>
      </trkpt>
      <trkpt lat="48.43145" lon="-4.63553">
        <ele>108.087214</ele>
        <time>2023-04-30T13:44:20.177Z</time>
      </trkpt>
      <trkpt lat="48.43149" lon="-4.63537">
        <ele>108.016701</ele>
        <time>2023-04-30T13:44:25.172Z</time>
      </trkpt>
      <trkpt lat="48.43149" lon="-4.63523">
        <ele>107.9529</ele>
        <time>2023-04-30T13:44:31.170Z</time>
      </trkpt>
      <trkpt lat="48.43152" lon="-4.63509">
        <ele>107.891326</ele>
        <time>2023-04-30T13:44:37.165Z</time>
      </trkpt>
      <trkpt lat="48.43154" lon="-4.63494">
        <ele>107.82692</ele>
        <time>2023-04-30T13:44:44.158Z</time>
      </trkpt>
      <trkpt lat="48.43158" lon="-4.63479">
        <ele>107.756339</ele>
        <time>2023-04-30T13:44:50.169Z</time>
      </trkpt>
      <trkpt lat="48.43162" lon="-4.63466">
        <ele>107.697731</ele>
        <time>2023-04-30T13:44:56.167Z</time>
      </trkpt>
      <trkpt lat="48.43164" lon="-4.63453">
        <ele>107.638585</ele>
        <time>2023-04-30T13:45:03.163Z</time>
      </trkpt>
      <trkpt lat="48.43164" lon="-4.63438">
        <ele>107.575213</ele>
        <time>2023-04-30T13:45:09.167Z</time>
      </trkpt>
      <trkpt lat="48.43166" lon="-4.63424">
        <ele>108.028242</ele>
        <time>2023-04-30T13:45:15.176Z</time>
      </trkpt>
      <trkpt lat="48.43167" lon="-4.6341">
        <ele>108.572567</ele>
        <time>2023-04-30T13:45:21.167Z</time>
      </trkpt>
      <trkpt lat="48.43167" lon="-4.63397">
        <ele>109.119382</ele>
        <time>2023-04-30T13:45:27.166Z</time>
      </trkpt>
      <trkpt lat="48.4317" lon="-4.63382">
        <ele>109.723938</ele>
        <time>2023-04-30T13:45:34.170Z</time>
      </trkpt>
      <trkpt lat="48.4317" lon="-4.63367">
        <ele>110.319197</ele>
        <time>2023-04-30T13:45:41.166Z</time>
      </trkpt>
      <trkpt lat="48.43171" lon="-4.63352">
        <ele>110.941296</ele>
        <time>2023-04-30T13:45:48.171Z</time>
      </trkpt>
      <trkpt lat="48.43173" lon="-4.63337">
        <ele>111.552707</ele>
        <time>2023-04-30T13:45:55.172Z</time>
      </trkpt>
      <trkpt lat="48.43176" lon="-4.63322">
        <ele>112.167732</ele>
        <time>2023-04-30T13:46:03.155Z</time>
      </trkpt>
      <trkpt lat="48.43178" lon="-4.63309">
        <ele>112.720687</ele>
        <time>2023-04-30T13:46:10.163Z</time>
      </trkpt>
      <trkpt lat="48.4318" lon="-4.63295">
        <ele>113.291292</ele>
        <time>2023-04-30T13:46:17.172Z</time>
      </trkpt>
      <trkpt lat="48.43183" lon="-4.63281">
        <ele>113.877909</ele>
        <time>2023-04-30T13:46:24.159Z</time>
      </trkpt>
      <trkpt lat="48.43186" lon="-4.63266">
        <ele>114.495324</ele>
        <time>2023-04-30T13:46:31.170Z</time>
      </trkpt>
      <trkpt lat="48.43188" lon="-4.63252">
        <ele>115.097323</ele>
        <time>2023-04-30T13:46:38.162Z</time>
      </trkpt>
      <trkpt lat="48.43189" lon="-4.63238">
        <ele>115.64963</ele>
        <time>2023-04-30T13:46:44.178Z</time>
      </trkpt>
      <trkpt lat="48.43189" lon="-4.63224">
        <ele>116.204449</ele>
        <time>2023-04-30T13:47:05.171Z</time>
      </trkpt>
      <trkpt lat="48.43198" lon="-4.6321">
        <ele>116.988103</ele>
        <time>2023-04-30T13:48:34.178Z</time>
      </trkpt>
      <trkpt lat="48.43201" lon="-4.63196">
        <ele>117.575527</ele>
        <time>2023-04-30T13:48:40.168Z</time>
      </trkpt>
      <trkpt lat="48.43195" lon="-4.63186">
        <ele>118.142897</ele>
        <time>2023-04-30T13:48:45.171Z</time>
      </trkpt>
      <trkpt lat="48.43188" lon="-4.63177">
        <ele>118.409256</ele>
        <time>2023-04-30T13:48:49.166Z</time>
      </trkpt>
      <trkpt lat="48.43189" lon="-4.63162">
        <ele>118.344897</ele>
        <time>2023-04-30T13:48:54.158Z</time>
      </trkpt>
      <trkpt lat="48.43197" lon="-4.63155">
        <ele>118.285127</ele>
        <time>2023-04-30T13:48:59.169Z</time>
      </trkpt>
      <trkpt lat="48.43206" lon="-4.63145">
        <ele>118.216317</ele>
        <time>2023-04-30T13:49:04.170Z</time>
      </trkpt>
      <trkpt lat="48.43213" lon="-4.63133">
        <ele>118.152523</ele>
        <time>2023-04-30T13:49:08.173Z</time>
      </trkpt>
      <trkpt lat="48.43218" lon="-4.63122">
        <ele>118.094263</ele>
        <time>2023-04-30T13:49:11.171Z</time>
      </trkpt>
      <trkpt lat="48.43223" lon="-4.6311">
        <ele>118.034662</ele>
        <time>2023-04-30T13:49:14.177Z</time>
      </trkpt>
      <trkpt lat="48.43228" lon="-4.63098">
        <ele>117.977515</ele>
        <time>2023-04-30T13:49:17.181Z</time>
      </trkpt>
      <trkpt lat="48.43233" lon="-4.63087">
        <ele>117.918314</ele>
        <time>2023-04-30T13:49:20.176Z</time>
      </trkpt>
      <trkpt lat="48.43238" lon="-4.63075">
        <ele>117.858388</ele>
        <time>2023-04-30T13:49:23.172Z</time>
      </trkpt>
      <trkpt lat="48.43231" lon="-4.62715">
        <ele>113.770975</ele>
        <time>2023-04-30T13:51:21.170Z</time>
      </trkpt>
      <trkpt lat="48.43228" lon="-4.62702">
        <ele>113.559595</ele>
        <time>2023-04-30T13:51:24.176Z</time>
      </trkpt>
      <trkpt lat="48.43223" lon="-4.62689">
        <ele>113.331556</ele>
        <time>2023-04-30T13:51:27.180Z</time>
      </trkpt>
      <trkpt lat="48.43218" lon="-4.62676">
        <ele>113.088574</ele>
        <time>2023-04-30T13:51:30.164Z</time>
      </trkpt>
      <trkpt lat="48.43213" lon="-4.62662">
        <ele>112.845818</ele>
        <time>2023-04-30T13:51:33.176Z</time>
      </trkpt>
      <trkpt lat="48.43209" lon="-4.62647">
        <ele>112.600666</ele>
        <time>2023-04-30T13:51:36.174Z</time>
      </trkpt>
      <trkpt lat="48.43204" lon="-4.62635">
        <ele>112.385434</ele>
        <time>2023-04-30T13:51:39.168Z</time>
      </trkpt>
      <trkpt lat="48.432" lon="-4.62621">
        <ele>112.15975</ele>
        <time>2023-04-30T13:51:42.177Z</time>
      </trkpt>
      <trkpt lat="48.43196" lon="-4.62608">
        <ele>111.94013</ele>
        <time>2023-04-30T13:51:45.176Z</time>
      </trkpt>
      <trkpt lat="48.43192" lon="-4.62594">
        <ele>111.709226</ele>
        <time>2023-04-30T13:51:48.171Z</time>
      </trkpt>
      <trkpt lat="48.4319" lon="-4.6258">
        <ele>111.490127</ele>
        <time>2023-04-30T13:51:51.174Z</time>
      </trkpt>
      <trkpt lat="48.43187" lon="-4.62566">
        <ele>111.274348</ele>
        <time>2023-04-30T13:51:54.175Z</time>
      </trkpt>
      <trkpt lat="48.43184" lon="-4.62553">
        <ele>111.058238</ele>
        <time>2023-04-30T13:51:57.180Z</time>
      </trkpt>
      <trkpt lat="48.43181" lon="-4.6254">
        <ele>110.845748</ele>
        <time>2023-04-30T13:52:00.166Z</time>
      </trkpt>
      <trkpt lat="48.43178" lon="-4.62523">
        <ele>110.574687</ele>
        <time>2023-04-30T13:52:04.180Z</time>
      </trkpt>
      <trkpt lat="48.43175" lon="-4.62509">
        <ele>110.365098</ele>
        <time>2023-04-30T13:52:07.179Z</time>
      </trkpt>
      <trkpt lat="48.43172" lon="-4.62496">
        <ele>110.140924</ele>
        <time>2023-04-30T13:52:10.164Z</time>
      </trkpt>
      <trkpt lat="48.43169" lon="-4.62481">
        <ele>109.903877</ele>
        <time>2023-04-30T13:52:13.166Z</time>
      </trkpt>
      <trkpt lat="48.43165" lon="-4.62466">
        <ele>109.664665</ele>
        <time>2023-04-30T13:52:16.172Z</time>
      </trkpt>
      <trkpt lat="48.43162" lon="-4.6245">
        <ele>109.415328</ele>
        <time>2023-04-30T13:52:19.177Z</time>
      </trkpt>
      <trkpt lat="48.43159" lon="-4.62436">
        <ele>109.178982</ele>
        <time>2023-04-30T13:52:22.153Z</time>
      </trkpt>
      <trkpt lat="48.43155" lon="-4.62421">
        <ele>108.92824</ele>
        <time>2023-04-30T13:52:25.174Z</time>
      </trkpt>
      <trkpt lat="48.43152" lon="-4.62406">
        <ele>108.628324</ele>
        <time>2023-04-30T13:52:28.150Z</time>
      </trkpt>
      <trkpt lat="48.43149" lon="-4.62392">
        <ele>108.342343</ele>
        <time>2023-04-30T13:52:31.176Z</time>
      </trkpt>
      <trkpt lat="48.43146" lon="-4.62375">
        <ele>107.992302</ele>
        <time>2023-04-30T13:52:35.175Z</time>
      </trkpt>
      <trkpt lat="48.43143" lon="-4.62362">
        <ele>107.722051</ele>
        <time>2023-04-30T13:52:38.178Z</time>
      </trkpt>
      <trkpt lat="48.4314" lon="-4.62349">
        <ele>107.455536</ele>
        <time>2023-04-30T13:52:41.176Z</time>
      </trkpt>
      <trkpt lat="48.43138" lon="-4.62335">
        <ele>107.175952</ele>
        <time>2023-04-30T13:52:44.177Z</time>
      </trkpt>
      <trkpt lat="48.43136" lon="-4.62321">
        <ele>106.899417</ele>
        <time>2023-04-30T13:52:47.175Z</time>
      </trkpt>
      <trkpt lat="48.43134" lon="-4.62306">
        <ele>106.607436</ele>
        <time>2023-04-30T13:52:50.177Z</time>
      </trkpt>
      <trkpt lat="48.43131" lon="-4.62292">
        <ele>106.32219</ele>
        <time>2023-04-30T13:52:53.171Z</time>
      </trkpt>
      <trkpt lat="48.43128" lon="-4.62279">
        <ele>106.037844</ele>
        <time>2023-04-30T13:52:56.152Z</time>
      </trkpt>
      <trkpt lat="48.43125" lon="-4.62266">
        <ele>105.76204</ele>
        <time>2023-04-30T13:52:59.180Z</time>
      </trkpt>
      <trkpt lat="48.43122" lon="-4.62253">
        <ele>105.495525</ele>
        <time>2023-04-30T13:53:02.178Z</time>
      </trkpt>
      <trkpt lat="48.43119" lon="-4.62237">
        <ele>105.172406</ele>
        <time>2023-04-30T13:53:06.170Z</time>
      </trkpt>
      <trkpt lat="48.43116" lon="-4.6222">
        <ele>104.83489</ele>
        <time>2023-04-30T13:53:10.168Z</time>
      </trkpt>
      <trkpt lat="48.43113" lon="-4.62206">
        <ele>104.54556</ele>
        <time>2023-04-30T13:53:13.163Z</time>
      </trkpt>
      <trkpt lat="48.4311" lon="-4.62191">
        <ele>104.231726</ele>
        <time>2023-04-30T13:53:16.176Z</time>
      </trkpt>
      <trkpt lat="48.43105" lon="-4.62174">
        <ele>103.885168</ele>
        <time>2023-04-30T13:53:19.170Z</time>
      </trkpt>
      <trkpt lat="48.43101" lon="-4.62157">
        <ele>103.547403</ele>
        <time>2023-04-30T13:53:22.174Z</time>
      </trkpt>
      <trkpt lat="48.43098" lon="-4.6214">
        <ele>103.28124</ele>
        <time>2023-04-30T13:53:25.165Z</time>
      </trkpt>
      <trkpt lat="48.43094" lon="-4.62125">
        <ele>103.03258</ele>
        <time>2023-04-30T13:53:28.178Z</time>
      </trkpt>
      <trkpt lat="48.43091" lon="-4.62108">
        <ele>102.756414</ele>
        <time>2023-04-30T13:53:31.172Z</time>
      </trkpt>
      <trkpt lat="48.43088" lon="-4.62089">
        <ele>102.452764</ele>
        <time>2023-04-30T13:53:34.178Z</time>
      </trkpt>
      <trkpt lat="48.43082" lon="-4.62071">
        <ele>102.140919</ele>
        <time>2023-04-30T13:53:37.173Z</time>
      </trkpt>
      <trkpt lat="48.43074" lon="-4.62056">
        <ele>101.843649</ele>
        <time>2023-04-30T13:53:40.176Z</time>
      </trkpt>
      <trkpt lat="48.43066" lon="-4.62042">
        <ele>101.567389</ele>
        <time>2023-04-30T13:53:43.167Z</time>
      </trkpt>
      <trkpt lat="48.43058" lon="-4.62029">
        <ele>101.286666</ele>
        <time>2023-04-30T13:53:46.181Z</time>
      </trkpt>
      <trkpt lat="48.4305" lon="-4.62017">
        <ele>101.026349</ele>
        <time>2023-04-30T13:53:49.168Z</time>
      </trkpt>
      <trkpt lat="48.43043" lon="-4.62004">
        <ele>100.764378</ele>
        <time>2023-04-30T13:53:52.179Z</time>
      </trkpt>
      <trkpt lat="48.43036" lon="-4.61991">
        <ele>100.512827</ele>
        <time>2023-04-30T13:53:55.175Z</time>
      </trkpt>
      <trkpt lat="48.43029" lon="-4.61979">
        <ele>100.257109</ele>
        <time>2023-04-30T13:53:58.177Z</time>
      </trkpt>
      <trkpt lat="48.43021" lon="-4.61966">
        <ele>99.989819</ele>
        <time>2023-04-30T13:54:01.171Z</time>
      </trkpt>
      <trkpt lat="48.43013" lon="-4.61955">
        <ele>99.733137</ele>
        <time>2023-04-30T13:54:04.172Z</time>
      </trkpt>
      <trkpt lat="48.43005" lon="-4.61945">
        <ele>99.484775</ele>
        <time>2023-04-30T13:54:07.188Z</time>
      </trkpt>
      <trkpt lat="48.42997" lon="-4.61935">
        <ele>99.221133</ele>
        <time>2023-04-30T13:54:10.165Z</time>
      </trkpt>
      <trkpt lat="48.42989" lon="-4.61926">
        <ele>98.9654</ele>
        <time>2023-04-30T13:54:13.171Z</time>
      </trkpt>
      <trkpt lat="48.42981" lon="-4.61919">
        <ele>98.734695</ele>
        <time>2023-04-30T13:54:16.171Z</time>
      </trkpt>
      <trkpt lat="48.4297" lon="-4.61913">
        <ele>98.429089</ele>
        <time>2023-04-30T13:54:20.176Z</time>
      </trkpt>
      <trkpt lat="48.4296" lon="-4.61909">
        <ele>98.18549</ele>
        <time>2023-04-30T13:54:23.175Z</time>
      </trkpt>
      <trkpt lat="48.42951" lon="-4.61907">
        <ele>97.951002</ele>
        <time>2023-04-30T13:54:26.176Z</time>
      </trkpt>
      <trkpt lat="48.42939" lon="-4.61904">
        <ele>97.647167</ele>
        <time>2023-04-30T13:54:30.166Z</time>
      </trkpt>
      <trkpt lat="48.4293" lon="-4.61901">
        <ele>97.400501</ele>
        <time>2023-04-30T13:54:33.177Z</time>
      </trkpt>
      <trkpt lat="48.4292" lon="-4.61897">
        <ele>97.148684</ele>
        <time>2023-04-30T13:54:36.177Z</time>
      </trkpt>
      <trkpt lat="48.42911" lon="-4.61893">
        <ele>96.906262</ele>
        <time>2023-04-30T13:54:39.174Z</time>
      </trkpt>
      <trkpt lat="48.42902" lon="-4.61888">
        <ele>96.665847</ele>
        <time>2023-04-30T13:54:42.175Z</time>
      </trkpt>
      <trkpt lat="48.42894" lon="-4.6188">
        <ele>96.42552</ele>
        <time>2023-04-30T13:54:45.176Z</time>
      </trkpt>
      <trkpt lat="48.42886" lon="-4.61872">
        <ele>96.164401</ele>
        <time>2023-04-30T13:54:48.180Z</time>
      </trkpt>
      <trkpt lat="48.42878" lon="-4.61862">
        <ele>95.902579</ele>
        <time>2023-04-30T13:54:51.168Z</time>
      </trkpt>
      <trkpt lat="48.4287" lon="-4.6185">
        <ele>95.621625</ele>
        <time>2023-04-30T13:54:54.176Z</time>
      </trkpt>
      <trkpt lat="48.42862" lon="-4.61838">
        <ele>95.334658</ele>
        <time>2023-04-30T13:54:57.177Z</time>
      </trkpt>
      <trkpt lat="48.42854" lon="-4.61826">
        <ele>95.038142</ele>
        <time>2023-04-30T13:55:00.168Z</time>
      </trkpt>
      <trkpt lat="48.42845" lon="-4.61813">
        <ele>94.658966</ele>
        <time>2023-04-30T13:55:03.162Z</time>
      </trkpt>
      <trkpt lat="48.42837" lon="-4.618">
        <ele>94.20327</ele>
        <time>2023-04-30T13:55:06.177Z</time>
      </trkpt>
      <trkpt lat="48.42829" lon="-4.61788">
        <ele>93.765394</ele>
        <time>2023-04-30T13:55:09.168Z</time>
      </trkpt>
      <trkpt lat="48.42821" lon="-4.61775">
        <ele>93.318613</ele>
        <time>2023-04-30T13:55:12.168Z</time>
      </trkpt>
      <trkpt lat="48.42813" lon="-4.61762">
        <ele>92.860744</ele>
        <time>2023-04-30T13:55:15.168Z</time>
      </trkpt>
      <trkpt lat="48.42805" lon="-4.6175">
        <ele>92.432845</ele>
        <time>2023-04-30T13:55:18.174Z</time>
      </trkpt>
      <trkpt lat="48.42797" lon="-4.61737">
        <ele>91.989429</ele>
        <time>2023-04-30T13:55:21.174Z</time>
      </trkpt>
      <trkpt lat="48.42789" lon="-4.61724">
        <ele>91.543631</ele>
        <time>2023-04-30T13:55:24.168Z</time>
      </trkpt>
      <trkpt lat="48.4278" lon="-4.61712">
        <ele>91.085644</ele>
        <time>2023-04-30T13:55:27.177Z</time>
      </trkpt>
      <trkpt lat="48.4277" lon="-4.617">
        <ele>90.605562</ele>
        <time>2023-04-30T13:55:30.167Z</time>
      </trkpt>
      <trkpt lat="48.42761" lon="-4.61687">
        <ele>90.129977</ele>
        <time>2023-04-30T13:55:33.171Z</time>
      </trkpt>
      <trkpt lat="48.42754" lon="-4.61675">
        <ele>89.733415</ele>
        <time>2023-04-30T13:55:36.172Z</time>
      </trkpt>
      <trkpt lat="48.42747" lon="-4.61664">
        <ele>89.354381</ele>
        <time>2023-04-30T13:55:39.168Z</time>
      </trkpt>
      <trkpt lat="48.4274" lon="-4.61651">
        <ele>88.916437</ele>
        <time>2023-04-30T13:55:42.174Z</time>
      </trkpt>
      <trkpt lat="48.42731" lon="-4.61636">
        <ele>88.422638</ele>
        <time>2023-04-30T13:55:45.175Z</time>
      </trkpt>
      <trkpt lat="48.42724" lon="-4.61627">
        <ele>88.068152</ele>
        <time>2023-04-30T13:55:47.175Z</time>
      </trkpt>
      <trkpt lat="48.42715" lon="-4.61613">
        <ele>87.750507</ele>
        <time>2023-04-30T13:55:50.167Z</time>
      </trkpt>
      <trkpt lat="48.42705" lon="-4.61601">
        <ele>87.461261</ele>
        <time>2023-04-30T13:55:53.179Z</time>
      </trkpt>
      <trkpt lat="48.42696" lon="-4.61587">
        <ele>87.157063</ele>
        <time>2023-04-30T13:55:56.161Z</time>
      </trkpt>
      <trkpt lat="48.42689" lon="-4.61577">
        <ele>86.94649</ele>
        <time>2023-04-30T13:55:58.171Z</time>
      </trkpt>
      <trkpt lat="48.42679" lon="-4.61565">
        <ele>86.64064</ele>
        <time>2023-04-30T13:56:01.174Z</time>
      </trkpt>
      <trkpt lat="48.42669" lon="-4.61554">
        <ele>86.361595</ele>
        <time>2023-04-30T13:56:04.171Z</time>
      </trkpt>
      <trkpt lat="48.42661" lon="-4.61544">
        <ele>86.107536</ele>
        <time>2023-04-30T13:56:07.176Z</time>
      </trkpt>
      <trkpt lat="48.42652" lon="-4.61539">
        <ele>85.893726</ele>
        <time>2023-04-30T13:56:10.165Z</time>
      </trkpt>
      <trkpt lat="48.42644" lon="-4.61529">
        <ele>85.647743</ele>
        <time>2023-04-30T13:56:14.177Z</time>
      </trkpt>
      <trkpt lat="48.4264" lon="-4.61515">
        <ele>85.421534</ele>
        <time>2023-04-30T13:56:17.174Z</time>
      </trkpt>
      <trkpt lat="48.42634" lon="-4.61502">
        <ele>85.179338</ele>
        <time>2023-04-30T13:56:20.171Z</time>
      </trkpt>
      <trkpt lat="48.42627" lon="-4.61491">
        <ele>84.944014</ele>
        <time>2023-04-30T13:56:23.171Z</time>
      </trkpt>
      <trkpt lat="48.42621" lon="-4.61479">
        <ele>84.719811</ele>
        <time>2023-04-30T13:56:26.170Z</time>
      </trkpt>
      <trkpt lat="48.42617" lon="-4.61467">
        <ele>84.510876</ele>
        <time>2023-04-30T13:56:29.170Z</time>
      </trkpt>
      <trkpt lat="48.42612" lon="-4.61452">
        <ele>84.25043</ele>
        <time>2023-04-30T13:56:33.170Z</time>
      </trkpt>
      <trkpt lat="48.42607" lon="-4.61437">
        <ele>83.986205</ele>
        <time>2023-04-30T13:56:37.180Z</time>
      </trkpt>
      <trkpt lat="48.42599" lon="-4.61427">
        <ele>83.923855</ele>
        <time>2023-04-30T13:56:40.178Z</time>
      </trkpt>
      <trkpt lat="48.42595" lon="-4.61414">
        <ele>84.002941</ele>
        <time>2023-04-30T13:56:43.170Z</time>
      </trkpt>
      <trkpt lat="48.42595" lon="-4.61399">
        <ele>84.083094</ele>
        <time>2023-04-30T13:56:46.177Z</time>
      </trkpt>
      <trkpt lat="48.42596" lon="-4.61384">
        <ele>84.16732</ele>
        <time>2023-04-30T13:56:49.167Z</time>
      </trkpt>
      <trkpt lat="48.42595" lon="-4.61369">
        <ele>84.249719</ele>
        <time>2023-04-30T13:56:52.176Z</time>
      </trkpt>
      <trkpt lat="48.42595" lon="-4.61355">
        <ele>84.32587</ele>
        <time>2023-04-30T13:56:55.173Z</time>
      </trkpt>
      <trkpt lat="48.42594" lon="-4.6134">
        <ele>84.407696</ele>
        <time>2023-04-30T13:56:58.171Z</time>
      </trkpt>
      <trkpt lat="48.42596" lon="-4.61325">
        <ele>84.488557</ele>
        <time>2023-04-30T13:57:01.174Z</time>
      </trkpt>
      <trkpt lat="48.42597" lon="-4.61312">
        <ele>84.563103</ele>
        <time>2023-04-30T13:57:04.169Z</time>
      </trkpt>
      <trkpt lat="48.42598" lon="-4.61297">
        <ele>84.64251</ele>
        <time>2023-04-30T13:57:07.170Z</time>
      </trkpt>
      <trkpt lat="48.42599" lon="-4.61282">
        <ele>84.725536</ele>
        <time>2023-04-30T13:57:10.168Z</time>
      </trkpt>
      <trkpt lat="48.42599" lon="-4.61267">
        <ele>84.81015</ele>
        <time>2023-04-30T13:57:13.170Z</time>
      </trkpt>
      <trkpt lat="48.426" lon="-4.61251">
        <ele>84.893611</ele>
        <time>2023-04-30T13:57:16.179Z</time>
      </trkpt>
      <trkpt lat="48.426" lon="-4.61236">
        <ele>84.975119</ele>
        <time>2023-04-30T13:57:19.180Z</time>
      </trkpt>
      <trkpt lat="48.42601" lon="-4.61221">
        <ele>85.059734</ele>
        <time>2023-04-30T13:57:22.178Z</time>
      </trkpt>
      <trkpt lat="48.42601" lon="-4.61206">
        <ele>85.140469</ele>
        <time>2023-04-30T13:57:25.179Z</time>
      </trkpt>
      <trkpt lat="48.42602" lon="-4.61191">
        <ele>85.222522</ele>
        <time>2023-04-30T13:57:28.168Z</time>
      </trkpt>
      <trkpt lat="48.42602" lon="-4.61176">
        <ele>85.302678</ele>
        <time>2023-04-30T13:57:31.154Z</time>
      </trkpt>
      <trkpt lat="48.42603" lon="-4.61163">
        <ele>85.324199</ele>
        <time>2023-04-30T13:57:34.171Z</time>
      </trkpt>
      <trkpt lat="48.42604" lon="-4.61145">
        <ele>85.145001</ele>
        <time>2023-04-30T13:57:38.176Z</time>
      </trkpt>
      <trkpt lat="48.42605" lon="-4.61132">
        <ele>85.005392</ele>
        <time>2023-04-30T13:57:41.179Z</time>
      </trkpt>
      <trkpt lat="48.42606" lon="-4.61118">
        <ele>84.861097</ele>
        <time>2023-04-30T13:57:44.175Z</time>
      </trkpt>
      <trkpt lat="48.42607" lon="-4.61102">
        <ele>84.702303</ele>
        <time>2023-04-30T13:57:47.180Z</time>
      </trkpt>
      <trkpt lat="48.42607" lon="-4.61085">
        <ele>84.53135</ele>
        <time>2023-04-30T13:57:50.165Z</time>
      </trkpt>
      <trkpt lat="48.42603" lon="-4.61069">
        <ele>84.354123</ele>
        <time>2023-04-30T13:57:53.170Z</time>
      </trkpt>
      <trkpt lat="48.42603" lon="-4.6105">
        <ele>84.162812</ele>
        <time>2023-04-30T13:57:56.176Z</time>
      </trkpt>
      <trkpt lat="48.42604" lon="-4.61036">
        <ele>84.023575</ele>
        <time>2023-04-30T13:57:58.185Z</time>
      </trkpt>
      <trkpt lat="48.42606" lon="-4.61022">
        <ele>83.874883</ele>
        <time>2023-04-30T13:58:00.171Z</time>
      </trkpt>
      <trkpt lat="48.42607" lon="-4.61006">
        <ele>83.7112</ele>
        <time>2023-04-30T13:58:02.178Z</time>
      </trkpt>
      <trkpt lat="48.42606" lon="-4.6099">
        <ele>83.54508</ele>
        <time>2023-04-30T13:58:04.181Z</time>
      </trkpt>
      <trkpt lat="48.42606" lon="-4.60973">
        <ele>83.371983</ele>
        <time>2023-04-30T13:58:06.181Z</time>
      </trkpt>
      <trkpt lat="48.42605" lon="-4.60955">
        <ele>83.195776</ele>
        <time>2023-04-30T13:58:08.164Z</time>
      </trkpt>
      <trkpt lat="48.42605" lon="-4.60939">
        <ele>83.028886</ele>
        <time>2023-04-30T13:58:10.170Z</time>
      </trkpt>
      <trkpt lat="48.42605" lon="-4.60922">
        <ele>82.858944</ele>
        <time>2023-04-30T13:58:12.173Z</time>
      </trkpt>
      <trkpt lat="48.42605" lon="-4.60906">
        <ele>82.69505</ele>
        <time>2023-04-30T13:58:14.191Z</time>
      </trkpt>
      <trkpt lat="48.42605" lon="-4.60891">
        <ele>82.60052</ele>
        <time>2023-04-30T13:58:16.171Z</time>
      </trkpt>
      <trkpt lat="48.42604" lon="-4.60876">
        <ele>82.600102</ele>
        <time>2023-04-30T13:58:18.176Z</time>
      </trkpt>
      <trkpt lat="48.42605" lon="-4.6086">
        <ele>82.599644</ele>
        <time>2023-04-30T13:58:20.166Z</time>
      </trkpt>
      <trkpt lat="48.42604" lon="-4.60846">
        <ele>82.599248</ele>
        <time>2023-04-30T13:58:22.171Z</time>
      </trkpt>
      <trkpt lat="48.42603" lon="-4.60832">
        <ele>82.598853</ele>
        <time>2023-04-30T13:58:24.172Z</time>
      </trkpt>
      <trkpt lat="48.42602" lon="-4.60812">
        <ele>82.598278</ele>
        <time>2023-04-30T13:58:27.168Z</time>
      </trkpt>
      <trkpt lat="48.42601" lon="-4.60793">
        <ele>82.597738</ele>
        <time>2023-04-30T13:58:30.165Z</time>
      </trkpt>
      <trkpt lat="48.42601" lon="-4.60775">
        <ele>82.5972</ele>
        <time>2023-04-30T13:58:33.172Z</time>
      </trkpt>
      <trkpt lat="48.42599" lon="-4.60758">
        <ele>82.596707</ele>
        <time>2023-04-30T13:58:36.181Z</time>
      </trkpt>
      <trkpt lat="48.42597" lon="-4.60743">
        <ele>82.596286</ele>
        <time>2023-04-30T13:58:39.178Z</time>
      </trkpt>
      <trkpt lat="48.42593" lon="-4.6073">
        <ele>82.595876</ele>
        <time>2023-04-30T13:58:42.177Z</time>
      </trkpt>
      <trkpt lat="48.42589" lon="-4.60718">
        <ele>82.595479</ele>
        <time>2023-04-30T13:58:45.178Z</time>
      </trkpt>
      <trkpt lat="48.42583" lon="-4.60708">
        <ele>82.595088</ele>
        <time>2023-04-30T13:58:48.166Z</time>
      </trkpt>
      <trkpt lat="48.42574" lon="-4.60702">
        <ele>82.594685</ele>
        <time>2023-04-30T13:58:51.166Z</time>
      </trkpt>
      <trkpt lat="48.42565" lon="-4.60703">
        <ele>82.594288</ele>
        <time>2023-04-30T13:58:54.174Z</time>
      </trkpt>
      <trkpt lat="48.42556" lon="-4.60704">
        <ele>82.593896</ele>
        <time>2023-04-30T13:58:57.172Z</time>
      </trkpt>
      <trkpt lat="48.42546" lon="-4.60701">
        <ele>82.593494</ele>
        <time>2023-04-30T13:59:00.164Z</time>
      </trkpt>
      <trkpt lat="48.42539" lon="-4.60694">
        <ele>82.593101</ele>
        <time>2023-04-30T13:59:03.172Z</time>
      </trkpt>
      <trkpt lat="48.42532" lon="-4.6068">
        <ele>82.618945</ele>
        <time>2023-04-30T13:59:07.162Z</time>
      </trkpt>
      <trkpt lat="48.4253" lon="-4.60663">
        <ele>82.657342</ele>
        <time>2023-04-30T13:59:11.178Z</time>
      </trkpt>
      <trkpt lat="48.42531" lon="-4.60646">
        <ele>82.694497</ele>
        <time>2023-04-30T13:59:15.173Z</time>
      </trkpt>
      <trkpt lat="48.42528" lon="-4.60632">
        <ele>82.726806</ele>
        <time>2023-04-30T13:59:19.168Z</time>
      </trkpt>
      <trkpt lat="48.42528" lon="-4.60616">
        <ele>82.762242</ele>
        <time>2023-04-30T13:59:24.177Z</time>
      </trkpt>
      <trkpt lat="48.42534" lon="-4.60603">
        <ele>82.79782</ele>
        <time>2023-04-30T13:59:29.161Z</time>
      </trkpt>
      <trkpt lat="48.4254" lon="-4.60592">
        <ele>82.828919</ele>
        <time>2023-04-30T13:59:34.175Z</time>
      </trkpt>
      <trkpt lat="48.42549" lon="-4.6058">
        <ele>82.867842</ele>
        <time>2023-04-30T13:59:39.173Z</time>
      </trkpt>
      <trkpt lat="48.42557" lon="-4.60571">
        <ele>82.899832</ele>
        <time>2023-04-30T13:59:42.168Z</time>
      </trkpt>
      <trkpt lat="48.42563" lon="-4.6056">
        <ele>82.932635</ele>
        <time>2023-04-30T13:59:45.174Z</time>
      </trkpt>
      <trkpt lat="48.42567" lon="-4.60547">
        <ele>82.962885</ele>
        <time>2023-04-30T13:59:48.162Z</time>
      </trkpt>
      <trkpt lat="48.42571" lon="-4.60533">
        <ele>82.996788</ele>
        <time>2023-04-30T13:59:51.174Z</time>
      </trkpt>
      <trkpt lat="48.42576" lon="-4.60517">
        <ele>83.034896</ele>
        <time>2023-04-30T13:59:54.176Z</time>
      </trkpt>
      <trkpt lat="48.4258" lon="-4.60502">
        <ele>83.070885</ele>
        <time>2023-04-30T13:59:57.177Z</time>
      </trkpt>
      <trkpt lat="48.42584" lon="-4.60487">
        <ele>83.106057</ele>
        <time>2023-04-30T14:00:00.170Z</time>
      </trkpt>
      <trkpt lat="48.42588" lon="-4.60473">
        <ele>83.140618</ele>
        <time>2023-04-30T14:00:03.178Z</time>
      </trkpt>
      <trkpt lat="48.42592" lon="-4.60458">
        <ele>83.176512</ele>
        <time>2023-04-30T14:00:06.177Z</time>
      </trkpt>
      <trkpt lat="48.42596" lon="-4.60443">
        <ele>83.178923</ele>
        <time>2023-04-30T14:00:09.164Z</time>
      </trkpt>
      <trkpt lat="48.42601" lon="-4.6043">
        <ele>83.163283</ele>
        <time>2023-04-30T14:00:12.184Z</time>
      </trkpt>
      <trkpt lat="48.42605" lon="-4.60416">
        <ele>83.147412</ele>
        <time>2023-04-30T14:00:15.176Z</time>
      </trkpt>
      <trkpt lat="48.42609" lon="-4.60402">
        <ele>83.131187</ele>
        <time>2023-04-30T14:00:18.183Z</time>
      </trkpt>
      <trkpt lat="48.42613" lon="-4.60387">
        <ele>83.114458</ele>
        <time>2023-04-30T14:00:21.174Z</time>
      </trkpt>
      <trkpt lat="48.42617" lon="-4.60373">
        <ele>83.0991</ele>
        <time>2023-04-30T14:00:24.176Z</time>
      </trkpt>
      <trkpt lat="48.42624" lon="-4.60362">
        <ele>83.082465</ele>
        <time>2023-04-30T14:00:28.163Z</time>
      </trkpt>
      <trkpt lat="48.42632" lon="-4.60354">
        <ele>83.067789</ele>
        <time>2023-04-30T14:00:33.179Z</time>
      </trkpt>
      <trkpt lat="48.42639" lon="-4.6034">
        <ele>83.050015</ele>
        <time>2023-04-30T14:00:38.172Z</time>
      </trkpt>
      <trkpt lat="48.42643" lon="-4.60327">
        <ele>83.03472</ele>
        <time>2023-04-30T14:00:42.170Z</time>
      </trkpt>
      <trkpt lat="48.42642" lon="-4.60309">
        <ele>83.015514</ele>
        <time>2023-04-30T14:00:46.175Z</time>
      </trkpt>
      <trkpt lat="48.42637" lon="-4.60293">
        <ele>82.99724</ele>
        <time>2023-04-30T14:00:49.166Z</time>
      </trkpt>
      <trkpt lat="48.42634" lon="-4.60278">
        <ele>82.980477</ele>
        <time>2023-04-30T14:00:52.162Z</time>
      </trkpt>
      <trkpt lat="48.42632" lon="-4.60262">
        <ele>82.964083</ele>
        <time>2023-04-30T14:00:55.170Z</time>
      </trkpt>
      <trkpt lat="48.42629" lon="-4.60248">
        <ele>82.947993</ele>
        <time>2023-04-30T14:00:58.170Z</time>
      </trkpt>
      <trkpt lat="48.42626" lon="-4.60232">
        <ele>82.930693</ele>
        <time>2023-04-30T14:01:02.173Z</time>
      </trkpt>
      <trkpt lat="48.42623" lon="-4.60215">
        <ele>82.913108</ele>
        <time>2023-04-30T14:01:06.164Z</time>
      </trkpt>
      <trkpt lat="48.4262" lon="-4.60199">
        <ele>82.886735</ele>
        <time>2023-04-30T14:01:10.174Z</time>
      </trkpt>
      <trkpt lat="48.42618" lon="-4.60183">
        <ele>82.855459</ele>
        <time>2023-04-30T14:01:14.165Z</time>
      </trkpt>
      <trkpt lat="48.42615" lon="-4.60166">
        <ele>82.823049</ele>
        <time>2023-04-30T14:01:18.173Z</time>
      </trkpt>
      <trkpt lat="48.42611" lon="-4.60153">
        <ele>82.796831</ele>
        <time>2023-04-30T14:01:21.156Z</time>
      </trkpt>
      <trkpt lat="48.42608" lon="-4.60135">
        <ele>82.762516</ele>
        <time>2023-04-30T14:01:25.175Z</time>
      </trkpt>
      <trkpt lat="48.42605" lon="-4.6012">
        <ele>82.733493</ele>
        <time>2023-04-30T14:01:29.172Z</time>
      </trkpt>
      <trkpt lat="48.42602" lon="-4.60105">
        <ele>82.704275</ele>
        <time>2023-04-30T14:01:33.168Z</time>
      </trkpt>
      <trkpt lat="48.426" lon="-4.6009">
        <ele>82.67644</ele>
        <time>2023-04-30T14:01:37.168Z</time>
      </trkpt>
      <trkpt lat="48.42597" lon="-4.60075">
        <ele>82.647552</ele>
        <time>2023-04-30T14:01:41.167Z</time>
      </trkpt>
      <trkpt lat="48.42594" lon="-4.60059">
        <ele>82.616502</ele>
        <time>2023-04-30T14:01:45.173Z</time>
      </trkpt>
      <trkpt lat="48.4259" lon="-4.60043">
        <ele>82.585165</ele>
        <time>2023-04-30T14:01:49.166Z</time>
      </trkpt>
      <trkpt lat="48.42588" lon="-4.60027">
        <ele>82.55485</ele>
        <time>2023-04-30T14:01:54.170Z</time>
      </trkpt>
      <trkpt lat="48.42585" lon="-4.60013">
        <ele>82.527859</ele>
        <time>2023-04-30T14:01:59.171Z</time>
      </trkpt>
      <trkpt lat="48.42582" lon="-4.59998">
        <ele>82.497414</ele>
        <time>2023-04-30T14:02:04.175Z</time>
      </trkpt>
      <trkpt lat="48.42228" lon="-4.58544">
        <ele>99.986355</ele>
        <time>2023-04-30T14:10:18.215Z</time>
      </trkpt>
      <trkpt lat="48.42231" lon="-4.5853">
        <ele>100.516309</ele>
        <time>2023-04-30T14:10:24.171Z</time>
      </trkpt>
      <trkpt lat="48.42233" lon="-4.58515">
        <ele>101.035447</ele>
        <time>2023-04-30T14:10:29.173Z</time>
      </trkpt>
      <trkpt lat="48.42235" lon="-4.585">
        <ele>101.574829</ele>
        <time>2023-04-30T14:10:34.171Z</time>
      </trkpt>
      <trkpt lat="48.4224" lon="-4.58485">
        <ele>102.151064</ele>
        <time>2023-04-30T14:10:39.174Z</time>
      </trkpt>
      <trkpt lat="48.42242" lon="-4.58471">
        <ele>102.646239</ele>
        <time>2023-04-30T14:10:44.175Z</time>
      </trkpt>
      <trkpt lat="48.42245" lon="-4.58457">
        <ele>103.155321</ele>
        <time>2023-04-30T14:10:49.166Z</time>
      </trkpt>
      <trkpt lat="48.42248" lon="-4.58443">
        <ele>103.657195</ele>
        <time>2023-04-30T14:10:54.179Z</time>
      </trkpt>
      <trkpt lat="48.42251" lon="-4.58429">
        <ele>104.163746</ele>
        <time>2023-04-30T14:11:00.152Z</time>
      </trkpt>
      <trkpt lat="48.42255" lon="-4.58417">
        <ele>104.517196</ele>
        <time>2023-04-30T14:11:05.167Z</time>
      </trkpt>
      <trkpt lat="48.42259" lon="-4.58404">
        <ele>104.657858</ele>
        <time>2023-04-30T14:11:10.162Z</time>
      </trkpt>
      <trkpt lat="48.42265" lon="-4.5839">
        <ele>104.814505</ele>
        <time>2023-04-30T14:11:16.169Z</time>
      </trkpt>
      <trkpt lat="48.4227" lon="-4.58379">
        <ele>104.952942</ele>
        <time>2023-04-30T14:11:21.172Z</time>
      </trkpt>
      <trkpt lat="48.42275" lon="-4.58367">
        <ele>105.101383</ele>
        <time>2023-04-30T14:11:27.157Z</time>
      </trkpt>
      <trkpt lat="48.42428" lon="-4.57487">
        <ele>115.754228</ele>
        <time>2023-04-30T14:18:42.148Z</time>
      </trkpt>
      <trkpt lat="48.42426" lon="-4.57474">
        <ele>116.024936</ele>
        <time>2023-04-30T14:18:46.165Z</time>
      </trkpt>
      <trkpt lat="48.42426" lon="-4.5746">
        <ele>116.293155</ele>
        <time>2023-04-30T14:18:50.151Z</time>
      </trkpt>
      <trkpt lat="48.42428" lon="-4.57443">
        <ele>116.630291</ele>
        <time>2023-04-30T14:18:55.169Z</time>
      </trkpt>
      <trkpt lat="48.42431" lon="-4.57428">
        <ele>116.959733</ele>
        <time>2023-04-30T14:19:00.163Z</time>
      </trkpt>
      <trkpt lat="48.42436" lon="-4.57415">
        <ele>117.2431</ele>
        <time>2023-04-30T14:19:04.173Z</time>
      </trkpt>
      <trkpt lat="48.42439" lon="-4.57402">
        <ele>117.514244</ele>
        <time>2023-04-30T14:19:08.165Z</time>
      </trkpt>
      <trkpt lat="48.42441" lon="-4.57387">
        <ele>117.828966</ele>
        <time>2023-04-30T14:19:13.161Z</time>
      </trkpt>
      <trkpt lat="48.42442" lon="-4.57373">
        <ele>118.124739</ele>
        <time>2023-04-30T14:19:17.167Z</time>
      </trkpt>
      <trkpt lat="48.42446" lon="-4.57357">
        <ele>118.509026</ele>
        <time>2023-04-30T14:19:22.169Z</time>
      </trkpt>
      <trkpt lat="48.42448" lon="-4.57342">
        <ele>118.865809</ele>
        <time>2023-04-30T14:19:27.172Z</time>
      </trkpt>
      <trkpt lat="48.4245" lon="-4.57328">
        <ele>119.202345</ele>
        <time>2023-04-30T14:19:32.167Z</time>
      </trkpt>
      <trkpt lat="48.42453" lon="-4.57312">
        <ele>119.580049</ele>
        <time>2023-04-30T14:19:37.171Z</time>
      </trkpt>
      <trkpt lat="48.42457" lon="-4.57297">
        <ele>119.95543</ele>
        <time>2023-04-30T14:19:42.162Z</time>
      </trkpt>
      <trkpt lat="48.42461" lon="-4.57283">
        <ele>120.29725</ele>
        <time>2023-04-30T14:19:47.166Z</time>
      </trkpt>
      <trkpt lat="48.42464" lon="-4.57268">
        <ele>120.647435</ele>
        <time>2023-04-30T14:19:52.162Z</time>
      </trkpt>
      <trkpt lat="48.42464" lon="-4.57255">
        <ele>120.96683</ele>
        <time>2023-04-30T14:19:56.163Z</time>
      </trkpt>
      <trkpt lat="48.42465" lon="-4.57241">
        <ele>121.282082</ele>
        <time>2023-04-30T14:20:00.159Z</time>
      </trkpt>
      <trkpt lat="48.42469" lon="-4.57228">
        <ele>121.621507</ele>
        <time>2023-04-30T14:20:05.166Z</time>
      </trkpt>
      <trkpt lat="48.42474" lon="-4.57215">
        <ele>121.959066</ele>
        <time>2023-04-30T14:20:10.166Z</time>
      </trkpt>
      <trkpt lat="48.42479" lon="-4.57203">
        <ele>122.277094</ele>
        <time>2023-04-30T14:20:15.156Z</time>
      </trkpt>
      <trkpt lat="48.42482" lon="-4.5719">
        <ele>122.601586</ele>
        <time>2023-04-30T14:20:20.163Z</time>
      </trkpt>
      <trkpt lat="48.42487" lon="-4.57176">
        <ele>122.954386</ele>
        <time>2023-04-30T14:20:25.161Z</time>
      </trkpt>
      <trkpt lat="48.42491" lon="-4.57164">
        <ele>123.280974</ele>
        <time>2023-04-30T14:20:30.170Z</time>
      </trkpt>
      <trkpt lat="48.42496" lon="-4.5715">
        <ele>123.630167</ele>
        <time>2023-04-30T14:20:35.172Z</time>
      </trkpt>
      <trkpt lat="48.425" lon="-4.57137">
        <ele>123.952622</ele>
        <time>2023-04-30T14:20:39.168Z</time>
      </trkpt>
      <trkpt lat="48.42506" lon="-4.57125">
        <ele>124.276007</ele>
        <time>2023-04-30T14:20:43.166Z</time>
      </trkpt>
      <trkpt lat="48.42511" lon="-4.57113">
        <ele>124.548625</ele>
        <time>2023-04-30T14:20:47.156Z</time>
      </trkpt>
      <trkpt lat="48.42519" lon="-4.57101">
        <ele>124.843169</ele>
        <time>2023-04-30T14:20:52.167Z</time>
      </trkpt>
      <trkpt lat="48.42524" lon="-4.5709">
        <ele>125.092555</ele>
        <time>2023-04-30T14:20:58.163Z</time>
      </trkpt>
      <trkpt lat="48.42529" lon="-4.57075">
        <ele>125.395628</ele>
        <time>2023-04-30T14:21:02.170Z</time>
      </trkpt>
      <trkpt lat="48.42527" lon="-4.57058">
        <ele>125.700504</ele>
        <time>2023-04-30T14:21:07.161Z</time>
      </trkpt>
      <trkpt lat="48.42522" lon="-4.57045">
        <ele>125.981772</ele>
        <time>2023-04-30T14:21:11.167Z</time>
      </trkpt>
      <trkpt lat="48.42521" lon="-4.57031">
        <ele>126.229233</ele>
        <time>2023-04-30T14:21:15.163Z</time>
      </trkpt>
      <trkpt lat="48.42524" lon="-4.57017">
        <ele>126.497551</ele>
        <time>2023-04-30T14:21:20.166Z</time>
      </trkpt>
      <trkpt lat="48.42527" lon="-4.57004">
        <ele>126.75631</ele>
        <time>2023-04-30T14:21:25.164Z</time>
      </trkpt>
      <trkpt lat="48.42526" lon="-4.5699">
        <ele>127.012235</ele>
        <time>2023-04-30T14:21:30.171Z</time>
      </trkpt>
      <trkpt lat="48.42523" lon="-4.56975">
        <ele>127.296045</ele>
        <time>2023-04-30T14:21:35.180Z</time>
      </trkpt>
      <trkpt lat="48.4252" lon="-4.5696">
        <ele>127.574779</ele>
        <time>2023-04-30T14:21:40.173Z</time>
      </trkpt>
      <trkpt lat="48.42517" lon="-4.56946">
        <ele>127.853513</ele>
        <time>2023-04-30T14:21:45.167Z</time>
      </trkpt>
      <trkpt lat="48.42522" lon="-4.56001">
        <ele>137.573466</ele>
        <time>2023-04-30T14:26:30.170Z</time>
      </trkpt>
      <trkpt lat="48.42521" lon="-4.55987">
        <ele>137.788184</ele>
        <time>2023-04-30T14:27:06.168Z</time>
      </trkpt>
      <trkpt lat="48.42518" lon="-4.55971">
        <ele>138.038675</ele>
        <time>2023-04-30T14:27:11.166Z</time>
      </trkpt>
      <trkpt lat="48.42517" lon="-4.55954">
        <ele>138.285428</ele>
        <time>2023-04-30T14:27:16.171Z</time>
      </trkpt>
      <trkpt lat="48.42516" lon="-4.5594">
        <ele>138.504759</ele>
        <time>2023-04-30T14:27:20.163Z</time>
      </trkpt>
      <trkpt lat="48.42516" lon="-4.55925">
        <ele>138.726719</ele>
        <time>2023-04-30T14:27:24.169Z</time>
      </trkpt>
      <trkpt lat="48.42513" lon="-4.5591">
        <ele>138.954383</ele>
        <time>2023-04-30T14:27:28.168Z</time>
      </trkpt>
      <trkpt lat="48.42508" lon="-4.55896">
        <ele>139.20079</ele>
        <time>2023-04-30T14:27:32.172Z</time>
      </trkpt>
      <trkpt lat="48.425" lon="-4.55884">
        <ele>139.461417</ele>
        <time>2023-04-30T14:27:36.178Z</time>
      </trkpt>
      <trkpt lat="48.42492" lon="-4.55875">
        <ele>139.677236</ele>
        <time>2023-04-30T14:27:40.170Z</time>
      </trkpt>
      <trkpt lat="48.42485" lon="-4.55866">
        <ele>139.884128</ele>
        <time>2023-04-30T14:27:44.169Z</time>
      </trkpt>
      <trkpt lat="48.42476" lon="-4.55857">
        <ele>140.145864</ele>
        <time>2023-04-30T14:27:48.169Z</time>
      </trkpt>
      <trkpt lat="48.42467" lon="-4.55849">
        <ele>140.369471</ele>
        <time>2023-04-30T14:27:51.173Z</time>
      </trkpt>
      <trkpt lat="48.4246" lon="-4.55841">
        <ele>140.576739</ele>
        <time>2023-04-30T14:27:54.171Z</time>
      </trkpt>
      <trkpt lat="48.42451" lon="-4.55831">
        <ele>140.610995</ele>
        <time>2023-04-30T14:27:58.175Z</time>
      </trkpt>
      <trkpt lat="48.42443" lon="-4.55818">
        <ele>140.440212</ele>
        <time>2023-04-30T14:28:02.174Z</time>
      </trkpt>
      <trkpt lat="48.42437" lon="-4.55807">
        <ele>140.308129</ele>
        <time>2023-04-30T14:28:05.172Z</time>
      </trkpt>
      <trkpt lat="48.42431" lon="-4.55793">
        <ele>140.144589</ele>
        <time>2023-04-30T14:28:09.166Z</time>
      </trkpt>
      <trkpt lat="48.42047" lon="-4.55353">
        <ele>134.059605</ele>
        <time>2023-04-30T14:30:42.160Z</time>
      </trkpt>
      <trkpt lat="48.42042" lon="-4.55341">
        <ele>133.980045</ele>
        <time>2023-04-30T14:30:46.161Z</time>
      </trkpt>
      <trkpt lat="48.42035" lon="-4.5533">
        <ele>133.905269</ele>
        <time>2023-04-30T14:30:50.170Z</time>
      </trkpt>
      <trkpt lat="48.42028" lon="-4.5532">
        <ele>134.009465</ele>
        <time>2023-04-30T14:30:54.184Z</time>
      </trkpt>
      <trkpt lat="48.42022" lon="-4.55309">
        <ele>134.107544</ele>
        <time>2023-04-30T14:30:58.172Z</time>
      </trkpt>
      <trkpt lat="48.42016" lon="-4.55298">
        <ele>134.208451</ele>
        <time>2023-04-30T14:31:02.169Z</time>
      </trkpt>
      <trkpt lat="48.42011" lon="-4.55287">
        <ele>134.305677</ele>
        <time>2023-04-30T14:31:06.163Z</time>
      </trkpt>
      <trkpt lat="48.42005" lon="-4.55273">
        <ele>134.42484</ele>
        <time>2023-04-30T14:31:11.158Z</time>
      </trkpt>
      <trkpt lat="48.42" lon="-4.55261">
        <ele>134.527409</ele>
        <time>2023-04-30T14:31:15.165Z</time>
      </trkpt>
      <trkpt lat="48.41993" lon="-4.5525">
        <ele>134.633272</ele>
        <time>2023-04-30T14:31:19.169Z</time>
      </trkpt>
      <trkpt lat="48.41988" lon="-4.55239">
        <ele>134.729673</ele>
        <time>2023-04-30T14:31:23.159Z</time>
      </trkpt>
      <trkpt lat="48.41983" lon="-4.55227">
        <ele>134.827593</ele>
        <time>2023-04-30T14:31:27.167Z</time>
      </trkpt>
      <trkpt lat="48.41978" lon="-4.55214">
        <ele>134.932118</ele>
        <time>2023-04-30T14:31:31.164Z</time>
      </trkpt>
      <trkpt lat="48.41973" lon="-4.55202">
        <ele>135.035183</ele>
        <time>2023-04-30T14:31:35.170Z</time>
      </trkpt>
      <trkpt lat="48.41969" lon="-4.55189">
        <ele>135.14094</ele>
        <time>2023-04-30T14:31:39.168Z</time>
      </trkpt>
      <trkpt lat="48.41964" lon="-4.55176">
        <ele>135.245026</ele>
        <time>2023-04-30T14:31:43.164Z</time>
      </trkpt>
      <trkpt lat="48.41959" lon="-4.55161">
        <ele>135.367335</ele>
        <time>2023-04-30T14:31:48.172Z</time>
      </trkpt>
      <trkpt lat="48.41953" lon="-4.55148">
        <ele>135.47408</ele>
        <time>2023-04-30T14:31:52.150Z</time>
      </trkpt>
      <trkpt lat="48.41945" lon="-4.55137">
        <ele>135.592131</ele>
        <time>2023-04-30T14:31:56.171Z</time>
      </trkpt>
      <trkpt lat="48.4194" lon="-4.55123">
        <ele>135.703633</ele>
        <time>2023-04-30T14:32:00.167Z</time>
      </trkpt>
      <trkpt lat="48.41933" lon="-4.55109">
        <ele>135.823887</ele>
        <time>2023-04-30T14:32:04.170Z</time>
      </trkpt>
      <trkpt lat="48.41927" lon="-4.55096">
        <ele>135.539472</ele>
        <time>2023-04-30T14:32:08.169Z</time>
      </trkpt>
      <trkpt lat="48.41921" lon="-4.55082">
        <ele>135.245166</ele>
        <time>2023-04-30T14:32:13.173Z</time>
      </trkpt>
      <trkpt lat="48.41914" lon="-4.55068">
        <ele>134.960446</ele>
        <time>2023-04-30T14:32:17.174Z</time>
      </trkpt>
      <trkpt lat="48.41908" lon="-4.55056">
        <ele>134.697745</ele>
        <time>2023-04-30T14:32:21.177Z</time>
      </trkpt>
      <trkpt lat="48.41037" lon="-4.51337">
        <ele>71.256031</ele>
        <time>2023-04-30T15:55:13.167Z</time>
      </trkpt>
      <trkpt lat="48.41042" lon="-4.51323">
        <ele>71.316896</ele>
        <time>2023-04-30T15:55:19.165Z</time>
      </trkpt>
      <trkpt lat="48.41049" lon="-4.51314">
        <ele>71.367835</ele>
        <time>2023-04-30T15:55:23.167Z</time>
      </trkpt>
      <trkpt lat="48.41056" lon="-4.51304">
        <ele>71.418527</ele>
        <time>2023-04-30T15:55:27.163Z</time>
      </trkpt>
      <trkpt lat="48.41063" lon="-4.51292">
        <ele>71.701187</ele>
        <time>2023-04-30T15:55:31.173Z</time>
      </trkpt>
      <trkpt lat="48.41068" lon="-4.51278">
        <ele>72.660151</ele>
        <time>2023-04-30T15:55:35.172Z</time>
      </trkpt>
      <trkpt lat="48.41074" lon="-4.51266">
        <ele>73.59527</ele>
        <time>2023-04-30T15:55:39.163Z</time>
      </trkpt>
      <trkpt lat="48.41081" lon="-4.51252">
        <ele>74.622107</ele>
        <time>2023-04-30T15:55:43.167Z</time>
      </trkpt>
      <trkpt lat="48.41087" lon="-4.5124">
        <ele>75.487086</ele>
        <time>2023-04-30T15:55:47.161Z</time>
      </trkpt>
      <trkpt lat="48.41093" lon="-4.51229">
        <ele>76.334831</ele>
        <time>2023-04-30T15:55:51.182Z</time>
      </trkpt>
      <trkpt lat="48.41099" lon="-4.51217">
        <ele>77.257409</ele>
        <time>2023-04-30T15:55:55.169Z</time>
      </trkpt>
      <trkpt lat="48.41105" lon="-4.51206">
        <ele>78.093503</ele>
        <time>2023-04-30T15:55:59.176Z</time>
      </trkpt>
      <trkpt lat="48.41111" lon="-4.51194">
        <ele>78.971801</ele>
        <time>2023-04-30T15:56:03.150Z</time>
      </trkpt>
      <trkpt lat="48.41116" lon="-4.51183">
        <ele>79.78961</ele>
        <time>2023-04-30T15:56:07.159Z</time>
      </trkpt>
      <trkpt lat="48.41121" lon="-4.51171">
        <ele>80.661302</ele>
        <time>2023-04-30T15:56:12.171Z</time>
      </trkpt>
      <trkpt lat="48.41128" lon="-4.5116">
        <ele>81.53566</ele>
        <time>2023-04-30T15:56:17.154Z</time>
      </trkpt>
      <trkpt lat="48.41133" lon="-4.51148">
        <ele>82.412177</ele>
        <time>2023-04-30T15:56:23.156Z</time>
      </trkpt>
      <trkpt lat="48.41139" lon="-4.51136">
        <ele>83.259917</ele>
        <time>2023-04-30T15:56:28.162Z</time>
      </trkpt>
      <trkpt lat="48.41145" lon="-4.51126">
        <ele>84.092273</ele>
        <time>2023-04-30T15:56:33.167Z</time>
      </trkpt>
      <trkpt lat="48.41151" lon="-4.51116">
        <ele>84.901519</ele>
        <time>2023-04-30T15:56:38.175Z</time>
      </trkpt>
      <trkpt lat="48.41158" lon="-4.51106">
        <ele>85.79566</ele>
        <time>2023-04-30T15:56:43.163Z</time>
      </trkpt>
      <trkpt lat="48.41164" lon="-4.51095">
        <ele>86.608894</ele>
        <time>2023-04-30T15:56:47.156Z</time>
      </trkpt>
      <trkpt lat="48.41171" lon="-4.51082">
        <ele>87.602166</ele>
        <time>2023-04-30T15:56:52.156Z</time>
      </trkpt>
      <trkpt lat="48.41177" lon="-4.51069">
        <ele>88.012161</ele>
        <time>2023-04-30T15:56:57.168Z</time>
      </trkpt>
      <trkpt lat="48.41184" lon="-4.51058">
        <ele>88.352888</ele>
        <time>2023-04-30T15:57:02.162Z</time>
      </trkpt>
      <trkpt lat="48.4119" lon="-4.51046">
        <ele>88.691814</ele>
        <time>2023-04-30T15:57:07.160Z</time>
      </trkpt>
      <trkpt lat="48.41196" lon="-4.51035">
        <ele>89.026452</ele>
        <time>2023-04-30T15:57:12.160Z</time>
      </trkpt>
      <trkpt lat="48.41202" lon="-4.51024">
        <ele>89.358703</ele>
        <time>2023-04-30T15:57:17.168Z</time>
      </trkpt>
      <trkpt lat="48.41209" lon="-4.51011">
        <ele>89.731872</ele>
        <time>2023-04-30T15:57:22.173Z</time>
      </trkpt>
      <trkpt lat="48.41216" lon="-4.50999">
        <ele>90.111178</ele>
        <time>2023-04-30T15:57:27.163Z</time>
      </trkpt>
      <trkpt lat="48.41219" lon="-4.50986">
        <ele>90.432877</ele>
        <time>2023-04-30T15:57:32.176Z</time>
      </trkpt>
      <trkpt lat="48.41223" lon="-4.50971">
        <ele>90.804233</ele>
        <time>2023-04-30T15:57:38.155Z</time>
      </trkpt>
      <trkpt lat="48.41225" lon="-4.50957">
        <ele>91.134811</ele>
        <time>2023-04-30T15:57:43.161Z</time>
      </trkpt>
      <trkpt lat="48.41229" lon="-4.50945">
        <ele>91.457373</ele>
        <time>2023-04-30T15:57:48.162Z</time>
      </trkpt>
      <trkpt lat="48.41233" lon="-4.50931">
        <ele>91.791751</ele>
        <time>2023-04-30T15:57:53.171Z</time>
      </trkpt>
      <trkpt lat="48.41235" lon="-4.50917">
        <ele>92.109559</ele>
        <time>2023-04-30T15:57:58.172Z</time>
      </trkpt>
      <trkpt lat="48.41237" lon="-4.50904">
        <ele>92.42053</ele>
        <time>2023-04-30T15:58:03.175Z</time>
      </trkpt>
      <trkpt lat="48.41239" lon="-4.5089">
        <ele>92.748737</ele>
        <time>2023-04-30T15:58:10.163Z</time>
      </trkpt>
      <trkpt lat="48.41243" lon="-4.50877">
        <ele>93.077189</ele>
        <time>2023-04-30T15:58:16.165Z</time>
      </trkpt>
      <trkpt lat="48.41248" lon="-4.50866">
        <ele>93.398825</ele>
        <time>2023-04-30T15:58:22.163Z</time>
      </trkpt>
      <trkpt lat="48.41253" lon="-4.50854">
        <ele>93.733943</ele>
        <time>2023-04-30T15:58:28.157Z</time>
      </trkpt>
      <trkpt lat="48.41257" lon="-4.50839">
        <ele>93.996043</ele>
        <time>2023-04-30T15:58:34.164Z</time>
      </trkpt>
      <trkpt lat="48.41259" lon="-4.50825">
        <ele>94.159077</ele>
        <time>2023-04-30T15:58:40.166Z</time>
      </trkpt>
      <trkpt lat="48.41261" lon="-4.50811">
        <ele>94.328362</ele>
        <time>2023-04-30T15:58:46.171Z</time>
      </trkpt>
      <trkpt lat="48.41262" lon="-4.50797">
        <ele>94.487838</ele>
        <time>2023-04-30T15:58:51.159Z</time>
      </trkpt>
      <trkpt lat="48.41263" lon="-4.50783">
        <ele>94.650953</ele>
        <time>2023-04-30T15:58:56.171Z</time>
      </trkpt>
      <trkpt lat="48.41265" lon="-4.50769">
        <ele>94.808923</ele>
        <time>2023-04-30T15:59:01.175Z</time>
      </trkpt>
      <trkpt lat="48.41267" lon="-4.50754">
        <ele>94.987671</ele>
        <time>2023-04-30T15:59:07.159Z</time>
      </trkpt>
      <trkpt lat="48.41269" lon="-4.5074">
        <ele>95.157228</ele>
        <time>2023-04-30T15:59:12.170Z</time>
      </trkpt>
      <trkpt lat="48.41271" lon="-4.50726">
        <ele>95.318737</ele>
        <time>2023-04-30T15:59:18.159Z</time>
      </trkpt>
      <trkpt lat="48.41273" lon="-4.5071">
        <ele>95.500168</ele>
        <time>2023-04-30T15:59:24.158Z</time>
      </trkpt>
      <trkpt lat="48.41276" lon="-4.50697">
        <ele>95.657454</ele>
        <time>2023-04-30T15:59:29.160Z</time>
      </trkpt>
      <trkpt lat="48.41275" lon="-4.50682">
        <ele>95.834124</ele>
        <time>2023-04-30T15:59:35.159Z</time>
      </trkpt>
      <trkpt lat="48.41274" lon="-4.50667">
        <ele>95.999508</ele>
        <time>2023-04-30T15:59:40.170Z</time>
      </trkpt>
      <trkpt lat="48.41274" lon="-4.50653">
        <ele>96.167955</ele>
        <time>2023-04-30T15:59:45.184Z</time>
      </trkpt>
      <trkpt lat="48.41275" lon="-4.50637">
        <ele>96.348108</ele>
        <time>2023-04-30T15:59:50.167Z</time>
      </trkpt>
      <trkpt lat="48.41275" lon="-4.50622">
        <ele>96.522309</ele>
        <time>2023-04-30T15:59:55.161Z</time>
      </trkpt>
      <trkpt lat="48.41275" lon="-4.50606">
        <ele>96.704497</ele>
        <time>2023-04-30T16:00:00.162Z</time>
      </trkpt>
      <trkpt lat="48.41276" lon="-4.50591">
        <ele>96.875141</ele>
        <time>2023-04-30T16:00:05.180Z</time>
      </trkpt>
      <trkpt lat="48.41277" lon="-4.50576">
        <ele>97.058742</ele>
        <time>2023-04-30T16:00:10.168Z</time>
      </trkpt>
      <trkpt lat="48.41277" lon="-4.5056">
        <ele>97.257061</ele>
        <time>2023-04-30T16:00:15.170Z</time>
      </trkpt>
      <trkpt lat="48.41277" lon="-4.50545">
        <ele>97.456666</ele>
        <time>2023-04-30T16:00:20.173Z</time>
      </trkpt>
      <trkpt lat="48.41276" lon="-4.5053">
        <ele>97.648529</ele>
        <time>2023-04-30T16:00:25.171Z</time>
      </trkpt>
      <trkpt lat="48.41275" lon="-4.50515">
        <ele>97.850027</ele>
        <time>2023-04-30T16:00:30.171Z</time>
      </trkpt>
      <trkpt lat="48.41277" lon="-4.50498">
        <ele>98.065199</ele>
        <time>2023-04-30T16:00:35.172Z</time>
      </trkpt>
      <trkpt lat="48.41277" lon="-4.50482">
        <ele>98.275386</ele>
        <time>2023-04-30T16:00:40.172Z</time>
      </trkpt>
      <trkpt lat="48.41278" lon="-4.50467">
        <ele>98.468883</ele>
        <time>2023-04-30T16:00:45.169Z</time>
      </trkpt>
      <trkpt lat="48.4128" lon="-4.50451">
        <ele>98.679364</ele>
        <time>2023-04-30T16:00:51.164Z</time>
      </trkpt>
      <trkpt lat="48.41279" lon="-4.50436">
        <ele>98.862921</ele>
        <time>2023-04-30T16:00:56.172Z</time>
      </trkpt>
      <trkpt lat="48.41278" lon="-4.50423">
        <ele>99.040075</ele>
        <time>2023-04-30T16:01:01.166Z</time>
      </trkpt>
      <trkpt lat="48.41279" lon="-4.50406">
        <ele>99.25111</ele>
        <time>2023-04-30T16:01:07.161Z</time>
      </trkpt>
      <trkpt lat="48.41279" lon="-4.5039">
        <ele>99.457008</ele>
        <time>2023-04-30T16:01:13.160Z</time>
      </trkpt>
      <trkpt lat="48.41278" lon="-4.50375">
        <ele>99.658348</ele>
        <time>2023-04-30T16:01:19.185Z</time>
      </trkpt>
      <trkpt lat="48.41279" lon="-4.50361">
        <ele>99.835925</ele>
        <time>2023-04-30T16:01:24.167Z</time>
      </trkpt>
      <trkpt lat="48.41281" lon="-4.50347">
        <ele>100.021656</ele>
        <time>2023-04-30T16:01:30.163Z</time>
      </trkpt>
      <trkpt lat="48.41282" lon="-4.50331">
        <ele>100.228314</ele>
        <time>2023-04-30T16:01:36.161Z</time>
      </trkpt>
      <trkpt lat="48.41284" lon="-4.50316">
        <ele>100.423512</ele>
        <time>2023-04-30T16:01:41.168Z</time>
      </trkpt>
      <trkpt lat="48.41285" lon="-4.503">
        <ele>100.779271</ele>
        <time>2023-04-30T16:01:47.158Z</time>
      </trkpt>
      <trkpt lat="48.41284" lon="-4.50284">
        <ele>101.200436</ele>
        <time>2023-04-30T16:01:53.154Z</time>
      </trkpt>
      <trkpt lat="48.41285" lon="-4.50271">
        <ele>101.570488</ele>
        <time>2023-04-30T16:01:58.161Z</time>
      </trkpt>
      <trkpt lat="48.41283" lon="-4.50256">
        <ele>101.978873</ele>
        <time>2023-04-30T16:02:03.165Z</time>
      </trkpt>
      <trkpt lat="48.41285" lon="-4.50241">
        <ele>102.389934</ele>
        <time>2023-04-30T16:02:08.157Z</time>
      </trkpt>
      <trkpt lat="48.41286" lon="-4.50227">
        <ele>102.760874</ele>
        <time>2023-04-30T16:02:13.168Z</time>
      </trkpt>
      <trkpt lat="48.41287" lon="-4.50213">
        <ele>103.136917</ele>
        <time>2023-04-30T16:02:18.161Z</time>
      </trkpt>
      <trkpt lat="48.41286" lon="-4.50198">
        <ele>103.539678</ele>
        <time>2023-04-30T16:02:24.167Z</time>
      </trkpt>
      <trkpt lat="48.41286" lon="-4.50183">
        <ele>103.950205</ele>
        <time>2023-04-30T16:02:31.162Z</time>
      </trkpt>
      <trkpt lat="48.41283" lon="-4.5017">
        <ele>104.331434</ele>
        <time>2023-04-30T16:03:15.159Z</time>
      </trkpt>
      <trkpt lat="48.41283" lon="-4.50156">
        <ele>104.709581</ele>
        <time>2023-04-30T16:03:22.175Z</time>
      </trkpt>
      <trkpt lat="48.41288" lon="-4.50142">
        <ele>105.140711</ele>
        <time>2023-04-30T16:03:28.148Z</time>
      </trkpt>
      <trkpt lat="48.41291" lon="-4.50126">
        <ele>105.585499</ele>
        <time>2023-04-30T16:03:34.169Z</time>
      </trkpt>
      <trkpt lat="48.41292" lon="-4.50109">
        <ele>106.040859</ele>
        <time>2023-04-30T16:03:39.162Z</time>
      </trkpt>
      <trkpt lat="48.41293" lon="-4.50095">
        <ele>106.437727</ele>
        <time>2023-04-30T16:03:43.175Z</time>
      </trkpt>
      <trkpt lat="48.41293" lon="-4.50079">
        <ele>106.859362</ele>
        <time>2023-04-30T16:03:47.160Z</time>
      </trkpt>
      <trkpt lat="48.41294" lon="-4.50064">
        <ele>107.273687</ele>
        <time>2023-04-30T16:03:51.170Z</time>
      </trkpt>
      <trkpt lat="48.41295" lon="-4.50048">
        <ele>107.701179</ele>
        <time>2023-04-30T16:03:56.167Z</time>
      </trkpt>
      <trkpt lat="48.41295" lon="-4.50033">
        <ele>107.812296</ele>
        <time>2023-04-30T16:04:00.167Z</time>
      </trkpt>
      <trkpt lat="48.41294" lon="-4.50019">
        <ele>107.819578</ele>
        <time>2023-04-30T16:04:04.171Z</time>
      </trkpt>
      <trkpt lat="48.41294" lon="-4.50005">
        <ele>107.826569</ele>
        <time>2023-04-30T16:04:08.161Z</time>
      </trkpt>
      <trkpt lat="48.41295" lon="-4.49991">
        <ele>107.833678</ele>
        <time>2023-04-30T16:04:13.165Z</time>
      </trkpt>
      <trkpt lat="48.41296" lon="-4.49975">
        <ele>107.841792</ele>
        <time>2023-04-30T16:04:18.174Z</time>
      </trkpt>
      <trkpt lat="48.41297" lon="-4.49959">
        <ele>107.849912</ele>
        <time>2023-04-30T16:04:22.169Z</time>
      </trkpt>
      <trkpt lat="48.41297" lon="-4.49942">
        <ele>107.858521</ele>
        <time>2023-04-30T16:04:27.160Z</time>
      </trkpt>
      <trkpt lat="48.41297" lon="-4.49925">
        <ele>107.867121</ele>
        <time>2023-04-30T16:04:31.160Z</time>
      </trkpt>
      <trkpt lat="48.41298" lon="-4.49908">
        <ele>107.875487</ele>
        <time>2023-04-30T16:04:35.170Z</time>
      </trkpt>
      <trkpt lat="48.41297" lon="-4.49892">
        <ele>107.883446</ele>
        <time>2023-04-30T16:04:39.166Z</time>
      </trkpt>
      <trkpt lat="48.41299" lon="-4.49877">
        <ele>107.891099</ele>
        <time>2023-04-30T16:04:43.164Z</time>
      </trkpt>
      <trkpt lat="48.413" lon="-4.49861">
        <ele>107.899515</ele>
        <time>2023-04-30T16:04:48.163Z</time>
      </trkpt>
      <trkpt lat="48.413" lon="-4.49847">
        <ele>107.906471</ele>
        <time>2023-04-30T16:04:52.149Z</time>
      </trkpt>
      <trkpt lat="48.41301" lon="-4.49831">
        <ele>107.914469</ele>
        <time>2023-04-30T16:04:57.166Z</time>
      </trkpt>
      <trkpt lat="48.41302" lon="-4.49818">
        <ele>107.921353</ele>
        <time>2023-04-30T16:05:01.162Z</time>
      </trkpt>
      <trkpt lat="48.41303" lon="-4.49802">
        <ele>107.929116</ele>
        <time>2023-04-30T16:05:05.149Z</time>
      </trkpt>
      <trkpt lat="48.41304" lon="-4.49785">
        <ele>107.937688</ele>
        <time>2023-04-30T16:05:09.163Z</time>
      </trkpt>
      <trkpt lat="48.41304" lon="-4.49768">
        <ele>108.004408</ele>
        <time>2023-04-30T16:05:13.170Z</time>
      </trkpt>
      <trkpt lat="48.41304" lon="-4.49752">
        <ele>108.187821</ele>
        <time>2023-04-30T16:05:17.171Z</time>
      </trkpt>
      <trkpt lat="48.41304" lon="-4.49735">
        <ele>108.37899</ele>
        <time>2023-04-30T16:05:21.167Z</time>
      </trkpt>
      <trkpt lat="48.41304" lon="-4.49719">
        <ele>108.549137</ele>
        <time>2023-04-30T16:05:25.175Z</time>
      </trkpt>
      <trkpt lat="48.41304" lon="-4.49704">
        <ele>108.71818</ele>
        <time>2023-04-30T16:05:29.164Z</time>
      </trkpt>
      <trkpt lat="48.41304" lon="-4.49688">
        <ele>108.897174</ele>
        <time>2023-04-30T16:05:33.165Z</time>
      </trkpt>
      <trkpt lat="48.41304" lon="-4.49673">
        <ele>109.062902</ele>
        <time>2023-04-30T16:05:37.166Z</time>
      </trkpt>
      <trkpt lat="48.41304" lon="-4.49657">
        <ele>109.238644</ele>
        <time>2023-04-30T16:05:41.167Z</time>
      </trkpt>
      <trkpt lat="48.41306" lon="-4.49642">
        <ele>109.404885</ele>
        <time>2023-04-30T16:05:45.170Z</time>
      </trkpt>
      <trkpt lat="48.41307" lon="-4.49625">
        <ele>109.588669</ele>
        <time>2023-04-30T16:05:50.167Z</time>
      </trkpt>
      <trkpt lat="48.41646" lon="-4.46258">
        <ele>123.946455</ele>
        <time>2023-04-30T16:25:27.224Z</time>
      </trkpt>
      <trkpt lat="48.41646" lon="-4.46243">
        <ele>123.755977</ele>
        <time>2023-04-30T16:25:32.160Z</time>
      </trkpt>
      <trkpt lat="48.41649" lon="-4.46226">
        <ele>123.54214</ele>
        <time>2023-04-30T16:25:36.149Z</time>
      </trkpt>
      <trkpt lat="48.41651" lon="-4.46212">
        <ele>123.374715</ele>
        <time>2023-04-30T16:25:39.163Z</time>
      </trkpt>
      <trkpt lat="48.41652" lon="-4.46197">
        <ele>123.200934</ele>
        <time>2023-04-30T16:25:42.164Z</time>
      </trkpt>
      <trkpt lat="48.41652" lon="-4.46182">
        <ele>123.017845</ele>
        <time>2023-04-30T16:25:45.169Z</time>
      </trkpt>
      <trkpt lat="48.41652" lon="-4.46166">
        <ele>122.824034</ele>
        <time>2023-04-30T16:25:48.160Z</time>
      </trkpt>
      <trkpt lat="48.41652" lon="-4.4615">
        <ele>122.626646</ele>
        <time>2023-04-30T16:25:51.167Z</time>
      </trkpt>
      <trkpt lat="48.41653" lon="-4.46132">
        <ele>122.415893</ele>
        <time>2023-04-30T16:25:54.171Z</time>
      </trkpt>
      <trkpt lat="48.41653" lon="-4.46114">
        <ele>122.194434</ele>
        <time>2023-04-30T16:25:57.169Z</time>
      </trkpt>
      <trkpt lat="48.41653" lon="-4.46098">
        <ele>122.00052</ele>
        <time>2023-04-30T16:26:00.167Z</time>
      </trkpt>
      <trkpt lat="48.41655" lon="-4.46082">
        <ele>121.811722</ele>
        <time>2023-04-30T16:26:04.167Z</time>
      </trkpt>
      <trkpt lat="48.41657" lon="-4.46067">
        <ele>121.618848</ele>
        <time>2023-04-30T16:26:08.165Z</time>
      </trkpt>
      <trkpt lat="48.4166" lon="-4.4605">
        <ele>121.409919</ele>
        <time>2023-04-30T16:26:12.163Z</time>
      </trkpt>
      <trkpt lat="48.41664" lon="-4.46033">
        <ele>121.191697</ele>
        <time>2023-04-30T16:26:16.164Z</time>
      </trkpt>
      <trkpt lat="48.41669" lon="-4.46018">
        <ele>121.088599</ele>
        <time>2023-04-30T16:26:19.166Z</time>
      </trkpt>
      <trkpt lat="48.41675" lon="-4.46002">
        <ele>121.160067</ele>
        <time>2023-04-30T16:26:22.170Z</time>
      </trkpt>
      <trkpt lat="48.41679" lon="-4.45986">
        <ele>121.231449</ele>
        <time>2023-04-30T16:26:25.166Z</time>
      </trkpt>
      <trkpt lat="48.41683" lon="-4.4597">
        <ele>121.303468</ele>
        <time>2023-04-30T16:26:28.168Z</time>
      </trkpt>
      <trkpt lat="48.41687" lon="-4.45952">
        <ele>121.377202</ele>
        <time>2023-04-30T16:26:31.164Z</time>
      </trkpt>
      <trkpt lat="48.41691" lon="-4.45934">
        <ele>121.455641</ele>
        <time>2023-04-30T16:26:34.166Z</time>
      </trkpt>
      <trkpt lat="48.41917" lon="-4.44325">
        <ele>122.699268</ele>
        <time>2023-04-30T16:33:00.160Z</time>
      </trkpt>
      <trkpt lat="48.41911" lon="-4.44312">
        <ele>122.034609</ele>
        <time>2023-04-30T16:33:03.163Z</time>
      </trkpt>
      <trkpt lat="48.4191" lon="-4.44298">
        <ele>121.43475</ele>
        <time>2023-04-30T16:33:08.157Z</time>
      </trkpt>
      <trkpt lat="48.41907" lon="-4.44284">
        <ele>120.813738</ele>
        <time>2023-04-30T16:33:12.150Z</time>
      </trkpt>
      <trkpt lat="48.41905" lon="-4.4427">
        <ele>120.225072</ele>
        <time>2023-04-30T16:33:15.167Z</time>
      </trkpt>
      <trkpt lat="48.41904" lon="-4.44256">
        <ele>119.604312</ele>
        <time>2023-04-30T16:33:18.163Z</time>
      </trkpt>
      <trkpt lat="48.41902" lon="-4.4424">
        <ele>118.940657</ele>
        <time>2023-04-30T16:33:21.167Z</time>
      </trkpt>
      <trkpt lat="48.419" lon="-4.44225">
        <ele>118.277863</ele>
        <time>2023-04-30T16:33:24.156Z</time>
      </trkpt>
      <trkpt lat="48.41898" lon="-4.44209">
        <ele>117.615062</ele>
        <time>2023-04-30T16:33:27.168Z</time>
      </trkpt>
      <trkpt lat="48.41895" lon="-4.44192">
        <ele>116.862964</ele>
        <time>2023-04-30T16:33:30.167Z</time>
      </trkpt>
      <trkpt lat="48.41893" lon="-4.44174">
        <ele>116.129575</ele>
        <time>2023-04-30T16:33:33.163Z</time>
      </trkpt>
      <trkpt lat="48.41891" lon="-4.44154">
        <ele>116.196654</ele>
        <time>2023-04-30T16:33:36.168Z</time>
      </trkpt>
      <trkpt lat="48.41889" lon="-4.44135">
        <ele>116.262554</ele>
        <time>2023-04-30T16:33:39.163Z</time>
      </trkpt>
      <trkpt lat="48.41887" lon="-4.44114">
        <ele>116.333135</ele>
        <time>2023-04-30T16:33:42.170Z</time>
      </trkpt>
      <trkpt lat="48.41885" lon="-4.441">
        <ele>116.380954</ele>
        <time>2023-04-30T16:33:44.169Z</time>
      </trkpt>
      <trkpt lat="48.41883" lon="-4.44082">
        <ele>116.444346</ele>
        <time>2023-04-30T16:33:47.168Z</time>
      </trkpt>
      <trkpt lat="48.4188" lon="-4.44064">
        <ele>116.507938</ele>
        <time>2023-04-30T16:33:50.163Z</time>
      </trkpt>
      <trkpt lat="48.41878" lon="-4.44047">
        <ele>116.563789</ele>
        <time>2023-04-30T16:33:53.162Z</time>
      </trkpt>
      <trkpt lat="48.41875" lon="-4.44033">
        <ele>116.614146</ele>
        <time>2023-04-30T16:33:56.167Z</time>
      </trkpt>
      <trkpt lat="48.41873" lon="-4.4402">
        <ele>116.660323</ele>
        <time>2023-04-30T16:33:59.167Z</time>
      </trkpt>
      <trkpt lat="48.41868" lon="-4.44004">
        <ele>116.718081</ele>
        <time>2023-04-30T16:34:03.166Z</time>
      </trkpt>
      <trkpt lat="48.4186" lon="-4.43995">
        <ele>116.770527</ele>
        <time>2023-04-30T16:34:06.170Z</time>
      </trkpt>
      <trkpt lat="48.4185" lon="-4.43985">
        <ele>116.832173</ele>
        <time>2023-04-30T16:34:09.168Z</time>
      </trkpt>
      <trkpt lat="48.41841" lon="-4.43971">
        <ele>116.897796</ele>
        <time>2023-04-30T16:34:12.172Z</time>
      </trkpt>
      <trkpt lat="48.41508" lon="-4.43704">
        <ele>128.995313</ele>
        <time>2023-04-30T16:49:13.187Z</time>
      </trkpt>
      <trkpt lat="48.41488" lon="-4.43705">
        <ele>129.061808</ele>
        <time>2023-04-30T16:49:14.166Z</time>
      </trkpt>
      <trkpt lat="48.41486" lon="-4.43691">
        <ele>129.112824</ele>
        <time>2023-04-30T16:50:09.172Z</time>
      </trkpt>
      <trkpt lat="48.41492" lon="-4.43675">
        <ele>129.1741</ele>
        <time>2023-04-30T16:50:13.170Z</time>
      </trkpt>
      <trkpt lat="48.41496" lon="-4.43659">
        <ele>129.232739</ele>
        <time>2023-04-30T16:50:16.175Z</time>
      </trkpt>
      <trkpt lat="48.41498" lon="-4.43645">
        <ele>129.280325</ele>
        <time>2023-04-30T16:50:18.176Z</time>
      </trkpt>
      <trkpt lat="48.41501" lon="-4.43632">
        <ele>129.327249</ele>
        <time>2023-04-30T16:50:20.175Z</time>
      </trkpt>
      <trkpt lat="48.43544" lon="-4.4">
        <ele>145.467415</ele>
        <time>2023-04-30T17:11:52.181Z</time>
      </trkpt>
      <trkpt lat="48.44193" lon="-4.28221">
        <ele>59.862697</ele>
        <time>2023-04-30T18:31:10.182Z</time>
      </trkpt>
      <trkpt lat="48.44199" lon="-4.2821">
        <ele>59.522672</ele>
        <time>2023-04-30T18:34:11.182Z</time>
      </trkpt>
      <trkpt lat="48.44189" lon="-4.28202">
        <ele>59.136304</ele>
        <time>2023-04-30T18:35:08.183Z</time>
      </trkpt>
      <trkpt lat="48.44177" lon="-4.28181">
        <ele>58.471547</ele>
        <time>2023-04-30T18:36:56.189Z</time>
      </trkpt>
      <trkpt lat="48.4417" lon="-4.28168">
        <ele>58.082625</ele>
        <time>2023-04-30T18:37:00.182Z</time>
      </trkpt>
      <trkpt lat="48.44163" lon="-4.28158">
        <ele>57.74882</ele>
        <time>2023-04-30T18:37:04.182Z</time>
      </trkpt>
      <trkpt lat="48.44157" lon="-4.28146">
        <ele>57.405201</ele>
        <time>2023-04-30T18:37:08.189Z</time>
      </trkpt>
      <trkpt lat="48.4415" lon="-4.28135">
        <ele>57.040711</ele>
        <time>2023-04-30T18:37:13.187Z</time>
      </trkpt>
      <trkpt lat="48.44144" lon="-4.28122">
        <ele>56.683507</ele>
        <time>2023-04-30T18:37:17.192Z</time>
      </trkpt>
      <trkpt lat="48.44139" lon="-4.28106">
        <ele>56.400688</ele>
        <time>2023-04-30T18:37:21.181Z</time>
      </trkpt>
      <trkpt lat="48.44136" lon="-4.28089">
        <ele>56.109384</ele>
        <time>2023-04-30T18:37:25.188Z</time>
      </trkpt>
      <trkpt lat="48.44132" lon="-4.28076">
        <ele>55.87997</ele>
        <time>2023-04-30T18:37:28.189Z</time>
      </trkpt>
      <trkpt lat="48.4413" lon="-4.28062">
        <ele>55.652029</ele>
        <time>2023-04-30T18:37:31.187Z</time>
      </trkpt>
      <trkpt lat="48.44129" lon="-4.28047">
        <ele>55.406378</ele>
        <time>2023-04-30T18:37:34.188Z</time>
      </trkpt>
      <trkpt lat="48.44129" lon="-4.28031">
        <ele>55.146081</ele>
        <time>2023-04-30T18:37:37.189Z</time>
      </trkpt>
      <trkpt lat="48.44127" lon="-4.28017">
        <ele>54.914026</ele>
        <time>2023-04-30T18:37:40.178Z</time>
      </trkpt>
      <trkpt lat="48.44126" lon="-4.28">
        <ele>54.634387</ele>
        <time>2023-04-30T18:37:44.187Z</time>
      </trkpt>
      <trkpt lat="48.44127" lon="-4.27984">
        <ele>54.372635</ele>
        <time>2023-04-30T18:37:48.181Z</time>
      </trkpt>
      <trkpt lat="48.44127" lon="-4.27969">
        <ele>54.121052</ele>
        <time>2023-04-30T18:37:52.188Z</time>
      </trkpt>
      <trkpt lat="48.44129" lon="-4.27954">
        <ele>53.877693</ele>
        <time>2023-04-30T18:37:56.188Z</time>
      </trkpt>
      <trkpt lat="48.44133" lon="-4.27941">
        <ele>53.649239</ele>
        <time>2023-04-30T18:38:00.178Z</time>
      </trkpt>
      <trkpt lat="48.44138" lon="-4.27928">
        <ele>53.393729</ele>
        <time>2023-04-30T18:38:05.189Z</time>
      </trkpt>
      <trkpt lat="48.44144" lon="-4.27914">
        <ele>53.119976</ele>
        <time>2023-04-30T18:38:10.189Z</time>
      </trkpt>
      <trkpt lat="48.44151" lon="-4.27903">
        <ele>52.876913</ele>
        <time>2023-04-30T18:38:14.192Z</time>
      </trkpt>
      <trkpt lat="48.44158" lon="-4.27891">
        <ele>52.614433</ele>
        <time>2023-04-30T18:38:18.194Z</time>
      </trkpt>
      <trkpt lat="48.44167" lon="-4.27881">
        <ele>52.337103</ele>
        <time>2023-04-30T18:38:22.181Z</time>
      </trkpt>
      <trkpt lat="48.44175" lon="-4.2787">
        <ele>52.572788</ele>
        <time>2023-04-30T18:38:26.177Z</time>
      </trkpt>
      <trkpt lat="48.44182" lon="-4.2786">
        <ele>52.944595</ele>
        <time>2023-04-30T18:38:30.189Z</time>
      </trkpt>
      <trkpt lat="48.44188" lon="-4.27851">
        <ele>53.319353</ele>
        <time>2023-04-30T18:38:34.190Z</time>
      </trkpt>
      <trkpt lat="48.44196" lon="-4.27841">
        <ele>53.700071</ele>
        <time>2023-04-30T18:38:38.187Z</time>
      </trkpt>
      <trkpt lat="48.44203" lon="-4.27832">
        <ele>54.07492</ele>
        <time>2023-04-30T18:38:42.183Z</time>
      </trkpt>
      <trkpt lat="48.4421" lon="-4.27825">
        <ele>54.438825</ele>
        <time>2023-04-30T18:38:46.188Z</time>
      </trkpt>
      <trkpt lat="48.44218" lon="-4.27816">
        <ele>54.812091</ele>
        <time>2023-04-30T18:38:51.179Z</time>
      </trkpt>
      <trkpt lat="48.44225" lon="-4.27806">
        <ele>55.22257</ele>
        <time>2023-04-30T18:38:56.186Z</time>
      </trkpt>
      <trkpt lat="48.44233" lon="-4.27796">
        <ele>55.624993</ele>
        <time>2023-04-30T18:39:01.182Z</time>
      </trkpt>
      <trkpt lat="48.4424" lon="-4.27786">
        <ele>56.033322</ele>
        <time>2023-04-30T18:39:06.186Z</time>
      </trkpt>
      <trkpt lat="48.44247" lon="-4.27775">
        <ele>56.427471</ele>
        <time>2023-04-30T18:39:12.182Z</time>
      </trkpt>
      <trkpt lat="48.44255" lon="-4.27765">
        <ele>56.839461</ele>
        <time>2023-04-30T18:39:18.169Z</time>
      </trkpt>
      <trkpt lat="48.44262" lon="-4.27754">
        <ele>57.246017</ele>
        <time>2023-04-30T18:39:24.188Z</time>
      </trkpt>
      <trkpt lat="48.44269" lon="-4.27744">
        <ele>57.637511</ele>
        <time>2023-04-30T18:39:29.187Z</time>
      </trkpt>
      <trkpt lat="48.44276" lon="-4.27732">
        <ele>58.044139</ele>
        <time>2023-04-30T18:39:35.180Z</time>
      </trkpt>
      <trkpt lat="48.44283" lon="-4.27721">
        <ele>58.453316</ele>
        <time>2023-04-30T18:39:41.171Z</time>
      </trkpt>
      <trkpt lat="48.4429" lon="-4.2771">
        <ele>58.860649</ele>
        <time>2023-04-30T18:39:47.189Z</time>
      </trkpt>
      <trkpt lat="48.44297" lon="-4.27698">
        <ele>59.28521</ele>
        <time>2023-04-30T18:39:53.186Z</time>
      </trkpt>
      <trkpt lat="48.44305" lon="-4.2769">
        <ele>59.586823</ele>
        <time>2023-04-30T18:39:58.188Z</time>
      </trkpt>
      <trkpt lat="48.44312" lon="-4.2768">
        <ele>59.839818</ele>
        <time>2023-04-30T18:40:04.181Z</time>
      </trkpt>
      <trkpt lat="48.44319" lon="-4.2767">
        <ele>60.067667</ele>
        <time>2023-04-30T18:40:09.187Z</time>
      </trkpt>
      <trkpt lat="48.44327" lon="-4.27661">
        <ele>60.320889</ele>
        <time>2023-04-30T18:40:15.181Z</time>
      </trkpt>
      <trkpt lat="48.44335" lon="-4.27651">
        <ele>60.565507</ele>
        <time>2023-04-30T18:40:21.176Z</time>
      </trkpt>
      <trkpt lat="48.44342" lon="-4.27641">
        <ele>60.815283</ele>
        <time>2023-04-30T18:40:27.176Z</time>
      </trkpt>
      <trkpt lat="48.44349" lon="-4.27629">
        <ele>61.0714</ele>
        <time>2023-04-30T18:40:33.179Z</time>
      </trkpt>
      <trkpt lat="48.44356" lon="-4.27619">
        <ele>61.307763</ele>
        <time>2023-04-30T18:40:38.193Z</time>
      </trkpt>
      <trkpt lat="48.44362" lon="-4.27607">
        <ele>61.553168</ele>
        <time>2023-04-30T18:40:43.185Z</time>
      </trkpt>
      <trkpt lat="48.44369" lon="-4.27598">
        <ele>61.773906</ele>
        <time>2023-04-30T18:40:47.188Z</time>
      </trkpt>
      <trkpt lat="48.44376" lon="-4.27588">
        <ele>62.022151</ele>
        <time>2023-04-30T18:40:52.188Z</time>
      </trkpt>
      <trkpt lat="48.44383" lon="-4.27577">
        <ele>62.265428</ele>
        <time>2023-04-30T18:40:57.186Z</time>
      </trkpt>
      <trkpt lat="48.44391" lon="-4.27567">
        <ele>62.519589</ele>
        <time>2023-04-30T18:41:02.186Z</time>
      </trkpt>
      <trkpt lat="48.44399" lon="-4.2756">
        <ele>62.748727</ele>
        <time>2023-04-30T18:41:06.187Z</time>
      </trkpt>
      <trkpt lat="48.44407" lon="-4.27549">
        <ele>63.000723</ele>
        <time>2023-04-30T18:41:11.191Z</time>
      </trkpt>
      <trkpt lat="48.44414" lon="-4.27538">
        <ele>63.254075</ele>
        <time>2023-04-30T18:41:16.182Z</time>
      </trkpt>
      <trkpt lat="48.44422" lon="-4.27527">
        <ele>63.518801</ele>
        <time>2023-04-30T18:41:21.181Z</time>
      </trkpt>
      <trkpt lat="48.44429" lon="-4.27516">
        <ele>63.77773</ele>
        <time>2023-04-30T18:41:26.196Z</time>
      </trkpt>
      <trkpt lat="48.44436" lon="-4.27506">
        <ele>63.878169</ele>
        <time>2023-04-30T18:41:30.185Z</time>
      </trkpt>
      <trkpt lat="48.44443" lon="-4.27496">
        <ele>63.837753</ele>
        <time>2023-04-30T18:41:34.194Z</time>
      </trkpt>
      <trkpt lat="48.44452" lon="-4.27484">
        <ele>63.791592</ele>
        <time>2023-04-30T18:41:39.191Z</time>
      </trkpt>
      <trkpt lat="48.44459" lon="-4.27475">
        <ele>63.751967</ele>
        <time>2023-04-30T18:41:43.189Z</time>
      </trkpt>
      <trkpt lat="48.44466" lon="-4.27465">
        <ele>63.712647</ele>
        <time>2023-04-30T18:41:47.191Z</time>
      </trkpt>
      <trkpt lat="48.44473" lon="-4.27455">
        <ele>63.672626</ele>
        <time>2023-04-30T18:41:52.190Z</time>
      </trkpt>
      <trkpt lat="48.4448" lon="-4.27445">
        <ele>63.63469</ele>
        <time>2023-04-30T18:41:56.188Z</time>
      </trkpt>
      <trkpt lat="48.44488" lon="-4.27433">
        <ele>63.590075</ele>
        <time>2023-04-30T18:42:01.185Z</time>
      </trkpt>
      <trkpt lat="48.44496" lon="-4.27423">
        <ele>63.547131</ele>
        <time>2023-04-30T18:42:06.191Z</time>
      </trkpt>
      <trkpt lat="48.44504" lon="-4.27412">
        <ele>63.502674</ele>
        <time>2023-04-30T18:42:12.185Z</time>
      </trkpt>
      <trkpt lat="48.4451" lon="-4.27399">
        <ele>63.458332</ele>
        <time>2023-04-30T18:42:17.190Z</time>
      </trkpt>
      <trkpt lat="48.44516" lon="-4.27385">
        <ele>63.41465</ele>
        <time>2023-04-30T18:42:22.182Z</time>
      </trkpt>
      <trkpt lat="48.44521" lon="-4.27372">
        <ele>63.374086</ele>
        <time>2023-04-30T18:42:27.191Z</time>
      </trkpt>
      <trkpt lat="48.44525" lon="-4.27358">
        <ele>63.332408</ele>
        <time>2023-04-30T18:42:31.196Z</time>
      </trkpt>
      <trkpt lat="48.44528" lon="-4.27344">
        <ele>63.293944</ele>
        <time>2023-04-30T18:42:35.189Z</time>
      </trkpt>
      <trkpt lat="48.4453" lon="-4.27331">
        <ele>63.256751</ele>
        <time>2023-04-30T18:42:40.186Z</time>
      </trkpt>
      <trkpt lat="48.44534" lon="-4.27316">
        <ele>63.21278</ele>
        <time>2023-04-30T18:42:45.189Z</time>
      </trkpt>
      <trkpt lat="48.44538" lon="-4.273">
        <ele>63.167488</ele>
        <time>2023-04-30T18:42:50.202Z</time>
      </trkpt>
      <trkpt lat="48.44542" lon="-4.27286">
        <ele>63.223774</ele>
        <time>2023-04-30T18:42:54.188Z</time>
      </trkpt>
      <trkpt lat="48.44544" lon="-4.27272">
        <ele>63.286853</ele>
        <time>2023-04-30T18:42:58.178Z</time>
      </trkpt>
      <trkpt lat="48.44548" lon="-4.27259">
        <ele>63.348275</ele>
        <time>2023-04-30T18:43:02.182Z</time>
      </trkpt>
      <trkpt lat="48.44551" lon="-4.27246">
        <ele>63.409979</ele>
        <time>2023-04-30T18:43:06.188Z</time>
      </trkpt>
      <trkpt lat="48.44554" lon="-4.27231">
        <ele>63.478468</ele>
        <time>2023-04-30T18:43:10.191Z</time>
      </trkpt>
      <trkpt lat="48.44559" lon="-4.27216">
        <ele>63.551931</ele>
        <time>2023-04-30T18:43:14.188Z</time>
      </trkpt>
      <trkpt lat="48.44564" lon="-4.272">
        <ele>63.62963</ele>
        <time>2023-04-30T18:43:18.183Z</time>
      </trkpt>
      <trkpt lat="48.44568" lon="-4.27182">
        <ele>63.712482</ele>
        <time>2023-04-30T18:43:22.183Z</time>
      </trkpt>
      <trkpt lat="48.44574" lon="-4.27166">
        <ele>63.791322</ele>
        <time>2023-04-30T18:43:25.186Z</time>
      </trkpt>
      <trkpt lat="48.44585" lon="-4.27157">
        <ele>63.875248</ele>
        <time>2023-04-30T18:43:28.188Z</time>
      </trkpt>
      <trkpt lat="48.44594" lon="-4.27153">
        <ele>63.940592</ele>
        <time>2023-04-30T18:43:32.186Z</time>
      </trkpt>
      <trkpt lat="48.44602" lon="-4.27146">
        <ele>64.003451</ele>
        <time>2023-04-30T18:43:37.193Z</time>
      </trkpt>
      <trkpt lat="48.4461" lon="-4.27137">
        <ele>64.067919</ele>
        <time>2023-04-30T18:43:42.183Z</time>
      </trkpt>
      <trkpt lat="48.44619" lon="-4.2713">
        <ele>64.131462</ele>
        <time>2023-04-30T18:43:48.179Z</time>
      </trkpt>
      <trkpt lat="48.44626" lon="-4.27121">
        <ele>64.192803</ele>
        <time>2023-04-30T18:43:54.179Z</time>
      </trkpt>
      <trkpt lat="48.44635" lon="-4.27113">
        <ele>64.261323</ele>
        <time>2023-04-30T18:44:01.173Z</time>
      </trkpt>
      <trkpt lat="48.44642" lon="-4.27104">
        <ele>64.326293</ele>
        <time>2023-04-30T18:44:06.192Z</time>
      </trkpt>
      <trkpt lat="48.44651" lon="-4.27094">
        <ele>64.429533</ele>
        <time>2023-04-30T18:44:11.169Z</time>
      </trkpt>
      <trkpt lat="48.44659" lon="-4.27085">
        <ele>64.529402</ele>
        <time>2023-04-30T18:44:15.181Z</time>
      </trkpt>
      <trkpt lat="48.44667" lon="-4.27078">
        <ele>64.631727</ele>
        <time>2023-04-30T18:44:19.191Z</time>
      </trkpt>
      <trkpt lat="48.44676" lon="-4.27069">
        <ele>64.744439</ele>
        <time>2023-04-30T18:44:24.202Z</time>
      </trkpt>
      <trkpt lat="48.44685" lon="-4.2706">
        <ele>64.857649</ele>
        <time>2023-04-30T18:44:29.192Z</time>
      </trkpt>
      <trkpt lat="48.44694" lon="-4.27051">
        <ele>64.966868</ele>
        <time>2023-04-30T18:44:34.189Z</time>
      </trkpt>
      <trkpt lat="48.44703" lon="-4.27042">
        <ele>65.082747</ele>
        <time>2023-04-30T18:44:39.192Z</time>
      </trkpt>
      <trkpt lat="48.44711" lon="-4.27034">
        <ele>65.183035</ele>
        <time>2023-04-30T18:44:44.182Z</time>
      </trkpt>
      <trkpt lat="48.44719" lon="-4.27025">
        <ele>65.289668</ele>
        <time>2023-04-30T18:44:49.183Z</time>
      </trkpt>
      <trkpt lat="48.44726" lon="-4.27017">
        <ele>65.384899</ele>
        <time>2023-04-30T18:44:53.188Z</time>
      </trkpt>
      <trkpt lat="48.44735" lon="-4.27007">
        <ele>65.503456</ele>
        <time>2023-04-30T18:44:58.181Z</time>
      </trkpt>
      <trkpt lat="48.44743" lon="-4.27">
        <ele>65.601612</ele>
        <time>2023-04-30T18:45:02.182Z</time>
      </trkpt>
      <trkpt lat="48.44752" lon="-4.2699">
        <ele>65.717561</ele>
        <time>2023-04-30T18:45:07.186Z</time>
      </trkpt>
      <trkpt lat="48.44761" lon="-4.26982">
        <ele>65.822583</ele>
        <time>2023-04-30T18:45:12.189Z</time>
      </trkpt>
      <trkpt lat="48.45397" lon="-4.25739">
        <ele>72.086331</ele>
        <time>2023-04-30T18:59:58.179Z</time>
      </trkpt>
      <trkpt lat="48.454" lon="-4.25724">
        <ele>71.931367</ele>
        <time>2023-04-30T19:01:19.197Z</time>
      </trkpt>
      <trkpt lat="48.45401" lon="-4.25707">
        <ele>71.776153</ele>
        <time>2023-04-30T19:01:23.196Z</time>
      </trkpt>
      <trkpt lat="48.45404" lon="-4.2569">
        <ele>71.613351</ele>
        <time>2023-04-30T19:01:27.190Z</time>
      </trkpt>
      <trkpt lat="48.45406" lon="-4.25676">
        <ele>71.476778</ele>
        <time>2023-04-30T19:01:30.190Z</time>
      </trkpt>
      <trkpt lat="48.4541" lon="-4.25661">
        <ele>71.321638</ele>
        <time>2023-04-30T19:01:33.192Z</time>
      </trkpt>
      <trkpt lat="48.45414" lon="-4.25644">
        <ele>71.147815</ele>
        <time>2023-04-30T19:01:36.191Z</time>
      </trkpt>
      <trkpt lat="48.45418" lon="-4.25626">
        <ele>70.973455</ele>
        <time>2023-04-30T19:01:39.193Z</time>
      </trkpt>
      <trkpt lat="48.45423" lon="-4.25608">
        <ele>71.759459</ele>
        <time>2023-04-30T19:01:42.191Z</time>
      </trkpt>
      <trkpt lat="48.45427" lon="-4.2559">
        <ele>72.51563</ele>
        <time>2023-04-30T19:01:45.189Z</time>
      </trkpt>
      <trkpt lat="48.45432" lon="-4.25573">
        <ele>73.26992</ele>
        <time>2023-04-30T19:01:48.188Z</time>
      </trkpt>
      <trkpt lat="48.45439" lon="-4.2556">
        <ele>73.959154</ele>
        <time>2023-04-30T19:01:51.196Z</time>
      </trkpt>
      <trkpt lat="48.45996" lon="-4.25861">
        <ele>104.457456</ele>
        <time>2023-04-30T19:23:38.195Z</time>
      </trkpt>
      <trkpt lat="48.45982" lon="-4.25865">
        <ele>104.457456</ele>
        <time>2023-04-30T19:23:39.181Z</time>
      </trkpt>
      <trkpt lat="48.45993" lon="-4.25871">
        <ele>104.457456</ele>
        <time>2023-04-30T19:23:43.185Z</time>
      </trkpt>
      <trkpt lat="48.45988" lon="-4.25882">
        <ele>104.457456</ele>
        <time>2023-04-30T19:23:55.193Z</time>
      </trkpt>
      <trkpt lat="48.45979" lon="-4.25895">
        <ele>104.457456</ele>
        <time>2023-04-30T19:33:32.175Z</time>
      </trkpt>
      <trkpt lat="48.45975" lon="-4.25898">
        <ele>104.457456</ele>
        <time>2023-04-30T19:33:37.442Z</time>
      </trkpt>
    </trkseg>
  </trk>
</gpx>